<?xml version="1.0" encoding="UTF-8" standalone="no" ?>
<gpx xmlns="http://www.topografix.com/GPX/1/1" xmlns:xsi="http://www.w3.org/2001/XMLSchema-instance" xsi:schemaLocation="http://www.topografix.com/GPX/1/1 http://www.topografix.com/GPX/1/1/gpx.xsd" version="1.1" creator="VisuGPX - https://www.visugpx.com">
  <metadata>
    <name>Château le Caire/ Courmettes Tourrettes sur Loup</name>
    <desc><![CDATA[simulation nouvelle sortie dans le même secteur]]></desc>
  </metadata>
  <trk>
    <name><![CDATA[chateau le caire courmettes]]></name>
    <trkseg>
      <trkpt lat="43.73452" lon="7.05475">
        <ele>811.6</ele>
        <time>2016-09-26T07:07:34Z</time>
      </trkpt>
      <trkpt lat="43.73452" lon="7.05475">
        <ele>811.6</ele>
        <time>2016-09-26T07:07:37Z</time>
      </trkpt>
      <trkpt lat="43.73452" lon="7.05475">
        <ele>804.4</ele>
        <time>2016-09-26T07:07:40Z</time>
      </trkpt>
      <trkpt lat="43.7342" lon="7.055">
        <ele>805.9</ele>
        <time>2016-09-26T07:07:46Z</time>
      </trkpt>
      <trkpt lat="43.73433" lon="7.05487">
        <ele>805.8</ele>
        <time>2016-09-26T07:07:48Z</time>
      </trkpt>
      <trkpt lat="43.73433" lon="7.05487">
        <ele>808</ele>
        <time>2016-09-26T07:07:56Z</time>
      </trkpt>
      <trkpt lat="43.73442" lon="7.05472">
        <ele>804.9</ele>
        <time>2016-09-26T07:07:57Z</time>
      </trkpt>
      <trkpt lat="43.73445" lon="7.05468">
        <ele>805.3</ele>
        <time>2016-09-26T07:08:00Z</time>
      </trkpt>
      <trkpt lat="43.73449" lon="7.05464">
        <ele>805.4</ele>
        <time>2016-09-26T07:08:04Z</time>
      </trkpt>
      <trkpt lat="43.73453" lon="7.0546">
        <ele>805.4</ele>
        <time>2016-09-26T07:08:10Z</time>
      </trkpt>
      <trkpt lat="43.73458" lon="7.05459">
        <ele>805.3</ele>
        <time>2016-09-26T07:08:14Z</time>
      </trkpt>
      <trkpt lat="43.73458" lon="7.05459">
        <ele>813.4</ele>
        <time>2016-09-26T07:08:25Z</time>
      </trkpt>
      <trkpt lat="43.73472" lon="7.05448">
        <ele>805.5</ele>
        <time>2016-09-26T07:08:33Z</time>
      </trkpt>
      <trkpt lat="43.73473" lon="7.05448">
        <ele>805.5</ele>
        <time>2016-09-26T07:08:35Z</time>
      </trkpt>
      <trkpt lat="43.73475" lon="7.05447">
        <ele>804</ele>
        <time>2016-09-26T07:08:39Z</time>
      </trkpt>
      <trkpt lat="43.73475" lon="7.05447">
        <ele>817.3</ele>
        <time>2016-09-26T07:08:39Z</time>
      </trkpt>
      <trkpt lat="43.73475" lon="7.05447">
        <ele>817.3</ele>
        <time>2016-09-26T07:09:49Z</time>
      </trkpt>
      <trkpt lat="43.73485" lon="7.05428">
        <ele>804.8</ele>
        <time>2016-09-26T07:09:50Z</time>
      </trkpt>
      <trkpt lat="43.73484" lon="7.05421">
        <ele>805.3</ele>
        <time>2016-09-26T07:09:56Z</time>
      </trkpt>
      <trkpt lat="43.73483" lon="7.05414">
        <ele>805.7</ele>
        <time>2016-09-26T07:10:03Z</time>
      </trkpt>
      <trkpt lat="43.73483" lon="7.05414">
        <ele>819.3</ele>
        <time>2016-09-26T07:10:11Z</time>
      </trkpt>
      <trkpt lat="43.73478" lon="7.05403">
        <ele>805.7</ele>
        <time>2016-09-26T07:10:12Z</time>
      </trkpt>
      <trkpt lat="43.73476" lon="7.05397">
        <ele>806</ele>
        <time>2016-09-26T07:10:16Z</time>
      </trkpt>
      <trkpt lat="43.73475" lon="7.0539">
        <ele>806</ele>
        <time>2016-09-26T07:10:20Z</time>
      </trkpt>
      <trkpt lat="43.73473" lon="7.05384">
        <ele>808.9</ele>
        <time>2016-09-26T07:10:25Z</time>
      </trkpt>
      <trkpt lat="43.73471" lon="7.05378">
        <ele>810.9</ele>
        <time>2016-09-26T07:10:30Z</time>
      </trkpt>
      <trkpt lat="43.73471" lon="7.05375">
        <ele>813.5</ele>
        <time>2016-09-26T07:10:34Z</time>
      </trkpt>
      <trkpt lat="43.73471" lon="7.05375">
        <ele>820.7</ele>
        <time>2016-09-26T07:10:34Z</time>
      </trkpt>
      <trkpt lat="43.73471" lon="7.05375">
        <ele>820.7</ele>
        <time>2016-09-26T07:14:57Z</time>
      </trkpt>
      <trkpt lat="43.73467" lon="7.05352">
        <ele>817.7</ele>
        <time>2016-09-26T07:14:58Z</time>
      </trkpt>
      <trkpt lat="43.73467" lon="7.05352">
        <ele>821.1</ele>
        <time>2016-09-26T07:15:07Z</time>
      </trkpt>
      <trkpt lat="43.73465" lon="7.05339">
        <ele>817.8</ele>
        <time>2016-09-26T07:15:13Z</time>
      </trkpt>
      <trkpt lat="43.73465" lon="7.05332">
        <ele>818.3</ele>
        <time>2016-09-26T07:15:17Z</time>
      </trkpt>
      <trkpt lat="43.73464" lon="7.05325">
        <ele>818.4</ele>
        <time>2016-09-26T07:15:22Z</time>
      </trkpt>
      <trkpt lat="43.73463" lon="7.05318">
        <ele>818.6</ele>
        <time>2016-09-26T07:15:27Z</time>
      </trkpt>
      <trkpt lat="43.73462" lon="7.05316">
        <ele>818.6</ele>
        <time>2016-09-26T07:15:29Z</time>
      </trkpt>
      <trkpt lat="43.73461" lon="7.05314">
        <ele>820.4</ele>
        <time>2016-09-26T07:15:33Z</time>
      </trkpt>
      <trkpt lat="43.73461" lon="7.05314">
        <ele>820.3</ele>
        <time>2016-09-26T07:15:33Z</time>
      </trkpt>
      <trkpt lat="43.73461" lon="7.05314">
        <ele>820.3</ele>
        <time>2016-09-26T07:16:14Z</time>
      </trkpt>
      <trkpt lat="43.73459" lon="7.05303">
        <ele>819.8</ele>
        <time>2016-09-26T07:16:15Z</time>
      </trkpt>
      <trkpt lat="43.7346" lon="7.05296">
        <ele>819.8</ele>
        <time>2016-09-26T07:16:19Z</time>
      </trkpt>
      <trkpt lat="43.73459" lon="7.05289">
        <ele>819.6</ele>
        <time>2016-09-26T07:16:24Z</time>
      </trkpt>
      <trkpt lat="43.73459" lon="7.05283">
        <ele>819.2</ele>
        <time>2016-09-26T07:16:28Z</time>
      </trkpt>
      <trkpt lat="43.73456" lon="7.05277">
        <ele>819.2</ele>
        <time>2016-09-26T07:16:32Z</time>
      </trkpt>
      <trkpt lat="43.73449" lon="7.05267">
        <ele>819.1</ele>
        <time>2016-09-26T07:16:36Z</time>
      </trkpt>
      <trkpt lat="43.73448" lon="7.0526">
        <ele>818.8</ele>
        <time>2016-09-26T07:16:40Z</time>
      </trkpt>
      <trkpt lat="43.73448" lon="7.05254">
        <ele>818</ele>
        <time>2016-09-26T07:16:48Z</time>
      </trkpt>
      <trkpt lat="43.73444" lon="7.05251">
        <ele>817.8</ele>
        <time>2016-09-26T07:16:52Z</time>
      </trkpt>
      <trkpt lat="43.73439" lon="7.05238">
        <ele>816.9</ele>
        <time>2016-09-26T07:17:01Z</time>
      </trkpt>
      <trkpt lat="43.73436" lon="7.05219">
        <ele>816.5</ele>
        <time>2016-09-26T07:17:09Z</time>
      </trkpt>
      <trkpt lat="43.73437" lon="7.05198">
        <ele>816</ele>
        <time>2016-09-26T07:17:16Z</time>
      </trkpt>
      <trkpt lat="43.73435" lon="7.05185">
        <ele>815.6</ele>
        <time>2016-09-26T07:17:21Z</time>
      </trkpt>
      <trkpt lat="43.73435" lon="7.05185">
        <ele>818.2</ele>
        <time>2016-09-26T07:17:30Z</time>
      </trkpt>
      <trkpt lat="43.73431" lon="7.05167">
        <ele>814.8</ele>
        <time>2016-09-26T07:17:32Z</time>
      </trkpt>
      <trkpt lat="43.7343" lon="7.05159">
        <ele>814.5</ele>
        <time>2016-09-26T07:17:36Z</time>
      </trkpt>
      <trkpt lat="43.7343" lon="7.05159">
        <ele>817.6</ele>
        <time>2016-09-26T07:17:46Z</time>
      </trkpt>
      <trkpt lat="43.73429" lon="7.05142">
        <ele>814</ele>
        <time>2016-09-26T07:17:48Z</time>
      </trkpt>
      <trkpt lat="43.73429" lon="7.05135">
        <ele>813.7</ele>
        <time>2016-09-26T07:17:55Z</time>
      </trkpt>
      <trkpt lat="43.73429" lon="7.05135">
        <ele>817.9</ele>
        <time>2016-09-26T07:18:05Z</time>
      </trkpt>
      <trkpt lat="43.73425" lon="7.05107">
        <ele>811.9</ele>
        <time>2016-09-26T07:18:11Z</time>
      </trkpt>
      <trkpt lat="43.73424" lon="7.051">
        <ele>811.8</ele>
        <time>2016-09-26T07:18:14Z</time>
      </trkpt>
      <trkpt lat="43.73423" lon="7.05093">
        <ele>811.5</ele>
        <time>2016-09-26T07:18:17Z</time>
      </trkpt>
      <trkpt lat="43.73421" lon="7.05087">
        <ele>811.4</ele>
        <time>2016-09-26T07:18:22Z</time>
      </trkpt>
      <trkpt lat="43.73421" lon="7.05087">
        <ele>818</ele>
        <time>2016-09-26T07:18:33Z</time>
      </trkpt>
      <trkpt lat="43.7342" lon="7.05067">
        <ele>810.8</ele>
        <time>2016-09-26T07:18:34Z</time>
      </trkpt>
      <trkpt lat="43.73419" lon="7.05061">
        <ele>809.7</ele>
        <time>2016-09-26T07:18:37Z</time>
      </trkpt>
      <trkpt lat="43.73418" lon="7.05053">
        <ele>809.7</ele>
        <time>2016-09-26T07:18:41Z</time>
      </trkpt>
      <trkpt lat="43.73415" lon="7.05049">
        <ele>808.9</ele>
        <time>2016-09-26T07:18:45Z</time>
      </trkpt>
      <trkpt lat="43.73409" lon="7.05046">
        <ele>808.9</ele>
        <time>2016-09-26T07:18:48Z</time>
      </trkpt>
      <trkpt lat="43.73401" lon="7.05037">
        <ele>808.9</ele>
        <time>2016-09-26T07:18:57Z</time>
      </trkpt>
      <trkpt lat="43.73401" lon="7.05037">
        <ele>818.7</ele>
        <time>2016-09-26T07:19:06Z</time>
      </trkpt>
      <trkpt lat="43.73391" lon="7.0502">
        <ele>808.9</ele>
        <time>2016-09-26T07:19:08Z</time>
      </trkpt>
      <trkpt lat="43.73389" lon="7.05013">
        <ele>809.4</ele>
        <time>2016-09-26T07:19:13Z</time>
      </trkpt>
      <trkpt lat="43.73386" lon="7.05008">
        <ele>809.4</ele>
        <time>2016-09-26T07:19:17Z</time>
      </trkpt>
      <trkpt lat="43.73383" lon="7.05002">
        <ele>811.1</ele>
        <time>2016-09-26T07:19:22Z</time>
      </trkpt>
      <trkpt lat="43.73379" lon="7.04996">
        <ele>812.1</ele>
        <time>2016-09-26T07:19:27Z</time>
      </trkpt>
      <trkpt lat="43.73375" lon="7.04994">
        <ele>812.3</ele>
        <time>2016-09-26T07:19:32Z</time>
      </trkpt>
      <trkpt lat="43.73375" lon="7.04994">
        <ele>824.4</ele>
        <time>2016-09-26T07:19:41Z</time>
      </trkpt>
      <trkpt lat="43.73362" lon="7.04985">
        <ele>813.1</ele>
        <time>2016-09-26T07:19:42Z</time>
      </trkpt>
      <trkpt lat="43.73356" lon="7.04981">
        <ele>813.6</ele>
        <time>2016-09-26T07:19:47Z</time>
      </trkpt>
      <trkpt lat="43.73351" lon="7.04983">
        <ele>814</ele>
        <time>2016-09-26T07:19:52Z</time>
      </trkpt>
      <trkpt lat="43.73347" lon="7.04986">
        <ele>814.8</ele>
        <time>2016-09-26T07:19:56Z</time>
      </trkpt>
      <trkpt lat="43.7334" lon="7.04975">
        <ele>815.7</ele>
        <time>2016-09-26T07:20:05Z</time>
      </trkpt>
      <trkpt lat="43.7334" lon="7.04975">
        <ele>826.7</ele>
        <time>2016-09-26T07:20:15Z</time>
      </trkpt>
      <trkpt lat="43.73323" lon="7.04949">
        <ele>819.5</ele>
        <time>2016-09-26T07:20:24Z</time>
      </trkpt>
      <trkpt lat="43.73318" lon="7.04947">
        <ele>819.9</ele>
        <time>2016-09-26T07:20:27Z</time>
      </trkpt>
      <trkpt lat="43.73308" lon="7.04942">
        <ele>820.1</ele>
        <time>2016-09-26T07:20:34Z</time>
      </trkpt>
      <trkpt lat="43.73301" lon="7.04934">
        <ele>820.6</ele>
        <time>2016-09-26T07:20:41Z</time>
      </trkpt>
      <trkpt lat="43.73297" lon="7.04926">
        <ele>820.8</ele>
        <time>2016-09-26T07:20:46Z</time>
      </trkpt>
      <trkpt lat="43.73297" lon="7.04926">
        <ele>830.1</ele>
        <time>2016-09-26T07:20:55Z</time>
      </trkpt>
      <trkpt lat="43.7329" lon="7.0491">
        <ele>821.1</ele>
        <time>2016-09-26T07:20:57Z</time>
      </trkpt>
      <trkpt lat="43.73288" lon="7.04904">
        <ele>821.3</ele>
        <time>2016-09-26T07:21:02Z</time>
      </trkpt>
      <trkpt lat="43.73286" lon="7.04897">
        <ele>821.4</ele>
        <time>2016-09-26T07:21:06Z</time>
      </trkpt>
      <trkpt lat="43.73284" lon="7.04891">
        <ele>821.5</ele>
        <time>2016-09-26T07:21:10Z</time>
      </trkpt>
      <trkpt lat="43.7328" lon="7.04881">
        <ele>822.5</ele>
        <time>2016-09-26T07:21:16Z</time>
      </trkpt>
      <trkpt lat="43.7328" lon="7.04881">
        <ele>831.1</ele>
        <time>2016-09-26T07:21:25Z</time>
      </trkpt>
      <trkpt lat="43.73275" lon="7.04858">
        <ele>823.6</ele>
        <time>2016-09-26T07:21:29Z</time>
      </trkpt>
      <trkpt lat="43.73274" lon="7.04851">
        <ele>823.7</ele>
        <time>2016-09-26T07:21:33Z</time>
      </trkpt>
      <trkpt lat="43.73271" lon="7.04845">
        <ele>823.9</ele>
        <time>2016-09-26T07:21:36Z</time>
      </trkpt>
      <trkpt lat="43.73269" lon="7.04836">
        <ele>824.9</ele>
        <time>2016-09-26T07:21:42Z</time>
      </trkpt>
      <trkpt lat="43.73268" lon="7.0483">
        <ele>824.9</ele>
        <time>2016-09-26T07:21:45Z</time>
      </trkpt>
      <trkpt lat="43.73264" lon="7.04818">
        <ele>825.1</ele>
        <time>2016-09-26T07:21:51Z</time>
      </trkpt>
      <trkpt lat="43.73262" lon="7.04812">
        <ele>825.1</ele>
        <time>2016-09-26T07:21:55Z</time>
      </trkpt>
      <trkpt lat="43.7326" lon="7.04805">
        <ele>825.1</ele>
        <time>2016-09-26T07:21:59Z</time>
      </trkpt>
      <trkpt lat="43.73257" lon="7.04799">
        <ele>825.1</ele>
        <time>2016-09-26T07:22:04Z</time>
      </trkpt>
      <trkpt lat="43.73247" lon="7.04784">
        <ele>825.2</ele>
        <time>2016-09-26T07:22:13Z</time>
      </trkpt>
      <trkpt lat="43.73243" lon="7.0478">
        <ele>825.2</ele>
        <time>2016-09-26T07:22:16Z</time>
      </trkpt>
      <trkpt lat="43.73233" lon="7.04773">
        <ele>825.1</ele>
        <time>2016-09-26T07:22:23Z</time>
      </trkpt>
      <trkpt lat="43.73233" lon="7.04773">
        <ele>831.8</ele>
        <time>2016-09-26T07:22:32Z</time>
      </trkpt>
      <trkpt lat="43.73222" lon="7.0477">
        <ele>825.2</ele>
        <time>2016-09-26T07:22:33Z</time>
      </trkpt>
      <trkpt lat="43.73213" lon="7.04763">
        <ele>825.4</ele>
        <time>2016-09-26T07:22:40Z</time>
      </trkpt>
      <trkpt lat="43.73209" lon="7.0476">
        <ele>825.5</ele>
        <time>2016-09-26T07:22:43Z</time>
      </trkpt>
      <trkpt lat="43.73205" lon="7.04756">
        <ele>825.6</ele>
        <time>2016-09-26T07:22:46Z</time>
      </trkpt>
      <trkpt lat="43.73201" lon="7.04754">
        <ele>825.6</ele>
        <time>2016-09-26T07:22:49Z</time>
      </trkpt>
      <trkpt lat="43.73191" lon="7.0475">
        <ele>826.4</ele>
        <time>2016-09-26T07:22:55Z</time>
      </trkpt>
      <trkpt lat="43.73177" lon="7.04748">
        <ele>826.8</ele>
        <time>2016-09-26T07:23:03Z</time>
      </trkpt>
      <trkpt lat="43.73164" lon="7.04743">
        <ele>827.4</ele>
        <time>2016-09-26T07:23:11Z</time>
      </trkpt>
      <trkpt lat="43.73164" lon="7.04743">
        <ele>832.2</ele>
        <time>2016-09-26T07:23:20Z</time>
      </trkpt>
      <trkpt lat="43.7315" lon="7.04738">
        <ele>827.5</ele>
        <time>2016-09-26T07:23:21Z</time>
      </trkpt>
      <trkpt lat="43.7315" lon="7.04738">
        <ele>833.7</ele>
        <time>2016-09-26T07:23:30Z</time>
      </trkpt>
      <trkpt lat="43.73136" lon="7.04732">
        <ele>827.6</ele>
        <time>2016-09-26T07:23:32Z</time>
      </trkpt>
      <trkpt lat="43.73131" lon="7.04731">
        <ele>827.7</ele>
        <time>2016-09-26T07:23:35Z</time>
      </trkpt>
      <trkpt lat="43.73127" lon="7.04729">
        <ele>827.7</ele>
        <time>2016-09-26T07:23:39Z</time>
      </trkpt>
      <trkpt lat="43.73122" lon="7.04726">
        <ele>827.7</ele>
        <time>2016-09-26T07:23:42Z</time>
      </trkpt>
      <trkpt lat="43.73118" lon="7.04722">
        <ele>827.7</ele>
        <time>2016-09-26T07:23:45Z</time>
      </trkpt>
      <trkpt lat="43.73111" lon="7.04714">
        <ele>827.7</ele>
        <time>2016-09-26T07:23:50Z</time>
      </trkpt>
      <trkpt lat="43.73106" lon="7.0471">
        <ele>827.7</ele>
        <time>2016-09-26T07:23:54Z</time>
      </trkpt>
      <trkpt lat="43.73103" lon="7.04705">
        <ele>827.8</ele>
        <time>2016-09-26T07:23:59Z</time>
      </trkpt>
      <trkpt lat="43.73101" lon="7.04698">
        <ele>827.8</ele>
        <time>2016-09-26T07:24:05Z</time>
      </trkpt>
      <trkpt lat="43.73097" lon="7.04693">
        <ele>827.9</ele>
        <time>2016-09-26T07:24:08Z</time>
      </trkpt>
      <trkpt lat="43.73093" lon="7.04689">
        <ele>827.9</ele>
        <time>2016-09-26T07:24:11Z</time>
      </trkpt>
      <trkpt lat="43.73088" lon="7.04685">
        <ele>828.1</ele>
        <time>2016-09-26T07:24:15Z</time>
      </trkpt>
      <trkpt lat="43.73085" lon="7.04679">
        <ele>828.2</ele>
        <time>2016-09-26T07:24:20Z</time>
      </trkpt>
      <trkpt lat="43.73078" lon="7.0467">
        <ele>828.3</ele>
        <time>2016-09-26T07:24:25Z</time>
      </trkpt>
      <trkpt lat="43.73073" lon="7.04667">
        <ele>828.4</ele>
        <time>2016-09-26T07:24:28Z</time>
      </trkpt>
      <trkpt lat="43.73069" lon="7.04663">
        <ele>828.7</ele>
        <time>2016-09-26T07:24:32Z</time>
      </trkpt>
      <trkpt lat="43.73065" lon="7.04655">
        <ele>830</ele>
        <time>2016-09-26T07:24:37Z</time>
      </trkpt>
      <trkpt lat="43.73058" lon="7.04644">
        <ele>830.8</ele>
        <time>2016-09-26T07:24:46Z</time>
      </trkpt>
      <trkpt lat="43.73058" lon="7.04644">
        <ele>838</ele>
        <time>2016-09-26T07:24:54Z</time>
      </trkpt>
      <trkpt lat="43.73045" lon="7.04626">
        <ele>832.2</ele>
        <time>2016-09-26T07:25:02Z</time>
      </trkpt>
      <trkpt lat="43.73042" lon="7.0462">
        <ele>832.7</ele>
        <time>2016-09-26T07:25:06Z</time>
      </trkpt>
      <trkpt lat="43.73038" lon="7.04616">
        <ele>832.7</ele>
        <time>2016-09-26T07:25:10Z</time>
      </trkpt>
      <trkpt lat="43.73034" lon="7.04612">
        <ele>833.8</ele>
        <time>2016-09-26T07:25:14Z</time>
      </trkpt>
      <trkpt lat="43.73031" lon="7.04608">
        <ele>834.7</ele>
        <time>2016-09-26T07:25:19Z</time>
      </trkpt>
      <trkpt lat="43.73018" lon="7.04599">
        <ele>834.9</ele>
        <time>2016-09-26T07:25:28Z</time>
      </trkpt>
      <trkpt lat="43.73014" lon="7.04595">
        <ele>835</ele>
        <time>2016-09-26T07:25:31Z</time>
      </trkpt>
      <trkpt lat="43.73006" lon="7.04586">
        <ele>835.1</ele>
        <time>2016-09-26T07:25:38Z</time>
      </trkpt>
      <trkpt lat="43.73003" lon="7.0458">
        <ele>835.2</ele>
        <time>2016-09-26T07:25:43Z</time>
      </trkpt>
      <trkpt lat="43.72999" lon="7.04575">
        <ele>835.3</ele>
        <time>2016-09-26T07:25:47Z</time>
      </trkpt>
      <trkpt lat="43.72993" lon="7.04564">
        <ele>835.3</ele>
        <time>2016-09-26T07:25:56Z</time>
      </trkpt>
      <trkpt lat="43.72985" lon="7.04559">
        <ele>835.3</ele>
        <time>2016-09-26T07:26:02Z</time>
      </trkpt>
      <trkpt lat="43.7298" lon="7.04555">
        <ele>835.3</ele>
        <time>2016-09-26T07:26:05Z</time>
      </trkpt>
      <trkpt lat="43.7298" lon="7.04555">
        <ele>844.6</ele>
        <time>2016-09-26T07:26:14Z</time>
      </trkpt>
      <trkpt lat="43.72969" lon="7.04543">
        <ele>835.4</ele>
        <time>2016-09-26T07:26:16Z</time>
      </trkpt>
      <trkpt lat="43.72965" lon="7.0454">
        <ele>835.5</ele>
        <time>2016-09-26T07:26:19Z</time>
      </trkpt>
      <trkpt lat="43.72952" lon="7.0453">
        <ele>835.9</ele>
        <time>2016-09-26T07:26:30Z</time>
      </trkpt>
      <trkpt lat="43.72949" lon="7.04524">
        <ele>836.2</ele>
        <time>2016-09-26T07:26:34Z</time>
      </trkpt>
      <trkpt lat="43.72945" lon="7.04521">
        <ele>836.2</ele>
        <time>2016-09-26T07:26:38Z</time>
      </trkpt>
      <trkpt lat="43.72937" lon="7.04513">
        <ele>836.5</ele>
        <time>2016-09-26T07:26:46Z</time>
      </trkpt>
      <trkpt lat="43.72936" lon="7.04506">
        <ele>836.7</ele>
        <time>2016-09-26T07:26:50Z</time>
      </trkpt>
      <trkpt lat="43.72936" lon="7.04506">
        <ele>844.5</ele>
        <time>2016-09-26T07:26:59Z</time>
      </trkpt>
      <trkpt lat="43.72938" lon="7.04485">
        <ele>838.2</ele>
        <time>2016-09-26T07:27:03Z</time>
      </trkpt>
      <trkpt lat="43.72941" lon="7.04472">
        <ele>839</ele>
        <time>2016-09-26T07:27:10Z</time>
      </trkpt>
      <trkpt lat="43.72941" lon="7.04472">
        <ele>844.1</ele>
        <time>2016-09-26T07:27:20Z</time>
      </trkpt>
      <trkpt lat="43.72943" lon="7.04452">
        <ele>839.3</ele>
        <time>2016-09-26T07:27:21Z</time>
      </trkpt>
      <trkpt lat="43.72945" lon="7.04431">
        <ele>839.7</ele>
        <time>2016-09-26T07:27:30Z</time>
      </trkpt>
      <trkpt lat="43.72943" lon="7.04417">
        <ele>839.8</ele>
        <time>2016-09-26T07:27:35Z</time>
      </trkpt>
      <trkpt lat="43.72943" lon="7.04417">
        <ele>842.6</ele>
        <time>2016-09-26T07:27:43Z</time>
      </trkpt>
      <trkpt lat="43.72946" lon="7.04397">
        <ele>840</ele>
        <time>2016-09-26T07:27:48Z</time>
      </trkpt>
      <trkpt lat="43.72947" lon="7.04391">
        <ele>840</ele>
        <time>2016-09-26T07:27:52Z</time>
      </trkpt>
      <trkpt lat="43.72947" lon="7.04378">
        <ele>839.9</ele>
        <time>2016-09-26T07:27:57Z</time>
      </trkpt>
      <trkpt lat="43.72949" lon="7.04369">
        <ele>839.8</ele>
        <time>2016-09-26T07:28:01Z</time>
      </trkpt>
      <trkpt lat="43.72951" lon="7.04363">
        <ele>839.8</ele>
        <time>2016-09-26T07:28:05Z</time>
      </trkpt>
      <trkpt lat="43.7295" lon="7.04356">
        <ele>839.8</ele>
        <time>2016-09-26T07:28:09Z</time>
      </trkpt>
      <trkpt lat="43.72947" lon="7.04344">
        <ele>839.7</ele>
        <time>2016-09-26T07:28:14Z</time>
      </trkpt>
      <trkpt lat="43.72946" lon="7.04331">
        <ele>839.6</ele>
        <time>2016-09-26T07:28:19Z</time>
      </trkpt>
      <trkpt lat="43.72946" lon="7.04318">
        <ele>839.3</ele>
        <time>2016-09-26T07:28:24Z</time>
      </trkpt>
      <trkpt lat="43.72946" lon="7.04298">
        <ele>839.1</ele>
        <time>2016-09-26T07:28:31Z</time>
      </trkpt>
      <trkpt lat="43.72945" lon="7.04291">
        <ele>838.7</ele>
        <time>2016-09-26T07:28:34Z</time>
      </trkpt>
      <trkpt lat="43.72946" lon="7.04284">
        <ele>838.7</ele>
        <time>2016-09-26T07:28:39Z</time>
      </trkpt>
      <trkpt lat="43.72947" lon="7.04277">
        <ele>838.1</ele>
        <time>2016-09-26T07:28:43Z</time>
      </trkpt>
      <trkpt lat="43.72949" lon="7.0427">
        <ele>836.6</ele>
        <time>2016-09-26T07:28:47Z</time>
      </trkpt>
      <trkpt lat="43.72949" lon="7.04262">
        <ele>836.1</ele>
        <time>2016-09-26T07:28:51Z</time>
      </trkpt>
      <trkpt lat="43.72948" lon="7.04253">
        <ele>835.6</ele>
        <time>2016-09-26T07:28:54Z</time>
      </trkpt>
      <trkpt lat="43.72947" lon="7.04246">
        <ele>835.6</ele>
        <time>2016-09-26T07:28:57Z</time>
      </trkpt>
      <trkpt lat="43.72947" lon="7.0424">
        <ele>835.2</ele>
        <time>2016-09-26T07:29:00Z</time>
      </trkpt>
      <trkpt lat="43.72949" lon="7.04232">
        <ele>835</ele>
        <time>2016-09-26T07:29:03Z</time>
      </trkpt>
      <trkpt lat="43.7295" lon="7.04226">
        <ele>834.6</ele>
        <time>2016-09-26T07:29:06Z</time>
      </trkpt>
      <trkpt lat="43.7295" lon="7.04213">
        <ele>834.3</ele>
        <time>2016-09-26T07:29:14Z</time>
      </trkpt>
      <trkpt lat="43.72949" lon="7.04203">
        <ele>833.9</ele>
        <time>2016-09-26T07:29:19Z</time>
      </trkpt>
      <trkpt lat="43.72951" lon="7.04196">
        <ele>833.9</ele>
        <time>2016-09-26T07:29:23Z</time>
      </trkpt>
      <trkpt lat="43.72954" lon="7.04189">
        <ele>833.4</ele>
        <time>2016-09-26T07:29:27Z</time>
      </trkpt>
      <trkpt lat="43.72955" lon="7.04182">
        <ele>833.4</ele>
        <time>2016-09-26T07:29:31Z</time>
      </trkpt>
      <trkpt lat="43.72957" lon="7.0417">
        <ele>833.2</ele>
        <time>2016-09-26T07:29:36Z</time>
      </trkpt>
      <trkpt lat="43.72956" lon="7.04157">
        <ele>833.1</ele>
        <time>2016-09-26T07:29:44Z</time>
      </trkpt>
      <trkpt lat="43.72955" lon="7.0415">
        <ele>832.8</ele>
        <time>2016-09-26T07:29:48Z</time>
      </trkpt>
      <trkpt lat="43.72952" lon="7.04144">
        <ele>832.6</ele>
        <time>2016-09-26T07:29:51Z</time>
      </trkpt>
      <trkpt lat="43.72946" lon="7.04139">
        <ele>832.6</ele>
        <time>2016-09-26T07:29:54Z</time>
      </trkpt>
      <trkpt lat="43.72942" lon="7.04137">
        <ele>832.3</ele>
        <time>2016-09-26T07:29:57Z</time>
      </trkpt>
      <trkpt lat="43.72937" lon="7.04136">
        <ele>832.3</ele>
        <time>2016-09-26T07:30:00Z</time>
      </trkpt>
      <trkpt lat="43.72923" lon="7.04133">
        <ele>831.9</ele>
        <time>2016-09-26T07:30:09Z</time>
      </trkpt>
      <trkpt lat="43.72919" lon="7.04135">
        <ele>831.7</ele>
        <time>2016-09-26T07:30:12Z</time>
      </trkpt>
      <trkpt lat="43.72914" lon="7.04134">
        <ele>831.7</ele>
        <time>2016-09-26T07:30:16Z</time>
      </trkpt>
      <trkpt lat="43.72904" lon="7.04128">
        <ele>830.5</ele>
        <time>2016-09-26T07:30:23Z</time>
      </trkpt>
      <trkpt lat="43.72904" lon="7.04128">
        <ele>829.8</ele>
        <time>2016-09-26T07:30:31Z</time>
      </trkpt>
      <trkpt lat="43.72885" lon="7.0412">
        <ele>829.4</ele>
        <time>2016-09-26T07:30:38Z</time>
      </trkpt>
      <trkpt lat="43.7288" lon="7.04118">
        <ele>829.3</ele>
        <time>2016-09-26T07:30:41Z</time>
      </trkpt>
      <trkpt lat="43.72874" lon="7.0412">
        <ele>829.2</ele>
        <time>2016-09-26T07:30:45Z</time>
      </trkpt>
      <trkpt lat="43.72869" lon="7.04123">
        <ele>829</ele>
        <time>2016-09-26T07:30:48Z</time>
      </trkpt>
      <trkpt lat="43.72863" lon="7.04126">
        <ele>828.8</ele>
        <time>2016-09-26T07:30:53Z</time>
      </trkpt>
      <trkpt lat="43.72856" lon="7.04127">
        <ele>828.8</ele>
        <time>2016-09-26T07:30:57Z</time>
      </trkpt>
      <trkpt lat="43.72852" lon="7.04128">
        <ele>828.6</ele>
        <time>2016-09-26T07:31:00Z</time>
      </trkpt>
      <trkpt lat="43.72846" lon="7.04128">
        <ele>828.6</ele>
        <time>2016-09-26T07:31:04Z</time>
      </trkpt>
      <trkpt lat="43.72837" lon="7.04125">
        <ele>828.4</ele>
        <time>2016-09-26T07:31:11Z</time>
      </trkpt>
      <trkpt lat="43.72831" lon="7.04122">
        <ele>828.3</ele>
        <time>2016-09-26T07:31:17Z</time>
      </trkpt>
      <trkpt lat="43.72825" lon="7.0412">
        <ele>828.1</ele>
        <time>2016-09-26T07:31:21Z</time>
      </trkpt>
      <trkpt lat="43.72821" lon="7.04117">
        <ele>828.1</ele>
        <time>2016-09-26T07:31:24Z</time>
      </trkpt>
      <trkpt lat="43.72816" lon="7.04115">
        <ele>827.3</ele>
        <time>2016-09-26T07:31:27Z</time>
      </trkpt>
      <trkpt lat="43.72811" lon="7.04115">
        <ele>827.3</ele>
        <time>2016-09-26T07:31:30Z</time>
      </trkpt>
      <trkpt lat="43.72801" lon="7.04114">
        <ele>826.7</ele>
        <time>2016-09-26T07:31:35Z</time>
      </trkpt>
      <trkpt lat="43.72794" lon="7.04116">
        <ele>826.2</ele>
        <time>2016-09-26T07:31:39Z</time>
      </trkpt>
      <trkpt lat="43.72786" lon="7.04121">
        <ele>825.9</ele>
        <time>2016-09-26T07:31:44Z</time>
      </trkpt>
      <trkpt lat="43.7278" lon="7.04122">
        <ele>825.7</ele>
        <time>2016-09-26T07:31:47Z</time>
      </trkpt>
      <trkpt lat="43.72776" lon="7.04125">
        <ele>825.7</ele>
        <time>2016-09-26T07:31:50Z</time>
      </trkpt>
      <trkpt lat="43.7277" lon="7.04127">
        <ele>825.5</ele>
        <time>2016-09-26T07:31:54Z</time>
      </trkpt>
      <trkpt lat="43.72762" lon="7.04134">
        <ele>825.3</ele>
        <time>2016-09-26T07:32:01Z</time>
      </trkpt>
      <trkpt lat="43.72757" lon="7.04134">
        <ele>824.9</ele>
        <time>2016-09-26T07:32:04Z</time>
      </trkpt>
      <trkpt lat="43.72751" lon="7.04135">
        <ele>824.9</ele>
        <time>2016-09-26T07:32:07Z</time>
      </trkpt>
      <trkpt lat="43.72746" lon="7.04135">
        <ele>824.5</ele>
        <time>2016-09-26T07:32:11Z</time>
      </trkpt>
      <trkpt lat="43.72741" lon="7.04135">
        <ele>824.1</ele>
        <time>2016-09-26T07:32:14Z</time>
      </trkpt>
      <trkpt lat="43.72735" lon="7.04136">
        <ele>824.1</ele>
        <time>2016-09-26T07:32:17Z</time>
      </trkpt>
      <trkpt lat="43.72726" lon="7.04137">
        <ele>823.6</ele>
        <time>2016-09-26T07:32:23Z</time>
      </trkpt>
      <trkpt lat="43.72726" lon="7.04137">
        <ele>818.6</ele>
        <time>2016-09-26T07:32:32Z</time>
      </trkpt>
      <trkpt lat="43.72712" lon="7.04137">
        <ele>823</ele>
        <time>2016-09-26T07:32:33Z</time>
      </trkpt>
      <trkpt lat="43.72708" lon="7.04135">
        <ele>822.7</ele>
        <time>2016-09-26T07:32:37Z</time>
      </trkpt>
      <trkpt lat="43.72702" lon="7.04133">
        <ele>822.7</ele>
        <time>2016-09-26T07:32:41Z</time>
      </trkpt>
      <trkpt lat="43.72693" lon="7.04129">
        <ele>822.6</ele>
        <time>2016-09-26T07:32:46Z</time>
      </trkpt>
      <trkpt lat="43.72684" lon="7.04123">
        <ele>822.5</ele>
        <time>2016-09-26T07:32:53Z</time>
      </trkpt>
      <trkpt lat="43.72675" lon="7.04118">
        <ele>821.5</ele>
        <time>2016-09-26T07:33:00Z</time>
      </trkpt>
      <trkpt lat="43.72666" lon="7.04112">
        <ele>821</ele>
        <time>2016-09-26T07:33:06Z</time>
      </trkpt>
      <trkpt lat="43.72653" lon="7.04103">
        <ele>819</ele>
        <time>2016-09-26T07:33:14Z</time>
      </trkpt>
      <trkpt lat="43.72645" lon="7.04095">
        <ele>818.6</ele>
        <time>2016-09-26T07:33:21Z</time>
      </trkpt>
      <trkpt lat="43.72639" lon="7.04092">
        <ele>818.2</ele>
        <time>2016-09-26T07:33:25Z</time>
      </trkpt>
      <trkpt lat="43.72631" lon="7.04093">
        <ele>818</ele>
        <time>2016-09-26T07:33:31Z</time>
      </trkpt>
      <trkpt lat="43.72624" lon="7.04093">
        <ele>817.7</ele>
        <time>2016-09-26T07:33:36Z</time>
      </trkpt>
      <trkpt lat="43.72616" lon="7.04092">
        <ele>817.5</ele>
        <time>2016-09-26T07:33:42Z</time>
      </trkpt>
      <trkpt lat="43.7261" lon="7.04089">
        <ele>817.4</ele>
        <time>2016-09-26T07:33:46Z</time>
      </trkpt>
      <trkpt lat="43.72605" lon="7.04086">
        <ele>817.2</ele>
        <time>2016-09-26T07:33:49Z</time>
      </trkpt>
      <trkpt lat="43.726" lon="7.04081">
        <ele>816</ele>
        <time>2016-09-26T07:33:53Z</time>
      </trkpt>
      <trkpt lat="43.72594" lon="7.04078">
        <ele>815</ele>
        <time>2016-09-26T07:33:57Z</time>
      </trkpt>
      <trkpt lat="43.72591" lon="7.04073">
        <ele>815</ele>
        <time>2016-09-26T07:34:00Z</time>
      </trkpt>
      <trkpt lat="43.72587" lon="7.04069">
        <ele>814</ele>
        <time>2016-09-26T07:34:04Z</time>
      </trkpt>
      <trkpt lat="43.72581" lon="7.04068">
        <ele>813.7</ele>
        <time>2016-09-26T07:34:08Z</time>
      </trkpt>
      <trkpt lat="43.72577" lon="7.0407">
        <ele>813.7</ele>
        <time>2016-09-26T07:34:11Z</time>
      </trkpt>
      <trkpt lat="43.72576" lon="7.0407">
        <ele>813.3</ele>
        <time>2016-09-26T07:34:12Z</time>
      </trkpt>
      <trkpt lat="43.72576" lon="7.0407">
        <ele>812.3</ele>
        <time>2016-09-26T07:34:16Z</time>
      </trkpt>
      <trkpt lat="43.72576" lon="7.0407">
        <ele>814.7</ele>
        <time>2016-09-26T07:34:16Z</time>
      </trkpt>
      <trkpt lat="43.72576" lon="7.0407">
        <ele>814.7</ele>
        <time>2016-09-26T07:34:59Z</time>
      </trkpt>
      <trkpt lat="43.72562" lon="7.04069">
        <ele>812.5</ele>
        <time>2016-09-26T07:35:01Z</time>
      </trkpt>
      <trkpt lat="43.72562" lon="7.04069">
        <ele>814.1</ele>
        <time>2016-09-26T07:35:09Z</time>
      </trkpt>
      <trkpt lat="43.72552" lon="7.04058">
        <ele>812.8</ele>
        <time>2016-09-26T07:35:13Z</time>
      </trkpt>
      <trkpt lat="43.72552" lon="7.04058">
        <ele>816.1</ele>
        <time>2016-09-26T07:35:21Z</time>
      </trkpt>
      <trkpt lat="43.72539" lon="7.04053">
        <ele>812.9</ele>
        <time>2016-09-26T07:35:22Z</time>
      </trkpt>
      <trkpt lat="43.72534" lon="7.0405">
        <ele>812.9</ele>
        <time>2016-09-26T07:35:26Z</time>
      </trkpt>
      <trkpt lat="43.7253" lon="7.04044">
        <ele>813</ele>
        <time>2016-09-26T07:35:30Z</time>
      </trkpt>
      <trkpt lat="43.72517" lon="7.04038">
        <ele>813.2</ele>
        <time>2016-09-26T07:35:41Z</time>
      </trkpt>
      <trkpt lat="43.72512" lon="7.04035">
        <ele>813.5</ele>
        <time>2016-09-26T07:35:45Z</time>
      </trkpt>
      <trkpt lat="43.72508" lon="7.04032">
        <ele>813.5</ele>
        <time>2016-09-26T07:35:48Z</time>
      </trkpt>
      <trkpt lat="43.72499" lon="7.04031">
        <ele>813.5</ele>
        <time>2016-09-26T07:35:55Z</time>
      </trkpt>
      <trkpt lat="43.72485" lon="7.04026">
        <ele>814</ele>
        <time>2016-09-26T07:36:04Z</time>
      </trkpt>
      <trkpt lat="43.72485" lon="7.04026">
        <ele>816.2</ele>
        <time>2016-09-26T07:36:12Z</time>
      </trkpt>
      <trkpt lat="43.72474" lon="7.04025">
        <ele>814.1</ele>
        <time>2016-09-26T07:36:13Z</time>
      </trkpt>
      <trkpt lat="43.72469" lon="7.04023">
        <ele>814.1</ele>
        <time>2016-09-26T07:36:18Z</time>
      </trkpt>
      <trkpt lat="43.72465" lon="7.04018">
        <ele>814.1</ele>
        <time>2016-09-26T07:36:21Z</time>
      </trkpt>
      <trkpt lat="43.72462" lon="7.04013">
        <ele>814.1</ele>
        <time>2016-09-26T07:36:24Z</time>
      </trkpt>
      <trkpt lat="43.72458" lon="7.04008">
        <ele>814.2</ele>
        <time>2016-09-26T07:36:28Z</time>
      </trkpt>
      <trkpt lat="43.72456" lon="7.04002">
        <ele>814.3</ele>
        <time>2016-09-26T07:36:32Z</time>
      </trkpt>
      <trkpt lat="43.72449" lon="7.03991">
        <ele>814.5</ele>
        <time>2016-09-26T07:36:37Z</time>
      </trkpt>
      <trkpt lat="43.7244" lon="7.03982">
        <ele>814.7</ele>
        <time>2016-09-26T07:36:44Z</time>
      </trkpt>
      <trkpt lat="43.72435" lon="7.03978">
        <ele>814.7</ele>
        <time>2016-09-26T07:36:48Z</time>
      </trkpt>
      <trkpt lat="43.72434" lon="7.03967">
        <ele>814.9</ele>
        <time>2016-09-26T07:36:53Z</time>
      </trkpt>
      <trkpt lat="43.72431" lon="7.03962">
        <ele>814.9</ele>
        <time>2016-09-26T07:36:57Z</time>
      </trkpt>
      <trkpt lat="43.72429" lon="7.03955">
        <ele>815.1</ele>
        <time>2016-09-26T07:37:02Z</time>
      </trkpt>
      <trkpt lat="43.72427" lon="7.03949">
        <ele>815.5</ele>
        <time>2016-09-26T07:37:05Z</time>
      </trkpt>
      <trkpt lat="43.72425" lon="7.03943">
        <ele>815.5</ele>
        <time>2016-09-26T07:37:07Z</time>
      </trkpt>
      <trkpt lat="43.72421" lon="7.03938">
        <ele>815.6</ele>
        <time>2016-09-26T07:37:12Z</time>
      </trkpt>
      <trkpt lat="43.72417" lon="7.03936">
        <ele>815.6</ele>
        <time>2016-09-26T07:37:15Z</time>
      </trkpt>
      <trkpt lat="43.72411" lon="7.03936">
        <ele>815.8</ele>
        <time>2016-09-26T07:37:18Z</time>
      </trkpt>
      <trkpt lat="43.72406" lon="7.03939">
        <ele>815.8</ele>
        <time>2016-09-26T07:37:21Z</time>
      </trkpt>
      <trkpt lat="43.72402" lon="7.03943">
        <ele>815.8</ele>
        <time>2016-09-26T07:37:26Z</time>
      </trkpt>
      <trkpt lat="43.72397" lon="7.03946">
        <ele>815.8</ele>
        <time>2016-09-26T07:37:31Z</time>
      </trkpt>
      <trkpt lat="43.72387" lon="7.03955">
        <ele>815.8</ele>
        <time>2016-09-26T07:37:39Z</time>
      </trkpt>
      <trkpt lat="43.72383" lon="7.03959">
        <ele>815.6</ele>
        <time>2016-09-26T07:37:42Z</time>
      </trkpt>
      <trkpt lat="43.72378" lon="7.03961">
        <ele>815.6</ele>
        <time>2016-09-26T07:37:45Z</time>
      </trkpt>
      <trkpt lat="43.72373" lon="7.03963">
        <ele>815.5</ele>
        <time>2016-09-26T07:37:48Z</time>
      </trkpt>
      <trkpt lat="43.72369" lon="7.03968">
        <ele>815.5</ele>
        <time>2016-09-26T07:37:52Z</time>
      </trkpt>
      <trkpt lat="43.72363" lon="7.03971">
        <ele>814.8</ele>
        <time>2016-09-26T07:37:57Z</time>
      </trkpt>
      <trkpt lat="43.72359" lon="7.03975">
        <ele>814.8</ele>
        <time>2016-09-26T07:38:00Z</time>
      </trkpt>
      <trkpt lat="43.72355" lon="7.0398">
        <ele>814.4</ele>
        <time>2016-09-26T07:38:04Z</time>
      </trkpt>
      <trkpt lat="43.72346" lon="7.03985">
        <ele>814.4</ele>
        <time>2016-09-26T07:38:11Z</time>
      </trkpt>
      <trkpt lat="43.72337" lon="7.03989">
        <ele>814.4</ele>
        <time>2016-09-26T07:38:17Z</time>
      </trkpt>
      <trkpt lat="43.72327" lon="7.03989">
        <ele>814.4</ele>
        <time>2016-09-26T07:38:25Z</time>
      </trkpt>
      <trkpt lat="43.72326" lon="7.0399">
        <ele>814.6</ele>
        <time>2016-09-26T07:38:26Z</time>
      </trkpt>
      <trkpt lat="43.72325" lon="7.03991">
        <ele>816.6</ele>
        <time>2016-09-26T07:38:30Z</time>
      </trkpt>
      <trkpt lat="43.72325" lon="7.03991">
        <ele>814.7</ele>
        <time>2016-09-26T07:38:30Z</time>
      </trkpt>
      <trkpt lat="43.72325" lon="7.03991">
        <ele>814.7</ele>
        <time>2016-09-26T07:44:41Z</time>
      </trkpt>
      <trkpt lat="43.72313" lon="7.0399">
        <ele>819.6</ele>
        <time>2016-09-26T07:44:43Z</time>
      </trkpt>
      <trkpt lat="43.72313" lon="7.0399">
        <ele>816.1</ele>
        <time>2016-09-26T07:44:52Z</time>
      </trkpt>
      <trkpt lat="43.72295" lon="7.03987">
        <ele>819.6</ele>
        <time>2016-09-26T07:44:58Z</time>
      </trkpt>
      <trkpt lat="43.7229" lon="7.03985">
        <ele>819.5</ele>
        <time>2016-09-26T07:45:01Z</time>
      </trkpt>
      <trkpt lat="43.72276" lon="7.03982">
        <ele>818.4</ele>
        <time>2016-09-26T07:45:11Z</time>
      </trkpt>
      <trkpt lat="43.72264" lon="7.03978">
        <ele>816.4</ele>
        <time>2016-09-26T07:45:18Z</time>
      </trkpt>
      <trkpt lat="43.72264" lon="7.03978">
        <ele>817.6</ele>
        <time>2016-09-26T07:45:27Z</time>
      </trkpt>
      <trkpt lat="43.72251" lon="7.03972">
        <ele>815.1</ele>
        <time>2016-09-26T07:45:28Z</time>
      </trkpt>
      <trkpt lat="43.72246" lon="7.03969">
        <ele>814.8</ele>
        <time>2016-09-26T07:45:32Z</time>
      </trkpt>
      <trkpt lat="43.72241" lon="7.03967">
        <ele>814.7</ele>
        <time>2016-09-26T07:45:36Z</time>
      </trkpt>
      <trkpt lat="43.72234" lon="7.03966">
        <ele>814.5</ele>
        <time>2016-09-26T07:45:40Z</time>
      </trkpt>
      <trkpt lat="43.72228" lon="7.03965">
        <ele>814.5</ele>
        <time>2016-09-26T07:45:43Z</time>
      </trkpt>
      <trkpt lat="43.72219" lon="7.0396">
        <ele>814.2</ele>
        <time>2016-09-26T07:45:49Z</time>
      </trkpt>
      <trkpt lat="43.72206" lon="7.0395">
        <ele>814.1</ele>
        <time>2016-09-26T07:45:58Z</time>
      </trkpt>
      <trkpt lat="43.72197" lon="7.03945">
        <ele>814.2</ele>
        <time>2016-09-26T07:46:03Z</time>
      </trkpt>
      <trkpt lat="43.72193" lon="7.0394">
        <ele>814.2</ele>
        <time>2016-09-26T07:46:07Z</time>
      </trkpt>
      <trkpt lat="43.72189" lon="7.03937">
        <ele>814.2</ele>
        <time>2016-09-26T07:46:10Z</time>
      </trkpt>
      <trkpt lat="43.72183" lon="7.03934">
        <ele>814.1</ele>
        <time>2016-09-26T07:46:13Z</time>
      </trkpt>
      <trkpt lat="43.72175" lon="7.03926">
        <ele>814.1</ele>
        <time>2016-09-26T07:46:19Z</time>
      </trkpt>
      <trkpt lat="43.72164" lon="7.03916">
        <ele>814.1</ele>
        <time>2016-09-26T07:46:26Z</time>
      </trkpt>
      <trkpt lat="43.7216" lon="7.0391">
        <ele>814</ele>
        <time>2016-09-26T07:46:30Z</time>
      </trkpt>
      <trkpt lat="43.72156" lon="7.03898">
        <ele>813.8</ele>
        <time>2016-09-26T07:46:36Z</time>
      </trkpt>
      <trkpt lat="43.72153" lon="7.03892">
        <ele>813.7</ele>
        <time>2016-09-26T07:46:40Z</time>
      </trkpt>
      <trkpt lat="43.7215" lon="7.03886">
        <ele>813.5</ele>
        <time>2016-09-26T07:46:44Z</time>
      </trkpt>
      <trkpt lat="43.72146" lon="7.0388">
        <ele>813.5</ele>
        <time>2016-09-26T07:46:48Z</time>
      </trkpt>
      <trkpt lat="43.72142" lon="7.03869">
        <ele>813.1</ele>
        <time>2016-09-26T07:46:53Z</time>
      </trkpt>
      <trkpt lat="43.72136" lon="7.03851">
        <ele>812.4</ele>
        <time>2016-09-26T07:47:02Z</time>
      </trkpt>
      <trkpt lat="43.72135" lon="7.03838">
        <ele>812.1</ele>
        <time>2016-09-26T07:47:08Z</time>
      </trkpt>
      <trkpt lat="43.72135" lon="7.03838">
        <ele>815.9</ele>
        <time>2016-09-26T07:47:18Z</time>
      </trkpt>
      <trkpt lat="43.72132" lon="7.03819">
        <ele>812.1</ele>
        <time>2016-09-26T07:47:20Z</time>
      </trkpt>
      <trkpt lat="43.72131" lon="7.03811">
        <ele>812.1</ele>
        <time>2016-09-26T07:47:23Z</time>
      </trkpt>
      <trkpt lat="43.72132" lon="7.03798">
        <ele>812</ele>
        <time>2016-09-26T07:47:31Z</time>
      </trkpt>
      <trkpt lat="43.72132" lon="7.03785">
        <ele>812</ele>
        <time>2016-09-26T07:47:36Z</time>
      </trkpt>
      <trkpt lat="43.72136" lon="7.03771">
        <ele>811.9</ele>
        <time>2016-09-26T07:47:42Z</time>
      </trkpt>
      <trkpt lat="43.72137" lon="7.03756">
        <ele>811.7</ele>
        <time>2016-09-26T07:47:47Z</time>
      </trkpt>
      <trkpt lat="43.72134" lon="7.03744">
        <ele>811.7</ele>
        <time>2016-09-26T07:47:52Z</time>
      </trkpt>
      <trkpt lat="43.72132" lon="7.03732">
        <ele>811.6</ele>
        <time>2016-09-26T07:47:57Z</time>
      </trkpt>
      <trkpt lat="43.72135" lon="7.03719">
        <ele>811.5</ele>
        <time>2016-09-26T07:48:04Z</time>
      </trkpt>
      <trkpt lat="43.72135" lon="7.03719">
        <ele>811.3</ele>
        <time>2016-09-26T07:48:12Z</time>
      </trkpt>
      <trkpt lat="43.72142" lon="7.03702">
        <ele>811.7</ele>
        <time>2016-09-26T07:48:14Z</time>
      </trkpt>
      <trkpt lat="43.72145" lon="7.03695">
        <ele>811.7</ele>
        <time>2016-09-26T07:48:17Z</time>
      </trkpt>
      <trkpt lat="43.72151" lon="7.03685">
        <ele>811.7</ele>
        <time>2016-09-26T07:48:23Z</time>
      </trkpt>
      <trkpt lat="43.72154" lon="7.0368">
        <ele>812.5</ele>
        <time>2016-09-26T07:48:27Z</time>
      </trkpt>
      <trkpt lat="43.72156" lon="7.03661">
        <ele>813</ele>
        <time>2016-09-26T07:48:37Z</time>
      </trkpt>
      <trkpt lat="43.72156" lon="7.03653">
        <ele>813.9</ele>
        <time>2016-09-26T07:48:41Z</time>
      </trkpt>
      <trkpt lat="43.72154" lon="7.03639">
        <ele>814.9</ele>
        <time>2016-09-26T07:48:47Z</time>
      </trkpt>
      <trkpt lat="43.72152" lon="7.03624">
        <ele>815.8</ele>
        <time>2016-09-26T07:48:55Z</time>
      </trkpt>
      <trkpt lat="43.72153" lon="7.03618">
        <ele>815.9</ele>
        <time>2016-09-26T07:48:57Z</time>
      </trkpt>
      <trkpt lat="43.72148" lon="7.03614">
        <ele>815.9</ele>
        <time>2016-09-26T07:49:00Z</time>
      </trkpt>
      <trkpt lat="43.72139" lon="7.0361">
        <ele>816.1</ele>
        <time>2016-09-26T07:49:06Z</time>
      </trkpt>
      <trkpt lat="43.72132" lon="7.03605">
        <ele>816.5</ele>
        <time>2016-09-26T07:49:10Z</time>
      </trkpt>
      <trkpt lat="43.7213" lon="7.036">
        <ele>816.6</ele>
        <time>2016-09-26T07:49:14Z</time>
      </trkpt>
      <trkpt lat="43.72125" lon="7.03594">
        <ele>816.6</ele>
        <time>2016-09-26T07:49:18Z</time>
      </trkpt>
      <trkpt lat="43.7212" lon="7.03591">
        <ele>816.6</ele>
        <time>2016-09-26T07:49:20Z</time>
      </trkpt>
      <trkpt lat="43.72116" lon="7.03579">
        <ele>816.6</ele>
        <time>2016-09-26T07:49:26Z</time>
      </trkpt>
      <trkpt lat="43.72112" lon="7.03576">
        <ele>816.5</ele>
        <time>2016-09-26T07:49:30Z</time>
      </trkpt>
      <trkpt lat="43.72112" lon="7.03576">
        <ele>821.1</ele>
        <time>2016-09-26T07:49:39Z</time>
      </trkpt>
      <trkpt lat="43.72102" lon="7.03563">
        <ele>815.8</ele>
        <time>2016-09-26T07:49:42Z</time>
      </trkpt>
      <trkpt lat="43.72102" lon="7.03563">
        <ele>822.3</ele>
        <time>2016-09-26T07:49:50Z</time>
      </trkpt>
      <trkpt lat="43.72085" lon="7.03542">
        <ele>811.5</ele>
        <time>2016-09-26T07:49:55Z</time>
      </trkpt>
      <trkpt lat="43.72076" lon="7.03535">
        <ele>811.3</ele>
        <time>2016-09-26T07:50:02Z</time>
      </trkpt>
      <trkpt lat="43.72065" lon="7.03536">
        <ele>811.3</ele>
        <time>2016-09-26T07:50:05Z</time>
      </trkpt>
      <trkpt lat="43.72062" lon="7.03531">
        <ele>811.3</ele>
        <time>2016-09-26T07:50:08Z</time>
      </trkpt>
      <trkpt lat="43.72064" lon="7.03523">
        <ele>811.3</ele>
        <time>2016-09-26T07:50:10Z</time>
      </trkpt>
      <trkpt lat="43.72067" lon="7.03519">
        <ele>811.3</ele>
        <time>2016-09-26T07:50:12Z</time>
      </trkpt>
      <trkpt lat="43.72063" lon="7.03515">
        <ele>811.3</ele>
        <time>2016-09-26T07:50:17Z</time>
      </trkpt>
      <trkpt lat="43.72055" lon="7.03507">
        <ele>811.3</ele>
        <time>2016-09-26T07:50:23Z</time>
      </trkpt>
      <trkpt lat="43.72055" lon="7.03494">
        <ele>811.6</ele>
        <time>2016-09-26T07:50:28Z</time>
      </trkpt>
      <trkpt lat="43.72046" lon="7.03489">
        <ele>812.5</ele>
        <time>2016-09-26T07:50:37Z</time>
      </trkpt>
      <trkpt lat="43.72045" lon="7.03482">
        <ele>812.9</ele>
        <time>2016-09-26T07:50:42Z</time>
      </trkpt>
      <trkpt lat="43.72046" lon="7.03476">
        <ele>814</ele>
        <time>2016-09-26T07:50:46Z</time>
      </trkpt>
      <trkpt lat="43.72046" lon="7.03464">
        <ele>814</ele>
        <time>2016-09-26T07:50:50Z</time>
      </trkpt>
      <trkpt lat="43.72046" lon="7.03457">
        <ele>814.7</ele>
        <time>2016-09-26T07:50:53Z</time>
      </trkpt>
      <trkpt lat="43.72041" lon="7.03446">
        <ele>814.9</ele>
        <time>2016-09-26T07:50:59Z</time>
      </trkpt>
      <trkpt lat="43.7204" lon="7.03439">
        <ele>815.4</ele>
        <time>2016-09-26T07:51:04Z</time>
      </trkpt>
      <trkpt lat="43.7204" lon="7.03439">
        <ele>828.2</ele>
        <time>2016-09-26T07:51:12Z</time>
      </trkpt>
      <trkpt lat="43.72035" lon="7.03414">
        <ele>816.4</ele>
        <time>2016-09-26T07:51:21Z</time>
      </trkpt>
      <trkpt lat="43.72032" lon="7.03404">
        <ele>816.7</ele>
        <time>2016-09-26T07:51:26Z</time>
      </trkpt>
      <trkpt lat="43.72031" lon="7.03397">
        <ele>816.7</ele>
        <time>2016-09-26T07:51:29Z</time>
      </trkpt>
      <trkpt lat="43.72028" lon="7.03383">
        <ele>817.6</ele>
        <time>2016-09-26T07:51:36Z</time>
      </trkpt>
      <trkpt lat="43.72028" lon="7.03383">
        <ele>833.4</ele>
        <time>2016-09-26T07:51:45Z</time>
      </trkpt>
      <trkpt lat="43.72019" lon="7.03367">
        <ele>818.1</ele>
        <time>2016-09-26T07:51:47Z</time>
      </trkpt>
      <trkpt lat="43.72011" lon="7.03356">
        <ele>818.7</ele>
        <time>2016-09-26T07:51:52Z</time>
      </trkpt>
      <trkpt lat="43.72005" lon="7.03351">
        <ele>820.7</ele>
        <time>2016-09-26T07:51:56Z</time>
      </trkpt>
      <trkpt lat="43.71999" lon="7.0334">
        <ele>821</ele>
        <time>2016-09-26T07:52:06Z</time>
      </trkpt>
      <trkpt lat="43.71997" lon="7.03327">
        <ele>821.4</ele>
        <time>2016-09-26T07:52:13Z</time>
      </trkpt>
      <trkpt lat="43.71991" lon="7.03316">
        <ele>822.2</ele>
        <time>2016-09-26T07:52:21Z</time>
      </trkpt>
      <trkpt lat="43.71991" lon="7.03308">
        <ele>822.6</ele>
        <time>2016-09-26T07:52:25Z</time>
      </trkpt>
      <trkpt lat="43.71985" lon="7.0329">
        <ele>823.8</ele>
        <time>2016-09-26T07:52:34Z</time>
      </trkpt>
      <trkpt lat="43.71975" lon="7.03285">
        <ele>824.3</ele>
        <time>2016-09-26T07:52:41Z</time>
      </trkpt>
      <trkpt lat="43.71975" lon="7.03285">
        <ele>842.2</ele>
        <time>2016-09-26T07:52:49Z</time>
      </trkpt>
      <trkpt lat="43.71967" lon="7.03271">
        <ele>824.9</ele>
        <time>2016-09-26T07:52:52Z</time>
      </trkpt>
      <trkpt lat="43.71963" lon="7.03266">
        <ele>825.2</ele>
        <time>2016-09-26T07:52:55Z</time>
      </trkpt>
      <trkpt lat="43.71959" lon="7.03262">
        <ele>825.2</ele>
        <time>2016-09-26T07:52:58Z</time>
      </trkpt>
      <trkpt lat="43.71952" lon="7.03254">
        <ele>825.8</ele>
        <time>2016-09-26T07:53:04Z</time>
      </trkpt>
      <trkpt lat="43.71945" lon="7.03244">
        <ele>826</ele>
        <time>2016-09-26T07:53:10Z</time>
      </trkpt>
      <trkpt lat="43.71942" lon="7.03232">
        <ele>826.1</ele>
        <time>2016-09-26T07:53:16Z</time>
      </trkpt>
      <trkpt lat="43.71937" lon="7.03227">
        <ele>826.1</ele>
        <time>2016-09-26T07:53:20Z</time>
      </trkpt>
      <trkpt lat="43.71929" lon="7.03218">
        <ele>826.3</ele>
        <time>2016-09-26T07:53:27Z</time>
      </trkpt>
      <trkpt lat="43.71924" lon="7.03207">
        <ele>826.6</ele>
        <time>2016-09-26T07:53:33Z</time>
      </trkpt>
      <trkpt lat="43.71921" lon="7.03201">
        <ele>826.8</ele>
        <time>2016-09-26T07:53:37Z</time>
      </trkpt>
      <trkpt lat="43.71921" lon="7.03201">
        <ele>840.1</ele>
        <time>2016-09-26T07:53:50Z</time>
      </trkpt>
      <trkpt lat="43.71919" lon="7.03178">
        <ele>827.9</ele>
        <time>2016-09-26T07:53:53Z</time>
      </trkpt>
      <trkpt lat="43.71921" lon="7.03168">
        <ele>828.4</ele>
        <time>2016-09-26T07:53:58Z</time>
      </trkpt>
      <trkpt lat="43.7192" lon="7.03162">
        <ele>828.4</ele>
        <time>2016-09-26T07:54:02Z</time>
      </trkpt>
      <trkpt lat="43.71918" lon="7.03148">
        <ele>829.5</ele>
        <time>2016-09-26T07:54:08Z</time>
      </trkpt>
      <trkpt lat="43.71915" lon="7.03135">
        <ele>829.7</ele>
        <time>2016-09-26T07:54:15Z</time>
      </trkpt>
      <trkpt lat="43.71915" lon="7.03135">
        <ele>838.3</ele>
        <time>2016-09-26T07:54:24Z</time>
      </trkpt>
      <trkpt lat="43.71913" lon="7.03104">
        <ele>830.4</ele>
        <time>2016-09-26T07:54:30Z</time>
      </trkpt>
      <trkpt lat="43.7191" lon="7.03091">
        <ele>830.9</ele>
        <time>2016-09-26T07:54:36Z</time>
      </trkpt>
      <trkpt lat="43.7191" lon="7.03091">
        <ele>838.6</ele>
        <time>2016-09-26T07:54:45Z</time>
      </trkpt>
      <trkpt lat="43.7191" lon="7.03091">
        <ele>838.6</ele>
        <time>2016-09-26T07:54:54Z</time>
      </trkpt>
      <trkpt lat="43.71895" lon="7.03045">
        <ele>831.9</ele>
        <time>2016-09-26T07:54:59Z</time>
      </trkpt>
      <trkpt lat="43.71892" lon="7.03032">
        <ele>832</ele>
        <time>2016-09-26T07:55:05Z</time>
      </trkpt>
      <trkpt lat="43.71893" lon="7.03025">
        <ele>832.3</ele>
        <time>2016-09-26T07:55:10Z</time>
      </trkpt>
      <trkpt lat="43.71889" lon="7.03022">
        <ele>832.3</ele>
        <time>2016-09-26T07:55:13Z</time>
      </trkpt>
      <trkpt lat="43.71884" lon="7.0302">
        <ele>832.6</ele>
        <time>2016-09-26T07:55:15Z</time>
      </trkpt>
      <trkpt lat="43.71881" lon="7.03012">
        <ele>832.6</ele>
        <time>2016-09-26T07:55:18Z</time>
      </trkpt>
      <trkpt lat="43.71881" lon="7.03004">
        <ele>832.7</ele>
        <time>2016-09-26T07:55:22Z</time>
      </trkpt>
      <trkpt lat="43.71878" lon="7.02997">
        <ele>832.6</ele>
        <time>2016-09-26T07:55:26Z</time>
      </trkpt>
      <trkpt lat="43.71873" lon="7.02992">
        <ele>832.6</ele>
        <time>2016-09-26T07:55:28Z</time>
      </trkpt>
      <trkpt lat="43.71873" lon="7.02984">
        <ele>832.6</ele>
        <time>2016-09-26T07:55:31Z</time>
      </trkpt>
      <trkpt lat="43.71873" lon="7.02978">
        <ele>832.7</ele>
        <time>2016-09-26T07:55:35Z</time>
      </trkpt>
      <trkpt lat="43.71868" lon="7.02975">
        <ele>832.8</ele>
        <time>2016-09-26T07:55:40Z</time>
      </trkpt>
      <trkpt lat="43.71868" lon="7.02975">
        <ele>847.9</ele>
        <time>2016-09-26T07:55:50Z</time>
      </trkpt>
      <trkpt lat="43.7186" lon="7.02969">
        <ele>832.8</ele>
        <time>2016-09-26T07:55:51Z</time>
      </trkpt>
      <trkpt lat="43.71856" lon="7.02956">
        <ele>833</ele>
        <time>2016-09-26T07:55:56Z</time>
      </trkpt>
      <trkpt lat="43.71853" lon="7.02951">
        <ele>833.2</ele>
        <time>2016-09-26T07:56:00Z</time>
      </trkpt>
      <trkpt lat="43.7185" lon="7.02945">
        <ele>833.2</ele>
        <time>2016-09-26T07:56:06Z</time>
      </trkpt>
      <trkpt lat="43.71846" lon="7.02943">
        <ele>833.2</ele>
        <time>2016-09-26T07:56:10Z</time>
      </trkpt>
      <trkpt lat="43.71841" lon="7.02943">
        <ele>833.2</ele>
        <time>2016-09-26T07:56:12Z</time>
      </trkpt>
      <trkpt lat="43.71835" lon="7.02943">
        <ele>833.2</ele>
        <time>2016-09-26T07:56:14Z</time>
      </trkpt>
      <trkpt lat="43.71832" lon="7.02939">
        <ele>833.4</ele>
        <time>2016-09-26T07:56:18Z</time>
      </trkpt>
      <trkpt lat="43.71829" lon="7.02932">
        <ele>833.9</ele>
        <time>2016-09-26T07:56:24Z</time>
      </trkpt>
      <trkpt lat="43.71825" lon="7.02927">
        <ele>834.2</ele>
        <time>2016-09-26T07:56:28Z</time>
      </trkpt>
      <trkpt lat="43.71825" lon="7.02927">
        <ele>848.7</ele>
        <time>2016-09-26T07:56:38Z</time>
      </trkpt>
      <trkpt lat="43.71816" lon="7.02913">
        <ele>834.8</ele>
        <time>2016-09-26T07:56:41Z</time>
      </trkpt>
      <trkpt lat="43.71811" lon="7.02909">
        <ele>834.9</ele>
        <time>2016-09-26T07:56:45Z</time>
      </trkpt>
      <trkpt lat="43.71806" lon="7.02905">
        <ele>835.2</ele>
        <time>2016-09-26T07:56:50Z</time>
      </trkpt>
      <trkpt lat="43.71806" lon="7.02905">
        <ele>848.4</ele>
        <time>2016-09-26T07:57:01Z</time>
      </trkpt>
      <trkpt lat="43.71791" lon="7.02881">
        <ele>836.4</ele>
        <time>2016-09-26T07:57:08Z</time>
      </trkpt>
      <trkpt lat="43.71787" lon="7.02873">
        <ele>838.3</ele>
        <time>2016-09-26T07:57:14Z</time>
      </trkpt>
      <trkpt lat="43.71787" lon="7.02873">
        <ele>849.8</ele>
        <time>2016-09-26T07:57:24Z</time>
      </trkpt>
      <trkpt lat="43.71777" lon="7.02857">
        <ele>841.8</ele>
        <time>2016-09-26T07:57:27Z</time>
      </trkpt>
      <trkpt lat="43.71769" lon="7.02848">
        <ele>842.5</ele>
        <time>2016-09-26T07:57:34Z</time>
      </trkpt>
      <trkpt lat="43.71766" lon="7.02843">
        <ele>842.8</ele>
        <time>2016-09-26T07:57:37Z</time>
      </trkpt>
      <trkpt lat="43.71763" lon="7.0284">
        <ele>842.8</ele>
        <time>2016-09-26T07:57:40Z</time>
      </trkpt>
      <trkpt lat="43.71754" lon="7.02825">
        <ele>843.1</ele>
        <time>2016-09-26T07:57:48Z</time>
      </trkpt>
      <trkpt lat="43.71754" lon="7.02825">
        <ele>850.4</ele>
        <time>2016-09-26T07:57:57Z</time>
      </trkpt>
      <trkpt lat="43.71744" lon="7.02812">
        <ele>843.4</ele>
        <time>2016-09-26T07:57:58Z</time>
      </trkpt>
      <trkpt lat="43.71735" lon="7.02805">
        <ele>843.5</ele>
        <time>2016-09-26T07:58:05Z</time>
      </trkpt>
      <trkpt lat="43.71727" lon="7.02789">
        <ele>843.7</ele>
        <time>2016-09-26T07:58:14Z</time>
      </trkpt>
      <trkpt lat="43.71719" lon="7.02779">
        <ele>843.9</ele>
        <time>2016-09-26T07:58:20Z</time>
      </trkpt>
      <trkpt lat="43.71719" lon="7.02779">
        <ele>849.5</ele>
        <time>2016-09-26T07:58:28Z</time>
      </trkpt>
      <trkpt lat="43.71709" lon="7.02766">
        <ele>844.9</ele>
        <time>2016-09-26T07:58:30Z</time>
      </trkpt>
      <trkpt lat="43.71705" lon="7.02761">
        <ele>845.3</ele>
        <time>2016-09-26T07:58:33Z</time>
      </trkpt>
      <trkpt lat="43.71701" lon="7.02756">
        <ele>845.3</ele>
        <time>2016-09-26T07:58:36Z</time>
      </trkpt>
      <trkpt lat="43.71697" lon="7.02751">
        <ele>845.4</ele>
        <time>2016-09-26T07:58:40Z</time>
      </trkpt>
      <trkpt lat="43.7169" lon="7.02741">
        <ele>845.5</ele>
        <time>2016-09-26T07:58:47Z</time>
      </trkpt>
      <trkpt lat="43.71683" lon="7.02731">
        <ele>845.7</ele>
        <time>2016-09-26T07:58:52Z</time>
      </trkpt>
      <trkpt lat="43.71679" lon="7.02727">
        <ele>845.8</ele>
        <time>2016-09-26T07:58:55Z</time>
      </trkpt>
      <trkpt lat="43.71678" lon="7.02721">
        <ele>845.8</ele>
        <time>2016-09-26T07:59:00Z</time>
      </trkpt>
      <trkpt lat="43.71676" lon="7.02714">
        <ele>845.8</ele>
        <time>2016-09-26T07:59:04Z</time>
      </trkpt>
      <trkpt lat="43.71673" lon="7.02701">
        <ele>845.8</ele>
        <time>2016-09-26T07:59:11Z</time>
      </trkpt>
      <trkpt lat="43.71673" lon="7.02682">
        <ele>845.8</ele>
        <time>2016-09-26T07:59:20Z</time>
      </trkpt>
      <trkpt lat="43.71673" lon="7.02668">
        <ele>845.9</ele>
        <time>2016-09-26T07:59:26Z</time>
      </trkpt>
      <trkpt lat="43.71673" lon="7.02661">
        <ele>846.1</ele>
        <time>2016-09-26T07:59:29Z</time>
      </trkpt>
      <trkpt lat="43.71674" lon="7.0266">
        <ele>846.2</ele>
        <time>2016-09-26T07:59:31Z</time>
      </trkpt>
      <trkpt lat="43.71675" lon="7.02655">
        <ele>847.5</ele>
        <time>2016-09-26T07:59:35Z</time>
      </trkpt>
      <trkpt lat="43.71675" lon="7.02655">
        <ele>848</ele>
        <time>2016-09-26T07:59:35Z</time>
      </trkpt>
      <trkpt lat="43.71675" lon="7.02655">
        <ele>848</ele>
        <time>2016-09-26T08:00:53Z</time>
      </trkpt>
      <trkpt lat="43.71662" lon="7.02652">
        <ele>846.6</ele>
        <time>2016-09-26T08:00:53Z</time>
      </trkpt>
      <trkpt lat="43.71662" lon="7.02652">
        <ele>848.1</ele>
        <time>2016-09-26T08:01:02Z</time>
      </trkpt>
      <trkpt lat="43.71662" lon="7.02651">
        <ele>845.8</ele>
        <time>2016-09-26T08:01:04Z</time>
      </trkpt>
      <trkpt lat="43.71662" lon="7.02651">
        <ele>848.1</ele>
        <time>2016-09-26T08:01:04Z</time>
      </trkpt>
      <trkpt lat="43.71662" lon="7.02651">
        <ele>848.1</ele>
        <time>2016-09-26T08:01:19Z</time>
      </trkpt>
      <trkpt lat="43.71646" lon="7.02663">
        <ele>846.4</ele>
        <time>2016-09-26T08:01:19Z</time>
      </trkpt>
      <trkpt lat="43.71641" lon="7.02663">
        <ele>846.6</ele>
        <time>2016-09-26T08:01:23Z</time>
      </trkpt>
      <trkpt lat="43.71636" lon="7.02659">
        <ele>846.6</ele>
        <time>2016-09-26T08:01:30Z</time>
      </trkpt>
      <trkpt lat="43.7163" lon="7.02659">
        <ele>846.4</ele>
        <time>2016-09-26T08:01:34Z</time>
      </trkpt>
      <trkpt lat="43.71623" lon="7.02664">
        <ele>846.4</ele>
        <time>2016-09-26T08:01:36Z</time>
      </trkpt>
      <trkpt lat="43.71612" lon="7.02667">
        <ele>846.3</ele>
        <time>2016-09-26T08:01:40Z</time>
      </trkpt>
      <trkpt lat="43.71599" lon="7.02672">
        <ele>846</ele>
        <time>2016-09-26T08:01:47Z</time>
      </trkpt>
      <trkpt lat="43.71599" lon="7.02672">
        <ele>846.7</ele>
        <time>2016-09-26T08:01:57Z</time>
      </trkpt>
      <trkpt lat="43.7159" lon="7.02667">
        <ele>844.9</ele>
        <time>2016-09-26T08:01:59Z</time>
      </trkpt>
      <trkpt lat="43.7159" lon="7.02667">
        <ele>847.1</ele>
        <time>2016-09-26T08:02:10Z</time>
      </trkpt>
      <trkpt lat="43.71581" lon="7.02656">
        <ele>844.8</ele>
        <time>2016-09-26T08:02:11Z</time>
      </trkpt>
      <trkpt lat="43.71581" lon="7.02656">
        <ele>847.8</ele>
        <time>2016-09-26T08:02:22Z</time>
      </trkpt>
      <trkpt lat="43.7157" lon="7.02654">
        <ele>844.8</ele>
        <time>2016-09-26T08:02:23Z</time>
      </trkpt>
      <trkpt lat="43.71563" lon="7.02657">
        <ele>844.6</ele>
        <time>2016-09-26T08:02:28Z</time>
      </trkpt>
      <trkpt lat="43.71562" lon="7.02657">
        <ele>844.4</ele>
        <time>2016-09-26T08:02:29Z</time>
      </trkpt>
      <trkpt lat="43.71562" lon="7.02657">
        <ele>843.7</ele>
        <time>2016-09-26T08:02:33Z</time>
      </trkpt>
      <trkpt lat="43.71562" lon="7.02657">
        <ele>843.7</ele>
        <time>2016-09-26T08:02:33Z</time>
      </trkpt>
      <trkpt lat="43.71562" lon="7.02657">
        <ele>843.7</ele>
        <time>2016-09-26T08:03:11Z</time>
      </trkpt>
      <trkpt lat="43.71553" lon="7.02646">
        <ele>842.6</ele>
        <time>2016-09-26T08:03:11Z</time>
      </trkpt>
      <trkpt lat="43.71552" lon="7.02644">
        <ele>841.9</ele>
        <time>2016-09-26T08:03:13Z</time>
      </trkpt>
      <trkpt lat="43.71556" lon="7.02641">
        <ele>836.6</ele>
        <time>2016-09-26T08:03:18Z</time>
      </trkpt>
      <trkpt lat="43.71556" lon="7.02641">
        <ele>843</ele>
        <time>2016-09-26T08:03:18Z</time>
      </trkpt>
      <trkpt lat="43.71556" lon="7.02641">
        <ele>843</ele>
        <time>2016-09-26T08:04:48Z</time>
      </trkpt>
      <trkpt lat="43.71547" lon="7.02656">
        <ele>836.8</ele>
        <time>2016-09-26T08:04:48Z</time>
      </trkpt>
      <trkpt lat="43.71553" lon="7.02652">
        <ele>836.5</ele>
        <time>2016-09-26T08:04:51Z</time>
      </trkpt>
      <trkpt lat="43.71553" lon="7.02652">
        <ele>841.7</ele>
        <time>2016-09-26T08:05:02Z</time>
      </trkpt>
      <trkpt lat="43.71554" lon="7.02654">
        <ele>835.8</ele>
        <time>2016-09-26T08:05:03Z</time>
      </trkpt>
      <trkpt lat="43.71554" lon="7.02654">
        <ele>841.8</ele>
        <time>2016-09-26T08:05:03Z</time>
      </trkpt>
      <trkpt lat="43.71554" lon="7.02654">
        <ele>841.8</ele>
        <time>2016-09-26T08:05:14Z</time>
      </trkpt>
      <trkpt lat="43.71566" lon="7.0264">
        <ele>835.9</ele>
        <time>2016-09-26T08:05:15Z</time>
      </trkpt>
      <trkpt lat="43.71566" lon="7.0264">
        <ele>836</ele>
        <time>2016-09-26T08:05:16Z</time>
      </trkpt>
      <trkpt lat="43.71563" lon="7.02645">
        <ele>838.6</ele>
        <time>2016-09-26T08:05:20Z</time>
      </trkpt>
      <trkpt lat="43.71563" lon="7.02645">
        <ele>844.6</ele>
        <time>2016-09-26T08:05:20Z</time>
      </trkpt>
      <trkpt lat="43.71563" lon="7.02645">
        <ele>844.6</ele>
        <time>2016-09-26T08:12:03Z</time>
      </trkpt>
      <trkpt lat="43.71582" lon="7.02653">
        <ele>844.3</ele>
        <time>2016-09-26T08:12:04Z</time>
      </trkpt>
      <trkpt lat="43.71582" lon="7.02653">
        <ele>848.3</ele>
        <time>2016-09-26T08:12:12Z</time>
      </trkpt>
      <trkpt lat="43.71593" lon="7.02658">
        <ele>845.2</ele>
        <time>2016-09-26T08:12:16Z</time>
      </trkpt>
      <trkpt lat="43.71593" lon="7.02658">
        <ele>848.4</ele>
        <time>2016-09-26T08:12:28Z</time>
      </trkpt>
      <trkpt lat="43.71603" lon="7.02655">
        <ele>845.4</ele>
        <time>2016-09-26T08:12:29Z</time>
      </trkpt>
      <trkpt lat="43.71606" lon="7.02655">
        <ele>845.6</ele>
        <time>2016-09-26T08:12:32Z</time>
      </trkpt>
      <trkpt lat="43.71606" lon="7.02654">
        <ele>845.5</ele>
        <time>2016-09-26T08:12:36Z</time>
      </trkpt>
      <trkpt lat="43.71606" lon="7.02654">
        <ele>849.6</ele>
        <time>2016-09-26T08:12:36Z</time>
      </trkpt>
      <trkpt lat="43.71606" lon="7.02654">
        <ele>849.6</ele>
        <time>2016-09-26T08:14:17Z</time>
      </trkpt>
      <trkpt lat="43.71617" lon="7.02665">
        <ele>845.3</ele>
        <time>2016-09-26T08:14:18Z</time>
      </trkpt>
      <trkpt lat="43.71617" lon="7.02665">
        <ele>848.3</ele>
        <time>2016-09-26T08:14:26Z</time>
      </trkpt>
      <trkpt lat="43.71617" lon="7.02665">
        <ele>848.3</ele>
        <time>2016-09-26T08:14:37Z</time>
      </trkpt>
      <trkpt lat="43.71633" lon="7.02664">
        <ele>845.8</ele>
        <time>2016-09-26T08:14:38Z</time>
      </trkpt>
      <trkpt lat="43.71638" lon="7.02666">
        <ele>845.8</ele>
        <time>2016-09-26T08:14:42Z</time>
      </trkpt>
      <trkpt lat="43.71638" lon="7.02666">
        <ele>848.1</ele>
        <time>2016-09-26T08:14:52Z</time>
      </trkpt>
      <trkpt lat="43.71652" lon="7.02663">
        <ele>845.8</ele>
        <time>2016-09-26T08:14:53Z</time>
      </trkpt>
      <trkpt lat="43.71652" lon="7.02663">
        <ele>848.5</ele>
        <time>2016-09-26T08:15:01Z</time>
      </trkpt>
      <trkpt lat="43.71661" lon="7.02658">
        <ele>845.4</ele>
        <time>2016-09-26T08:15:02Z</time>
      </trkpt>
      <trkpt lat="43.71661" lon="7.02658">
        <ele>848.4</ele>
        <time>2016-09-26T08:15:13Z</time>
      </trkpt>
      <trkpt lat="43.71667" lon="7.02659">
        <ele>844.7</ele>
        <time>2016-09-26T08:15:16Z</time>
      </trkpt>
      <trkpt lat="43.71669" lon="7.02665">
        <ele>844.7</ele>
        <time>2016-09-26T08:15:20Z</time>
      </trkpt>
      <trkpt lat="43.71665" lon="7.02671">
        <ele>844.4</ele>
        <time>2016-09-26T08:15:25Z</time>
      </trkpt>
      <trkpt lat="43.71664" lon="7.02677">
        <ele>844.2</ele>
        <time>2016-09-26T08:15:30Z</time>
      </trkpt>
      <trkpt lat="43.71664" lon="7.02677">
        <ele>848.5</ele>
        <time>2016-09-26T08:15:40Z</time>
      </trkpt>
      <trkpt lat="43.71664" lon="7.02697">
        <ele>843.6</ele>
        <time>2016-09-26T08:15:43Z</time>
      </trkpt>
      <trkpt lat="43.71665" lon="7.02703">
        <ele>843.6</ele>
        <time>2016-09-26T08:15:46Z</time>
      </trkpt>
      <trkpt lat="43.71665" lon="7.0271">
        <ele>842.8</ele>
        <time>2016-09-26T08:15:50Z</time>
      </trkpt>
      <trkpt lat="43.71668" lon="7.02715">
        <ele>842.8</ele>
        <time>2016-09-26T08:15:53Z</time>
      </trkpt>
      <trkpt lat="43.71673" lon="7.0272">
        <ele>841.4</ele>
        <time>2016-09-26T08:15:57Z</time>
      </trkpt>
      <trkpt lat="43.71677" lon="7.02722">
        <ele>841.1</ele>
        <time>2016-09-26T08:16:01Z</time>
      </trkpt>
      <trkpt lat="43.71678" lon="7.02724">
        <ele>841.5</ele>
        <time>2016-09-26T08:16:06Z</time>
      </trkpt>
      <trkpt lat="43.71678" lon="7.02724">
        <ele>848.6</ele>
        <time>2016-09-26T08:16:06Z</time>
      </trkpt>
      <trkpt lat="43.71678" lon="7.02724">
        <ele>848.6</ele>
        <time>2016-09-26T08:16:21Z</time>
      </trkpt>
      <trkpt lat="43.71686" lon="7.02729">
        <ele>840.9</ele>
        <time>2016-09-26T08:16:21Z</time>
      </trkpt>
      <trkpt lat="43.71686" lon="7.02729">
        <ele>849.4</ele>
        <time>2016-09-26T08:16:30Z</time>
      </trkpt>
      <trkpt lat="43.71699" lon="7.02736">
        <ele>840.5</ele>
        <time>2016-09-26T08:16:34Z</time>
      </trkpt>
      <trkpt lat="43.71699" lon="7.02736">
        <ele>850.6</ele>
        <time>2016-09-26T08:16:44Z</time>
      </trkpt>
      <trkpt lat="43.71714" lon="7.02737">
        <ele>840.7</ele>
        <time>2016-09-26T08:16:47Z</time>
      </trkpt>
      <trkpt lat="43.71719" lon="7.02738">
        <ele>841</ele>
        <time>2016-09-26T08:16:51Z</time>
      </trkpt>
      <trkpt lat="43.71722" lon="7.02739">
        <ele>841.2</ele>
        <time>2016-09-26T08:16:54Z</time>
      </trkpt>
      <trkpt lat="43.71722" lon="7.02739">
        <ele>843.7</ele>
        <time>2016-09-26T08:16:59Z</time>
      </trkpt>
      <trkpt lat="43.71722" lon="7.02739">
        <ele>853.4</ele>
        <time>2016-09-26T08:16:59Z</time>
      </trkpt>
      <trkpt lat="43.71722" lon="7.02739">
        <ele>853.4</ele>
        <time>2016-09-26T08:17:08Z</time>
      </trkpt>
      <trkpt lat="43.71732" lon="7.0274">
        <ele>841.4</ele>
        <time>2016-09-26T08:17:08Z</time>
      </trkpt>
      <trkpt lat="43.71732" lon="7.0274">
        <ele>854.3</ele>
        <time>2016-09-26T08:17:17Z</time>
      </trkpt>
      <trkpt lat="43.71732" lon="7.0274">
        <ele>854.3</ele>
        <time>2016-09-26T08:17:26Z</time>
      </trkpt>
      <trkpt lat="43.71754" lon="7.02742">
        <ele>843.9</ele>
        <time>2016-09-26T08:17:28Z</time>
      </trkpt>
      <trkpt lat="43.71759" lon="7.02742">
        <ele>844.5</ele>
        <time>2016-09-26T08:17:33Z</time>
      </trkpt>
      <trkpt lat="43.71759" lon="7.02742">
        <ele>856.8</ele>
        <time>2016-09-26T08:17:43Z</time>
      </trkpt>
      <trkpt lat="43.71773" lon="7.02742">
        <ele>846.5</ele>
        <time>2016-09-26T08:17:45Z</time>
      </trkpt>
      <trkpt lat="43.71773" lon="7.02742">
        <ele>858</ele>
        <time>2016-09-26T08:17:54Z</time>
      </trkpt>
      <trkpt lat="43.71786" lon="7.02742">
        <ele>847.3</ele>
        <time>2016-09-26T08:17:58Z</time>
      </trkpt>
      <trkpt lat="43.71786" lon="7.02742">
        <ele>859.4</ele>
        <time>2016-09-26T08:18:07Z</time>
      </trkpt>
      <trkpt lat="43.71786" lon="7.02742">
        <ele>859.4</ele>
        <time>2016-09-26T08:18:16Z</time>
      </trkpt>
      <trkpt lat="43.7181" lon="7.02742">
        <ele>848.9</ele>
        <time>2016-09-26T08:18:19Z</time>
      </trkpt>
      <trkpt lat="43.7181" lon="7.02742">
        <ele>862.2</ele>
        <time>2016-09-26T08:18:28Z</time>
      </trkpt>
      <trkpt lat="43.7181" lon="7.02742">
        <ele>862.2</ele>
        <time>2016-09-26T08:18:38Z</time>
      </trkpt>
      <trkpt lat="43.71834" lon="7.0274">
        <ele>850.6</ele>
        <time>2016-09-26T08:18:39Z</time>
      </trkpt>
      <trkpt lat="43.71834" lon="7.0274">
        <ele>864.7</ele>
        <time>2016-09-26T08:18:48Z</time>
      </trkpt>
      <trkpt lat="43.71845" lon="7.02746">
        <ele>851.6</ele>
        <time>2016-09-26T08:18:53Z</time>
      </trkpt>
      <trkpt lat="43.71849" lon="7.0275">
        <ele>852</ele>
        <time>2016-09-26T08:18:59Z</time>
      </trkpt>
      <trkpt lat="43.71854" lon="7.02753">
        <ele>852.3</ele>
        <time>2016-09-26T08:19:05Z</time>
      </trkpt>
      <trkpt lat="43.71854" lon="7.02753">
        <ele>869.1</ele>
        <time>2016-09-26T08:19:14Z</time>
      </trkpt>
      <trkpt lat="43.71862" lon="7.02753">
        <ele>855</ele>
        <time>2016-09-26T08:19:15Z</time>
      </trkpt>
      <trkpt lat="43.71866" lon="7.02757">
        <ele>856.2</ele>
        <time>2016-09-26T08:19:25Z</time>
      </trkpt>
      <trkpt lat="43.71867" lon="7.02757">
        <ele>857.2</ele>
        <time>2016-09-26T08:19:27Z</time>
      </trkpt>
      <trkpt lat="43.7187" lon="7.02756">
        <ele>862.5</ele>
        <time>2016-09-26T08:19:32Z</time>
      </trkpt>
      <trkpt lat="43.7187" lon="7.02756">
        <ele>871.5</ele>
        <time>2016-09-26T08:19:32Z</time>
      </trkpt>
      <trkpt lat="43.7187" lon="7.02756">
        <ele>871.5</ele>
        <time>2016-09-26T08:19:50Z</time>
      </trkpt>
      <trkpt lat="43.71883" lon="7.02766">
        <ele>859.8</ele>
        <time>2016-09-26T08:19:51Z</time>
      </trkpt>
      <trkpt lat="43.71893" lon="7.02764">
        <ele>860.8</ele>
        <time>2016-09-26T08:19:58Z</time>
      </trkpt>
      <trkpt lat="43.71893" lon="7.02764">
        <ele>875.6</ele>
        <time>2016-09-26T08:20:07Z</time>
      </trkpt>
      <trkpt lat="43.719" lon="7.02771">
        <ele>863.6</ele>
        <time>2016-09-26T08:20:08Z</time>
      </trkpt>
      <trkpt lat="43.719" lon="7.02771">
        <ele>877.5</ele>
        <time>2016-09-26T08:20:17Z</time>
      </trkpt>
      <trkpt lat="43.71906" lon="7.02783">
        <ele>864.5</ele>
        <time>2016-09-26T08:20:19Z</time>
      </trkpt>
      <trkpt lat="43.71906" lon="7.02783">
        <ele>879</ele>
        <time>2016-09-26T08:20:27Z</time>
      </trkpt>
      <trkpt lat="43.71915" lon="7.02786">
        <ele>865.8</ele>
        <time>2016-09-26T08:20:28Z</time>
      </trkpt>
      <trkpt lat="43.71924" lon="7.02788">
        <ele>866.8</ele>
        <time>2016-09-26T08:20:34Z</time>
      </trkpt>
      <trkpt lat="43.71929" lon="7.02789">
        <ele>867.3</ele>
        <time>2016-09-26T08:20:39Z</time>
      </trkpt>
      <trkpt lat="43.71934" lon="7.0279">
        <ele>867.6</ele>
        <time>2016-09-26T08:20:44Z</time>
      </trkpt>
      <trkpt lat="43.71934" lon="7.0279">
        <ele>884.7</ele>
        <time>2016-09-26T08:20:55Z</time>
      </trkpt>
      <trkpt lat="43.71934" lon="7.0279">
        <ele>884.7</ele>
        <time>2016-09-26T08:21:05Z</time>
      </trkpt>
      <trkpt lat="43.71952" lon="7.02794">
        <ele>872.6</ele>
        <time>2016-09-26T08:21:09Z</time>
      </trkpt>
      <trkpt lat="43.71958" lon="7.02792">
        <ele>873.3</ele>
        <time>2016-09-26T08:21:14Z</time>
      </trkpt>
      <trkpt lat="43.71962" lon="7.02788">
        <ele>873.3</ele>
        <time>2016-09-26T08:21:18Z</time>
      </trkpt>
      <trkpt lat="43.71962" lon="7.02788">
        <ele>890.1</ele>
        <time>2016-09-26T08:21:26Z</time>
      </trkpt>
      <trkpt lat="43.71972" lon="7.02786">
        <ele>877.6</ele>
        <time>2016-09-26T08:21:29Z</time>
      </trkpt>
      <trkpt lat="43.71976" lon="7.02787">
        <ele>879.3</ele>
        <time>2016-09-26T08:21:35Z</time>
      </trkpt>
      <trkpt lat="43.71981" lon="7.02789">
        <ele>880.8</ele>
        <time>2016-09-26T08:21:40Z</time>
      </trkpt>
      <trkpt lat="43.71986" lon="7.02789">
        <ele>881.3</ele>
        <time>2016-09-26T08:21:44Z</time>
      </trkpt>
      <trkpt lat="43.71991" lon="7.02789">
        <ele>882.1</ele>
        <time>2016-09-26T08:21:49Z</time>
      </trkpt>
      <trkpt lat="43.71991" lon="7.02789">
        <ele>896.1</ele>
        <time>2016-09-26T08:21:58Z</time>
      </trkpt>
      <trkpt lat="43.72003" lon="7.02786">
        <ele>884.7</ele>
        <time>2016-09-26T08:22:04Z</time>
      </trkpt>
      <trkpt lat="43.72003" lon="7.02786">
        <ele>898.8</ele>
        <time>2016-09-26T08:22:13Z</time>
      </trkpt>
      <trkpt lat="43.72013" lon="7.02784">
        <ele>885.9</ele>
        <time>2016-09-26T08:22:16Z</time>
      </trkpt>
      <trkpt lat="43.72017" lon="7.0278">
        <ele>886.3</ele>
        <time>2016-09-26T08:22:22Z</time>
      </trkpt>
      <trkpt lat="43.72017" lon="7.0278">
        <ele>903</ele>
        <time>2016-09-26T08:22:30Z</time>
      </trkpt>
      <trkpt lat="43.72017" lon="7.0278">
        <ele>903</ele>
        <time>2016-09-26T08:22:43Z</time>
      </trkpt>
      <trkpt lat="43.72037" lon="7.02775">
        <ele>891.5</ele>
        <time>2016-09-26T08:22:48Z</time>
      </trkpt>
      <trkpt lat="43.72042" lon="7.02773">
        <ele>892.9</ele>
        <time>2016-09-26T08:22:52Z</time>
      </trkpt>
      <trkpt lat="43.72047" lon="7.02768">
        <ele>893.4</ele>
        <time>2016-09-26T08:22:58Z</time>
      </trkpt>
      <trkpt lat="43.72047" lon="7.02766">
        <ele>893.7</ele>
        <time>2016-09-26T08:23:00Z</time>
      </trkpt>
      <trkpt lat="43.72047" lon="7.02765">
        <ele>898</ele>
        <time>2016-09-26T08:23:04Z</time>
      </trkpt>
      <trkpt lat="43.72047" lon="7.02765">
        <ele>910.6</ele>
        <time>2016-09-26T08:23:04Z</time>
      </trkpt>
      <trkpt lat="43.72047" lon="7.02765">
        <ele>910.6</ele>
        <time>2016-09-26T08:23:14Z</time>
      </trkpt>
      <trkpt lat="43.72058" lon="7.02762">
        <ele>896.1</ele>
        <time>2016-09-26T08:23:15Z</time>
      </trkpt>
      <trkpt lat="43.72063" lon="7.02758">
        <ele>897.7</ele>
        <time>2016-09-26T08:23:23Z</time>
      </trkpt>
      <trkpt lat="43.72067" lon="7.02754">
        <ele>898</ele>
        <time>2016-09-26T08:23:28Z</time>
      </trkpt>
      <trkpt lat="43.72072" lon="7.02749">
        <ele>898.4</ele>
        <time>2016-09-26T08:23:35Z</time>
      </trkpt>
      <trkpt lat="43.72076" lon="7.02746">
        <ele>898.8</ele>
        <time>2016-09-26T08:23:39Z</time>
      </trkpt>
      <trkpt lat="43.72076" lon="7.02746">
        <ele>918.1</ele>
        <time>2016-09-26T08:23:49Z</time>
      </trkpt>
      <trkpt lat="43.72082" lon="7.02736">
        <ele>900.1</ele>
        <time>2016-09-26T08:23:51Z</time>
      </trkpt>
      <trkpt lat="43.72086" lon="7.02732">
        <ele>902.2</ele>
        <time>2016-09-26T08:23:57Z</time>
      </trkpt>
      <trkpt lat="43.72095" lon="7.02726">
        <ele>903.5</ele>
        <time>2016-09-26T08:24:05Z</time>
      </trkpt>
      <trkpt lat="43.721" lon="7.02722">
        <ele>904</ele>
        <time>2016-09-26T08:24:11Z</time>
      </trkpt>
      <trkpt lat="43.72102" lon="7.02715">
        <ele>904.7</ele>
        <time>2016-09-26T08:24:17Z</time>
      </trkpt>
      <trkpt lat="43.72106" lon="7.02712">
        <ele>904.7</ele>
        <time>2016-09-26T08:24:21Z</time>
      </trkpt>
      <trkpt lat="43.72106" lon="7.02712">
        <ele>924.3</ele>
        <time>2016-09-26T08:24:30Z</time>
      </trkpt>
      <trkpt lat="43.72118" lon="7.02703">
        <ele>905.6</ele>
        <time>2016-09-26T08:24:32Z</time>
      </trkpt>
      <trkpt lat="43.7212" lon="7.02702">
        <ele>906.2</ele>
        <time>2016-09-26T08:24:35Z</time>
      </trkpt>
      <trkpt lat="43.72121" lon="7.02702">
        <ele>907.5</ele>
        <time>2016-09-26T08:24:39Z</time>
      </trkpt>
      <trkpt lat="43.72121" lon="7.02702">
        <ele>928</ele>
        <time>2016-09-26T08:24:39Z</time>
      </trkpt>
      <trkpt lat="43.72121" lon="7.02702">
        <ele>928</ele>
        <time>2016-09-26T08:24:48Z</time>
      </trkpt>
      <trkpt lat="43.7213" lon="7.02699">
        <ele>906.6</ele>
        <time>2016-09-26T08:24:49Z</time>
      </trkpt>
      <trkpt lat="43.72131" lon="7.02699">
        <ele>906.8</ele>
        <time>2016-09-26T08:24:50Z</time>
      </trkpt>
      <trkpt lat="43.72133" lon="7.027">
        <ele>906.7</ele>
        <time>2016-09-26T08:24:54Z</time>
      </trkpt>
      <trkpt lat="43.72133" lon="7.027">
        <ele>931.9</ele>
        <time>2016-09-26T08:24:54Z</time>
      </trkpt>
      <trkpt lat="43.72133" lon="7.027">
        <ele>931.9</ele>
        <time>2016-09-26T08:25:12Z</time>
      </trkpt>
      <trkpt lat="43.7214" lon="7.02676">
        <ele>907.1</ele>
        <time>2016-09-26T08:25:13Z</time>
      </trkpt>
      <trkpt lat="43.7214" lon="7.02676">
        <ele>931.3</ele>
        <time>2016-09-26T08:25:21Z</time>
      </trkpt>
      <trkpt lat="43.72143" lon="7.02663">
        <ele>907.5</ele>
        <time>2016-09-26T08:25:22Z</time>
      </trkpt>
      <trkpt lat="43.72143" lon="7.02663">
        <ele>931</ele>
        <time>2016-09-26T08:25:30Z</time>
      </trkpt>
      <trkpt lat="43.72145" lon="7.02649">
        <ele>910</ele>
        <time>2016-09-26T08:25:33Z</time>
      </trkpt>
      <trkpt lat="43.7215" lon="7.02645">
        <ele>910.4</ele>
        <time>2016-09-26T08:25:38Z</time>
      </trkpt>
      <trkpt lat="43.7215" lon="7.02645">
        <ele>932.5</ele>
        <time>2016-09-26T08:25:50Z</time>
      </trkpt>
      <trkpt lat="43.7216" lon="7.02629">
        <ele>912.2</ele>
        <time>2016-09-26T08:25:56Z</time>
      </trkpt>
      <trkpt lat="43.7216" lon="7.02622">
        <ele>912.8</ele>
        <time>2016-09-26T08:26:00Z</time>
      </trkpt>
      <trkpt lat="43.72165" lon="7.02618">
        <ele>914.3</ele>
        <time>2016-09-26T08:26:05Z</time>
      </trkpt>
      <trkpt lat="43.72164" lon="7.02612">
        <ele>915.7</ele>
        <time>2016-09-26T08:26:10Z</time>
      </trkpt>
      <trkpt lat="43.72164" lon="7.02612">
        <ele>935.4</ele>
        <time>2016-09-26T08:26:22Z</time>
      </trkpt>
      <trkpt lat="43.72174" lon="7.02609">
        <ele>917.6</ele>
        <time>2016-09-26T08:26:24Z</time>
      </trkpt>
      <trkpt lat="43.72179" lon="7.0261">
        <ele>919.1</ele>
        <time>2016-09-26T08:26:28Z</time>
      </trkpt>
      <trkpt lat="43.72179" lon="7.0261">
        <ele>939</ele>
        <time>2016-09-26T08:26:39Z</time>
      </trkpt>
      <trkpt lat="43.72192" lon="7.02614">
        <ele>920.1</ele>
        <time>2016-09-26T08:26:43Z</time>
      </trkpt>
      <trkpt lat="43.72193" lon="7.02614">
        <ele>920.2</ele>
        <time>2016-09-26T08:26:44Z</time>
      </trkpt>
      <trkpt lat="43.72193" lon="7.02611">
        <ele>924.2</ele>
        <time>2016-09-26T08:26:47Z</time>
      </trkpt>
      <trkpt lat="43.72193" lon="7.02611">
        <ele>942.6</ele>
        <time>2016-09-26T08:26:47Z</time>
      </trkpt>
      <trkpt lat="43.72193" lon="7.02611">
        <ele>942.6</ele>
        <time>2016-09-26T08:27:09Z</time>
      </trkpt>
      <trkpt lat="43.72206" lon="7.02596">
        <ele>922.4</ele>
        <time>2016-09-26T08:27:10Z</time>
      </trkpt>
      <trkpt lat="43.72207" lon="7.02596">
        <ele>923.8</ele>
        <time>2016-09-26T08:27:11Z</time>
      </trkpt>
      <trkpt lat="43.72209" lon="7.02596">
        <ele>926.8</ele>
        <time>2016-09-26T08:27:15Z</time>
      </trkpt>
      <trkpt lat="43.72209" lon="7.02596">
        <ele>946.1</ele>
        <time>2016-09-26T08:27:15Z</time>
      </trkpt>
      <trkpt lat="43.72209" lon="7.02596">
        <ele>946.1</ele>
        <time>2016-09-26T08:27:46Z</time>
      </trkpt>
      <trkpt lat="43.72222" lon="7.0258">
        <ele>926.7</ele>
        <time>2016-09-26T08:27:47Z</time>
      </trkpt>
      <trkpt lat="43.72222" lon="7.0258">
        <ele>947.8</ele>
        <time>2016-09-26T08:27:55Z</time>
      </trkpt>
      <trkpt lat="43.72222" lon="7.02576">
        <ele>934.8</ele>
        <time>2016-09-26T08:27:56Z</time>
      </trkpt>
      <trkpt lat="43.72222" lon="7.02576">
        <ele>947.7</ele>
        <time>2016-09-26T08:27:56Z</time>
      </trkpt>
      <trkpt lat="43.72222" lon="7.02576">
        <ele>947.7</ele>
        <time>2016-09-26T08:28:31Z</time>
      </trkpt>
      <trkpt lat="43.7224" lon="7.02562">
        <ele>934.8</ele>
        <time>2016-09-26T08:28:32Z</time>
      </trkpt>
      <trkpt lat="43.7224" lon="7.02562">
        <ele>951.7</ele>
        <time>2016-09-26T08:28:40Z</time>
      </trkpt>
      <trkpt lat="43.72249" lon="7.02558">
        <ele>935.9</ele>
        <time>2016-09-26T08:28:43Z</time>
      </trkpt>
      <trkpt lat="43.72251" lon="7.02559">
        <ele>936.6</ele>
        <time>2016-09-26T08:28:45Z</time>
      </trkpt>
      <trkpt lat="43.72252" lon="7.02558">
        <ele>941</ele>
        <time>2016-09-26T08:28:49Z</time>
      </trkpt>
      <trkpt lat="43.72252" lon="7.02558">
        <ele>955</ele>
        <time>2016-09-26T08:28:49Z</time>
      </trkpt>
      <trkpt lat="43.72252" lon="7.02558">
        <ele>955</ele>
        <time>2016-09-26T08:29:10Z</time>
      </trkpt>
      <trkpt lat="43.72261" lon="7.02534">
        <ele>940.6</ele>
        <time>2016-09-26T08:29:11Z</time>
      </trkpt>
      <trkpt lat="43.72261" lon="7.02534">
        <ele>958.8</ele>
        <time>2016-09-26T08:29:19Z</time>
      </trkpt>
      <trkpt lat="43.72263" lon="7.02522">
        <ele>941.2</ele>
        <time>2016-09-26T08:29:24Z</time>
      </trkpt>
      <trkpt lat="43.72265" lon="7.02517">
        <ele>941.5</ele>
        <time>2016-09-26T08:29:30Z</time>
      </trkpt>
      <trkpt lat="43.72262" lon="7.02509">
        <ele>941.5</ele>
        <time>2016-09-26T08:29:34Z</time>
      </trkpt>
      <trkpt lat="43.72262" lon="7.02502">
        <ele>941.7</ele>
        <time>2016-09-26T08:29:38Z</time>
      </trkpt>
      <trkpt lat="43.72264" lon="7.02496">
        <ele>941.7</ele>
        <time>2016-09-26T08:29:43Z</time>
      </trkpt>
      <trkpt lat="43.72263" lon="7.02493">
        <ele>941.8</ele>
        <time>2016-09-26T08:29:45Z</time>
      </trkpt>
      <trkpt lat="43.72263" lon="7.02489">
        <ele>946.4</ele>
        <time>2016-09-26T08:29:49Z</time>
      </trkpt>
      <trkpt lat="43.72263" lon="7.02489">
        <ele>961.1</ele>
        <time>2016-09-26T08:29:49Z</time>
      </trkpt>
      <trkpt lat="43.72263" lon="7.02489">
        <ele>961.1</ele>
        <time>2016-09-26T08:30:16Z</time>
      </trkpt>
      <trkpt lat="43.72263" lon="7.02467">
        <ele>946.1</ele>
        <time>2016-09-26T08:30:17Z</time>
      </trkpt>
      <trkpt lat="43.72264" lon="7.02463">
        <ele>946.6</ele>
        <time>2016-09-26T08:30:21Z</time>
      </trkpt>
      <trkpt lat="43.72264" lon="7.02461">
        <ele>949.5</ele>
        <time>2016-09-26T08:30:25Z</time>
      </trkpt>
      <trkpt lat="43.72264" lon="7.02461">
        <ele>964</ele>
        <time>2016-09-26T08:30:25Z</time>
      </trkpt>
      <trkpt lat="43.72264" lon="7.02461">
        <ele>964</ele>
        <time>2016-09-26T08:31:07Z</time>
      </trkpt>
      <trkpt lat="43.72279" lon="7.02448">
        <ele>949.6</ele>
        <time>2016-09-26T08:31:08Z</time>
      </trkpt>
      <trkpt lat="43.7228" lon="7.02448">
        <ele>949.7</ele>
        <time>2016-09-26T08:31:09Z</time>
      </trkpt>
      <trkpt lat="43.72282" lon="7.0245">
        <ele>950.2</ele>
        <time>2016-09-26T08:31:12Z</time>
      </trkpt>
      <trkpt lat="43.72282" lon="7.0245">
        <ele>971.6</ele>
        <time>2016-09-26T08:31:12Z</time>
      </trkpt>
      <trkpt lat="43.72282" lon="7.0245">
        <ele>971.6</ele>
        <time>2016-09-26T08:32:01Z</time>
      </trkpt>
      <trkpt lat="43.72286" lon="7.02424">
        <ele>952</ele>
        <time>2016-09-26T08:32:02Z</time>
      </trkpt>
      <trkpt lat="43.72285" lon="7.02423">
        <ele>952.4</ele>
        <time>2016-09-26T08:32:03Z</time>
      </trkpt>
      <trkpt lat="43.72286" lon="7.02421">
        <ele>956.7</ele>
        <time>2016-09-26T08:32:07Z</time>
      </trkpt>
      <trkpt lat="43.72286" lon="7.02421">
        <ele>972.8</ele>
        <time>2016-09-26T08:32:07Z</time>
      </trkpt>
      <trkpt lat="43.72286" lon="7.02421">
        <ele>972.8</ele>
        <time>2016-09-26T08:34:24Z</time>
      </trkpt>
      <trkpt lat="43.72295" lon="7.024">
        <ele>961.9</ele>
        <time>2016-09-26T08:34:25Z</time>
      </trkpt>
      <trkpt lat="43.72296" lon="7.02393">
        <ele>961.6</ele>
        <time>2016-09-26T08:34:31Z</time>
      </trkpt>
      <trkpt lat="43.72296" lon="7.02392">
        <ele>961.5</ele>
        <time>2016-09-26T08:34:32Z</time>
      </trkpt>
      <trkpt lat="43.72296" lon="7.02392">
        <ele>977.6</ele>
        <time>2016-09-26T08:34:33Z</time>
      </trkpt>
      <trkpt lat="43.72296" lon="7.02392">
        <ele>977.6</ele>
        <time>2016-09-26T08:34:57Z</time>
      </trkpt>
      <trkpt lat="43.723" lon="7.02365">
        <ele>962.4</ele>
        <time>2016-09-26T08:34:58Z</time>
      </trkpt>
      <trkpt lat="43.72302" lon="7.02358">
        <ele>963.1</ele>
        <time>2016-09-26T08:35:02Z</time>
      </trkpt>
      <trkpt lat="43.72305" lon="7.02353">
        <ele>963.4</ele>
        <time>2016-09-26T08:35:08Z</time>
      </trkpt>
      <trkpt lat="43.72305" lon="7.02346">
        <ele>963.8</ele>
        <time>2016-09-26T08:35:13Z</time>
      </trkpt>
      <trkpt lat="43.72306" lon="7.02344">
        <ele>963.8</ele>
        <time>2016-09-26T08:35:14Z</time>
      </trkpt>
      <trkpt lat="43.72307" lon="7.02341">
        <ele>967.7</ele>
        <time>2016-09-26T08:35:17Z</time>
      </trkpt>
      <trkpt lat="43.72307" lon="7.02341">
        <ele>980.4</ele>
        <time>2016-09-26T08:35:17Z</time>
      </trkpt>
      <trkpt lat="43.72307" lon="7.02341">
        <ele>980.4</ele>
        <time>2016-09-26T08:35:35Z</time>
      </trkpt>
      <trkpt lat="43.72318" lon="7.02323">
        <ele>967.1</ele>
        <time>2016-09-26T08:35:36Z</time>
      </trkpt>
      <trkpt lat="43.72318" lon="7.02323">
        <ele>985</ele>
        <time>2016-09-26T08:35:44Z</time>
      </trkpt>
      <trkpt lat="43.7232" lon="7.02308">
        <ele>967.7</ele>
        <time>2016-09-26T08:35:46Z</time>
      </trkpt>
      <trkpt lat="43.7232" lon="7.02308">
        <ele>984.6</ele>
        <time>2016-09-26T08:35:55Z</time>
      </trkpt>
      <trkpt lat="43.7232" lon="7.02308">
        <ele>984.6</ele>
        <time>2016-09-26T08:36:07Z</time>
      </trkpt>
      <trkpt lat="43.72327" lon="7.02279">
        <ele>971</ele>
        <time>2016-09-26T08:36:13Z</time>
      </trkpt>
      <trkpt lat="43.72331" lon="7.02274">
        <ele>971.7</ele>
        <time>2016-09-26T08:36:18Z</time>
      </trkpt>
      <trkpt lat="43.72332" lon="7.02269">
        <ele>972.4</ele>
        <time>2016-09-26T08:36:23Z</time>
      </trkpt>
      <trkpt lat="43.72332" lon="7.02268">
        <ele>972.5</ele>
        <time>2016-09-26T08:36:24Z</time>
      </trkpt>
      <trkpt lat="43.72332" lon="7.02265">
        <ele>974.7</ele>
        <time>2016-09-26T08:36:26Z</time>
      </trkpt>
      <trkpt lat="43.72332" lon="7.02265">
        <ele>988.9</ele>
        <time>2016-09-26T08:36:26Z</time>
      </trkpt>
      <trkpt lat="43.72332" lon="7.02265">
        <ele>988.9</ele>
        <time>2016-09-26T08:36:42Z</time>
      </trkpt>
      <trkpt lat="43.72334" lon="7.02241">
        <ele>973.4</ele>
        <time>2016-09-26T08:36:43Z</time>
      </trkpt>
      <trkpt lat="43.72334" lon="7.02241">
        <ele>992</ele>
        <time>2016-09-26T08:36:52Z</time>
      </trkpt>
      <trkpt lat="43.72334" lon="7.02236">
        <ele>977.6</ele>
        <time>2016-09-26T08:36:53Z</time>
      </trkpt>
      <trkpt lat="43.72334" lon="7.02236">
        <ele>992.1</ele>
        <time>2016-09-26T08:36:53Z</time>
      </trkpt>
      <trkpt lat="43.72334" lon="7.02236">
        <ele>992.1</ele>
        <time>2016-09-26T08:37:44Z</time>
      </trkpt>
      <trkpt lat="43.72348" lon="7.0222">
        <ele>978.8</ele>
        <time>2016-09-26T08:37:45Z</time>
      </trkpt>
      <trkpt lat="43.72348" lon="7.0222">
        <ele>996.6</ele>
        <time>2016-09-26T08:37:53Z</time>
      </trkpt>
      <trkpt lat="43.72356" lon="7.02207">
        <ele>979.1</ele>
        <time>2016-09-26T08:37:55Z</time>
      </trkpt>
      <trkpt lat="43.72356" lon="7.02207">
        <ele>998.8</ele>
        <time>2016-09-26T08:38:04Z</time>
      </trkpt>
      <trkpt lat="43.72358" lon="7.02187">
        <ele>979.7</ele>
        <time>2016-09-26T08:38:06Z</time>
      </trkpt>
      <trkpt lat="43.72358" lon="7.02187">
        <ele>999.2</ele>
        <time>2016-09-26T08:38:15Z</time>
      </trkpt>
      <trkpt lat="43.72358" lon="7.02166">
        <ele>980.5</ele>
        <time>2016-09-26T08:38:16Z</time>
      </trkpt>
      <trkpt lat="43.72352" lon="7.02147">
        <ele>981</ele>
        <time>2016-09-26T08:38:23Z</time>
      </trkpt>
      <trkpt lat="43.72354" lon="7.0214">
        <ele>982</ele>
        <time>2016-09-26T08:38:27Z</time>
      </trkpt>
      <trkpt lat="43.72356" lon="7.02134">
        <ele>983</ele>
        <time>2016-09-26T08:38:31Z</time>
      </trkpt>
      <trkpt lat="43.72355" lon="7.02128">
        <ele>983.2</ele>
        <time>2016-09-26T08:38:36Z</time>
      </trkpt>
      <trkpt lat="43.72357" lon="7.02115">
        <ele>983.3</ele>
        <time>2016-09-26T08:38:43Z</time>
      </trkpt>
      <trkpt lat="43.72357" lon="7.02102">
        <ele>983.3</ele>
        <time>2016-09-26T08:38:48Z</time>
      </trkpt>
      <trkpt lat="43.72358" lon="7.02095">
        <ele>983.3</ele>
        <time>2016-09-26T08:38:51Z</time>
      </trkpt>
      <trkpt lat="43.72361" lon="7.0209">
        <ele>983.4</ele>
        <time>2016-09-26T08:38:55Z</time>
      </trkpt>
      <trkpt lat="43.72361" lon="7.0209">
        <ele>990.6</ele>
        <time>2016-09-26T08:39:04Z</time>
      </trkpt>
      <trkpt lat="43.72366" lon="7.02078">
        <ele>983.7</ele>
        <time>2016-09-26T08:39:06Z</time>
      </trkpt>
      <trkpt lat="43.72366" lon="7.02071">
        <ele>983.7</ele>
        <time>2016-09-26T08:39:09Z</time>
      </trkpt>
      <trkpt lat="43.72367" lon="7.02061">
        <ele>983.7</ele>
        <time>2016-09-26T08:39:11Z</time>
      </trkpt>
      <trkpt lat="43.72367" lon="7.0205">
        <ele>983.8</ele>
        <time>2016-09-26T08:39:13Z</time>
      </trkpt>
      <trkpt lat="43.72367" lon="7.0204">
        <ele>983.8</ele>
        <time>2016-09-26T08:39:16Z</time>
      </trkpt>
      <trkpt lat="43.72363" lon="7.02019">
        <ele>984</ele>
        <time>2016-09-26T08:39:22Z</time>
      </trkpt>
      <trkpt lat="43.72362" lon="7.01999">
        <ele>984</ele>
        <time>2016-09-26T08:39:28Z</time>
      </trkpt>
      <trkpt lat="43.72358" lon="7.0198">
        <ele>983.8</ele>
        <time>2016-09-26T08:39:36Z</time>
      </trkpt>
      <trkpt lat="43.72355" lon="7.01966">
        <ele>983.7</ele>
        <time>2016-09-26T08:39:41Z</time>
      </trkpt>
      <trkpt lat="43.72353" lon="7.01959">
        <ele>983.7</ele>
        <time>2016-09-26T08:39:43Z</time>
      </trkpt>
      <trkpt lat="43.72349" lon="7.01952">
        <ele>983.7</ele>
        <time>2016-09-26T08:39:45Z</time>
      </trkpt>
      <trkpt lat="43.72346" lon="7.01947">
        <ele>983.7</ele>
        <time>2016-09-26T08:39:47Z</time>
      </trkpt>
      <trkpt lat="43.72343" lon="7.01942">
        <ele>983.7</ele>
        <time>2016-09-26T08:39:49Z</time>
      </trkpt>
      <trkpt lat="43.72341" lon="7.01934">
        <ele>983.7</ele>
        <time>2016-09-26T08:39:52Z</time>
      </trkpt>
      <trkpt lat="43.72337" lon="7.01922">
        <ele>983.2</ele>
        <time>2016-09-26T08:39:58Z</time>
      </trkpt>
      <trkpt lat="43.7233" lon="7.01906">
        <ele>980.7</ele>
        <time>2016-09-26T08:40:05Z</time>
      </trkpt>
      <trkpt lat="43.72329" lon="7.019">
        <ele>980.3</ele>
        <time>2016-09-26T08:40:07Z</time>
      </trkpt>
      <trkpt lat="43.72331" lon="7.01891">
        <ele>980.3</ele>
        <time>2016-09-26T08:40:10Z</time>
      </trkpt>
      <trkpt lat="43.72332" lon="7.01876">
        <ele>980.1</ele>
        <time>2016-09-26T08:40:15Z</time>
      </trkpt>
      <trkpt lat="43.72333" lon="7.0187">
        <ele>979.9</ele>
        <time>2016-09-26T08:40:19Z</time>
      </trkpt>
      <trkpt lat="43.72331" lon="7.0186">
        <ele>979.3</ele>
        <time>2016-09-26T08:40:24Z</time>
      </trkpt>
      <trkpt lat="43.72331" lon="7.01852">
        <ele>979.3</ele>
        <time>2016-09-26T08:40:27Z</time>
      </trkpt>
      <trkpt lat="43.72331" lon="7.01845">
        <ele>978.4</ele>
        <time>2016-09-26T08:40:31Z</time>
      </trkpt>
      <trkpt lat="43.72331" lon="7.01837">
        <ele>978.4</ele>
        <time>2016-09-26T08:40:35Z</time>
      </trkpt>
      <trkpt lat="43.72331" lon="7.01817">
        <ele>976.5</ele>
        <time>2016-09-26T08:40:43Z</time>
      </trkpt>
      <trkpt lat="43.72331" lon="7.01809">
        <ele>976</ele>
        <time>2016-09-26T08:40:46Z</time>
      </trkpt>
      <trkpt lat="43.72329" lon="7.01802">
        <ele>976</ele>
        <time>2016-09-26T08:40:50Z</time>
      </trkpt>
      <trkpt lat="43.7233" lon="7.01795">
        <ele>975.5</ele>
        <time>2016-09-26T08:40:54Z</time>
      </trkpt>
      <trkpt lat="43.7233" lon="7.01789">
        <ele>974.9</ele>
        <time>2016-09-26T08:40:57Z</time>
      </trkpt>
      <trkpt lat="43.72329" lon="7.01782">
        <ele>973.6</ele>
        <time>2016-09-26T08:41:02Z</time>
      </trkpt>
      <trkpt lat="43.72332" lon="7.01777">
        <ele>973.6</ele>
        <time>2016-09-26T08:41:06Z</time>
      </trkpt>
      <trkpt lat="43.72332" lon="7.01777">
        <ele>964.4</ele>
        <time>2016-09-26T08:41:14Z</time>
      </trkpt>
      <trkpt lat="43.72332" lon="7.0176">
        <ele>970.1</ele>
        <time>2016-09-26T08:41:15Z</time>
      </trkpt>
      <trkpt lat="43.72334" lon="7.01753">
        <ele>969.3</ele>
        <time>2016-09-26T08:41:20Z</time>
      </trkpt>
      <trkpt lat="43.72336" lon="7.01747">
        <ele>968.9</ele>
        <time>2016-09-26T08:41:25Z</time>
      </trkpt>
      <trkpt lat="43.72335" lon="7.01741">
        <ele>968.9</ele>
        <time>2016-09-26T08:41:28Z</time>
      </trkpt>
      <trkpt lat="43.72335" lon="7.01725">
        <ele>968.3</ele>
        <time>2016-09-26T08:41:33Z</time>
      </trkpt>
      <trkpt lat="43.72336" lon="7.01713">
        <ele>966.6</ele>
        <time>2016-09-26T08:41:38Z</time>
      </trkpt>
      <trkpt lat="43.7234" lon="7.01708">
        <ele>965.3</ele>
        <time>2016-09-26T08:41:41Z</time>
      </trkpt>
      <trkpt lat="43.72341" lon="7.01699">
        <ele>965.3</ele>
        <time>2016-09-26T08:41:44Z</time>
      </trkpt>
      <trkpt lat="43.72342" lon="7.01686">
        <ele>964.4</ele>
        <time>2016-09-26T08:41:49Z</time>
      </trkpt>
      <trkpt lat="43.72344" lon="7.01667">
        <ele>963.4</ele>
        <time>2016-09-26T08:41:56Z</time>
      </trkpt>
      <trkpt lat="43.72344" lon="7.0166">
        <ele>962.3</ele>
        <time>2016-09-26T08:41:58Z</time>
      </trkpt>
      <trkpt lat="43.72346" lon="7.01653">
        <ele>962.3</ele>
        <time>2016-09-26T08:42:01Z</time>
      </trkpt>
      <trkpt lat="43.72348" lon="7.01646">
        <ele>961.4</ele>
        <time>2016-09-26T08:42:05Z</time>
      </trkpt>
      <trkpt lat="43.72351" lon="7.0164">
        <ele>961.4</ele>
        <time>2016-09-26T08:42:08Z</time>
      </trkpt>
      <trkpt lat="43.72353" lon="7.01634">
        <ele>960.8</ele>
        <time>2016-09-26T08:42:11Z</time>
      </trkpt>
      <trkpt lat="43.72352" lon="7.01626">
        <ele>960.8</ele>
        <time>2016-09-26T08:42:15Z</time>
      </trkpt>
      <trkpt lat="43.72352" lon="7.01626">
        <ele>948.6</ele>
        <time>2016-09-26T08:42:24Z</time>
      </trkpt>
      <trkpt lat="43.72349" lon="7.01607">
        <ele>960.1</ele>
        <time>2016-09-26T08:42:25Z</time>
      </trkpt>
      <trkpt lat="43.72348" lon="7.01592">
        <ele>958.2</ele>
        <time>2016-09-26T08:42:30Z</time>
      </trkpt>
      <trkpt lat="43.72349" lon="7.01586">
        <ele>957</ele>
        <time>2016-09-26T08:42:32Z</time>
      </trkpt>
      <trkpt lat="43.72352" lon="7.0158">
        <ele>957</ele>
        <time>2016-09-26T08:42:34Z</time>
      </trkpt>
      <trkpt lat="43.72356" lon="7.0156">
        <ele>955.8</ele>
        <time>2016-09-26T08:42:39Z</time>
      </trkpt>
      <trkpt lat="43.72358" lon="7.01548">
        <ele>954.2</ele>
        <time>2016-09-26T08:42:44Z</time>
      </trkpt>
      <trkpt lat="43.72361" lon="7.01535">
        <ele>952.2</ele>
        <time>2016-09-26T08:42:51Z</time>
      </trkpt>
      <trkpt lat="43.72361" lon="7.01529">
        <ele>950.3</ele>
        <time>2016-09-26T08:42:53Z</time>
      </trkpt>
      <trkpt lat="43.72361" lon="7.01521">
        <ele>950.3</ele>
        <time>2016-09-26T08:42:56Z</time>
      </trkpt>
      <trkpt lat="43.72361" lon="7.01514">
        <ele>947.6</ele>
        <time>2016-09-26T08:43:00Z</time>
      </trkpt>
      <trkpt lat="43.72359" lon="7.01507">
        <ele>946.8</ele>
        <time>2016-09-26T08:43:04Z</time>
      </trkpt>
      <trkpt lat="43.72356" lon="7.01499">
        <ele>946.4</ele>
        <time>2016-09-26T08:43:07Z</time>
      </trkpt>
      <trkpt lat="43.72354" lon="7.01492">
        <ele>946.4</ele>
        <time>2016-09-26T08:43:09Z</time>
      </trkpt>
      <trkpt lat="43.72351" lon="7.01479">
        <ele>945.9</ele>
        <time>2016-09-26T08:43:13Z</time>
      </trkpt>
      <trkpt lat="43.72352" lon="7.01466">
        <ele>944.9</ele>
        <time>2016-09-26T08:43:20Z</time>
      </trkpt>
      <trkpt lat="43.72353" lon="7.0146">
        <ele>943.6</ele>
        <time>2016-09-26T08:43:24Z</time>
      </trkpt>
      <trkpt lat="43.72351" lon="7.01447">
        <ele>943</ele>
        <time>2016-09-26T08:43:29Z</time>
      </trkpt>
      <trkpt lat="43.72348" lon="7.01441">
        <ele>941.4</ele>
        <time>2016-09-26T08:43:32Z</time>
      </trkpt>
      <trkpt lat="43.72344" lon="7.01436">
        <ele>941.4</ele>
        <time>2016-09-26T08:43:34Z</time>
      </trkpt>
      <trkpt lat="43.72336" lon="7.01424">
        <ele>940.7</ele>
        <time>2016-09-26T08:43:39Z</time>
      </trkpt>
      <trkpt lat="43.72328" lon="7.01413">
        <ele>938.8</ele>
        <time>2016-09-26T08:43:43Z</time>
      </trkpt>
      <trkpt lat="43.72316" lon="7.01404">
        <ele>937.2</ele>
        <time>2016-09-26T08:43:50Z</time>
      </trkpt>
      <trkpt lat="43.7231" lon="7.01405">
        <ele>935.9</ele>
        <time>2016-09-26T08:43:54Z</time>
      </trkpt>
      <trkpt lat="43.72305" lon="7.01404">
        <ele>934.3</ele>
        <time>2016-09-26T08:44:00Z</time>
      </trkpt>
      <trkpt lat="43.723" lon="7.01403">
        <ele>933.1</ele>
        <time>2016-09-26T08:44:07Z</time>
      </trkpt>
      <trkpt lat="43.72294" lon="7.01405">
        <ele>930.7</ele>
        <time>2016-09-26T08:44:10Z</time>
      </trkpt>
      <trkpt lat="43.72285" lon="7.01404">
        <ele>929.3</ele>
        <time>2016-09-26T08:44:17Z</time>
      </trkpt>
      <trkpt lat="43.72285" lon="7.01404">
        <ele>913.7</ele>
        <time>2016-09-26T08:44:25Z</time>
      </trkpt>
      <trkpt lat="43.7227" lon="7.01412">
        <ele>925.3</ele>
        <time>2016-09-26T08:44:28Z</time>
      </trkpt>
      <trkpt lat="43.72265" lon="7.01414">
        <ele>924.6</ele>
        <time>2016-09-26T08:44:33Z</time>
      </trkpt>
      <trkpt lat="43.7226" lon="7.01415">
        <ele>923.7</ele>
        <time>2016-09-26T08:44:36Z</time>
      </trkpt>
      <trkpt lat="43.72255" lon="7.01418">
        <ele>923.7</ele>
        <time>2016-09-26T08:44:39Z</time>
      </trkpt>
      <trkpt lat="43.72251" lon="7.01423">
        <ele>921.6</ele>
        <time>2016-09-26T08:44:42Z</time>
      </trkpt>
      <trkpt lat="43.72246" lon="7.01429">
        <ele>921.6</ele>
        <time>2016-09-26T08:44:45Z</time>
      </trkpt>
      <trkpt lat="43.72237" lon="7.01445">
        <ele>920.3</ele>
        <time>2016-09-26T08:44:54Z</time>
      </trkpt>
      <trkpt lat="43.72237" lon="7.01445">
        <ele>908.8</ele>
        <time>2016-09-26T08:45:03Z</time>
      </trkpt>
      <trkpt lat="43.72225" lon="7.01467">
        <ele>917.7</ele>
        <time>2016-09-26T08:45:06Z</time>
      </trkpt>
      <trkpt lat="43.72221" lon="7.01469">
        <ele>917.2</ele>
        <time>2016-09-26T08:45:09Z</time>
      </trkpt>
      <trkpt lat="43.72218" lon="7.01463">
        <ele>916.6</ele>
        <time>2016-09-26T08:45:13Z</time>
      </trkpt>
      <trkpt lat="43.72219" lon="7.01453">
        <ele>915.1</ele>
        <time>2016-09-26T08:45:17Z</time>
      </trkpt>
      <trkpt lat="43.72219" lon="7.01442">
        <ele>915.1</ele>
        <time>2016-09-26T08:45:21Z</time>
      </trkpt>
      <trkpt lat="43.72218" lon="7.01433">
        <ele>913.8</ele>
        <time>2016-09-26T08:45:26Z</time>
      </trkpt>
      <trkpt lat="43.72216" lon="7.01424">
        <ele>913.8</ele>
        <time>2016-09-26T08:45:30Z</time>
      </trkpt>
      <trkpt lat="43.72213" lon="7.01411">
        <ele>913.1</ele>
        <time>2016-09-26T08:45:35Z</time>
      </trkpt>
      <trkpt lat="43.72212" lon="7.01397">
        <ele>911.6</ele>
        <time>2016-09-26T08:45:40Z</time>
      </trkpt>
      <trkpt lat="43.72212" lon="7.01397">
        <ele>900.4</ele>
        <time>2016-09-26T08:45:48Z</time>
      </trkpt>
      <trkpt lat="43.72212" lon="7.01372">
        <ele>909.4</ele>
        <time>2016-09-26T08:45:50Z</time>
      </trkpt>
      <trkpt lat="43.7221" lon="7.01365">
        <ele>909.4</ele>
        <time>2016-09-26T08:45:53Z</time>
      </trkpt>
      <trkpt lat="43.72209" lon="7.01359">
        <ele>907.8</ele>
        <time>2016-09-26T08:45:56Z</time>
      </trkpt>
      <trkpt lat="43.7221" lon="7.01348">
        <ele>906</ele>
        <time>2016-09-26T08:46:00Z</time>
      </trkpt>
      <trkpt lat="43.72211" lon="7.01338">
        <ele>906</ele>
        <time>2016-09-26T08:46:04Z</time>
      </trkpt>
      <trkpt lat="43.72212" lon="7.01323">
        <ele>904.5</ele>
        <time>2016-09-26T08:46:10Z</time>
      </trkpt>
      <trkpt lat="43.72213" lon="7.01311">
        <ele>904</ele>
        <time>2016-09-26T08:46:15Z</time>
      </trkpt>
      <trkpt lat="43.72213" lon="7.01311">
        <ele>892.9</ele>
        <time>2016-09-26T08:46:24Z</time>
      </trkpt>
      <trkpt lat="43.72219" lon="7.01293">
        <ele>902.5</ele>
        <time>2016-09-26T08:46:25Z</time>
      </trkpt>
      <trkpt lat="43.7222" lon="7.0128">
        <ele>901.7</ele>
        <time>2016-09-26T08:46:30Z</time>
      </trkpt>
      <trkpt lat="43.72223" lon="7.0127">
        <ele>899.6</ele>
        <time>2016-09-26T08:46:35Z</time>
      </trkpt>
      <trkpt lat="43.72224" lon="7.01263">
        <ele>899.6</ele>
        <time>2016-09-26T08:46:38Z</time>
      </trkpt>
      <trkpt lat="43.72225" lon="7.0125">
        <ele>898.9</ele>
        <time>2016-09-26T08:46:44Z</time>
      </trkpt>
      <trkpt lat="43.72225" lon="7.01244">
        <ele>896.9</ele>
        <time>2016-09-26T08:46:47Z</time>
      </trkpt>
      <trkpt lat="43.72226" lon="7.0124">
        <ele>896.6</ele>
        <time>2016-09-26T08:46:49Z</time>
      </trkpt>
      <trkpt lat="43.72226" lon="7.0124">
        <ele>891.2</ele>
        <time>2016-09-26T08:46:53Z</time>
      </trkpt>
      <trkpt lat="43.72226" lon="7.0124">
        <ele>888.2</ele>
        <time>2016-09-26T08:46:53Z</time>
      </trkpt>
      <trkpt lat="43.72226" lon="7.0124">
        <ele>888.2</ele>
        <time>2016-09-26T08:47:01Z</time>
      </trkpt>
      <trkpt lat="43.72226" lon="7.01221">
        <ele>895.6</ele>
        <time>2016-09-26T08:47:03Z</time>
      </trkpt>
      <trkpt lat="43.72226" lon="7.01221">
        <ele>886.6</ele>
        <time>2016-09-26T08:47:11Z</time>
      </trkpt>
      <trkpt lat="43.72229" lon="7.01202">
        <ele>892.4</ele>
        <time>2016-09-26T08:47:13Z</time>
      </trkpt>
      <trkpt lat="43.72228" lon="7.012">
        <ele>891.5</ele>
        <time>2016-09-26T08:47:14Z</time>
      </trkpt>
      <trkpt lat="43.72228" lon="7.01199">
        <ele>886</ele>
        <time>2016-09-26T08:47:19Z</time>
      </trkpt>
      <trkpt lat="43.72228" lon="7.01199">
        <ele>883.2</ele>
        <time>2016-09-26T08:47:19Z</time>
      </trkpt>
      <trkpt lat="43.72228" lon="7.01199">
        <ele>883.2</ele>
        <time>2016-09-26T08:48:29Z</time>
      </trkpt>
      <trkpt lat="43.72219" lon="7.01209">
        <ele>886.4</ele>
        <time>2016-09-26T08:48:30Z</time>
      </trkpt>
      <trkpt lat="43.72215" lon="7.01211">
        <ele>886.4</ele>
        <time>2016-09-26T08:48:33Z</time>
      </trkpt>
      <trkpt lat="43.72205" lon="7.01212">
        <ele>886.4</ele>
        <time>2016-09-26T08:48:41Z</time>
      </trkpt>
      <trkpt lat="43.72201" lon="7.01213">
        <ele>886.5</ele>
        <time>2016-09-26T08:48:45Z</time>
      </trkpt>
      <trkpt lat="43.72201" lon="7.01212">
        <ele>887.5</ele>
        <time>2016-09-26T08:48:49Z</time>
      </trkpt>
      <trkpt lat="43.72201" lon="7.01212">
        <ele>886.9</ele>
        <time>2016-09-26T08:48:49Z</time>
      </trkpt>
      <trkpt lat="43.72201" lon="7.01212">
        <ele>886.9</ele>
        <time>2016-09-26T08:49:28Z</time>
      </trkpt>
      <trkpt lat="43.72197" lon="7.01189">
        <ele>886.7</ele>
        <time>2016-09-26T08:49:29Z</time>
      </trkpt>
      <trkpt lat="43.72197" lon="7.01189">
        <ele>884.2</ele>
        <time>2016-09-26T08:49:37Z</time>
      </trkpt>
      <trkpt lat="43.72196" lon="7.01183">
        <ele>886.6</ele>
        <time>2016-09-26T08:49:40Z</time>
      </trkpt>
      <trkpt lat="43.72198" lon="7.01183">
        <ele>882.5</ele>
        <time>2016-09-26T08:49:44Z</time>
      </trkpt>
      <trkpt lat="43.72198" lon="7.01183">
        <ele>882.7</ele>
        <time>2016-09-26T08:49:44Z</time>
      </trkpt>
      <trkpt lat="43.72198" lon="7.01183">
        <ele>882.7</ele>
        <time>2016-09-26T08:55:25Z</time>
      </trkpt>
      <trkpt lat="43.72187" lon="7.01187">
        <ele>885.7</ele>
        <time>2016-09-26T08:55:25Z</time>
      </trkpt>
      <trkpt lat="43.72185" lon="7.01192">
        <ele>885.7</ele>
        <time>2016-09-26T08:55:28Z</time>
      </trkpt>
      <trkpt lat="43.72183" lon="7.01192">
        <ele>886.3</ele>
        <time>2016-09-26T08:55:33Z</time>
      </trkpt>
      <trkpt lat="43.72183" lon="7.01192">
        <ele>886.4</ele>
        <time>2016-09-26T08:55:33Z</time>
      </trkpt>
      <trkpt lat="43.72183" lon="7.01192">
        <ele>886.4</ele>
        <time>2016-09-26T08:56:33Z</time>
      </trkpt>
      <trkpt lat="43.72194" lon="7.0118">
        <ele>885.4</ele>
        <time>2016-09-26T08:56:38Z</time>
      </trkpt>
      <trkpt lat="43.72194" lon="7.01179">
        <ele>885.4</ele>
        <time>2016-09-26T08:56:39Z</time>
      </trkpt>
      <trkpt lat="43.72194" lon="7.01179">
        <ele>882.2</ele>
        <time>2016-09-26T08:56:40Z</time>
      </trkpt>
      <trkpt lat="43.72194" lon="7.01179">
        <ele>882.2</ele>
        <time>2016-09-26T09:03:04Z</time>
      </trkpt>
      <trkpt lat="43.72188" lon="7.01194">
        <ele>882.7</ele>
        <time>2016-09-26T09:03:05Z</time>
      </trkpt>
      <trkpt lat="43.72192" lon="7.01199">
        <ele>882.7</ele>
        <time>2016-09-26T09:03:12Z</time>
      </trkpt>
      <trkpt lat="43.72194" lon="7.01204">
        <ele>883.2</ele>
        <time>2016-09-26T09:03:17Z</time>
      </trkpt>
      <trkpt lat="43.7219" lon="7.0121">
        <ele>884.3</ele>
        <time>2016-09-26T09:03:20Z</time>
      </trkpt>
      <trkpt lat="43.72184" lon="7.0121">
        <ele>884.7</ele>
        <time>2016-09-26T09:03:24Z</time>
      </trkpt>
      <trkpt lat="43.72184" lon="7.0121">
        <ele>887.6</ele>
        <time>2016-09-26T09:03:33Z</time>
      </trkpt>
      <trkpt lat="43.72161" lon="7.01217">
        <ele>885.1</ele>
        <time>2016-09-26T09:03:42Z</time>
      </trkpt>
      <trkpt lat="43.72156" lon="7.01219">
        <ele>885.2</ele>
        <time>2016-09-26T09:03:46Z</time>
      </trkpt>
      <trkpt lat="43.72151" lon="7.01219">
        <ele>885.3</ele>
        <time>2016-09-26T09:03:50Z</time>
      </trkpt>
      <trkpt lat="43.72141" lon="7.01221">
        <ele>885.4</ele>
        <time>2016-09-26T09:03:57Z</time>
      </trkpt>
      <trkpt lat="43.72137" lon="7.01221">
        <ele>885.4</ele>
        <time>2016-09-26T09:04:00Z</time>
      </trkpt>
      <trkpt lat="43.72127" lon="7.01218">
        <ele>885.6</ele>
        <time>2016-09-26T09:04:07Z</time>
      </trkpt>
      <trkpt lat="43.72122" lon="7.01214">
        <ele>885.6</ele>
        <time>2016-09-26T09:04:11Z</time>
      </trkpt>
      <trkpt lat="43.72118" lon="7.01209">
        <ele>885.6</ele>
        <time>2016-09-26T09:04:15Z</time>
      </trkpt>
      <trkpt lat="43.72113" lon="7.01204">
        <ele>885.6</ele>
        <time>2016-09-26T09:04:19Z</time>
      </trkpt>
      <trkpt lat="43.72109" lon="7.012">
        <ele>885.6</ele>
        <time>2016-09-26T09:04:24Z</time>
      </trkpt>
      <trkpt lat="43.72105" lon="7.01196">
        <ele>885.5</ele>
        <time>2016-09-26T09:04:28Z</time>
      </trkpt>
      <trkpt lat="43.721" lon="7.01193">
        <ele>885.5</ele>
        <time>2016-09-26T09:04:31Z</time>
      </trkpt>
      <trkpt lat="43.72092" lon="7.01186">
        <ele>885.5</ele>
        <time>2016-09-26T09:04:36Z</time>
      </trkpt>
      <trkpt lat="43.72085" lon="7.01176">
        <ele>885.5</ele>
        <time>2016-09-26T09:04:42Z</time>
      </trkpt>
      <trkpt lat="43.72082" lon="7.01171">
        <ele>885.1</ele>
        <time>2016-09-26T09:04:46Z</time>
      </trkpt>
      <trkpt lat="43.72075" lon="7.01162">
        <ele>884</ele>
        <time>2016-09-26T09:04:52Z</time>
      </trkpt>
      <trkpt lat="43.72069" lon="7.01152">
        <ele>883.1</ele>
        <time>2016-09-26T09:04:58Z</time>
      </trkpt>
      <trkpt lat="43.72066" lon="7.01145">
        <ele>882.7</ele>
        <time>2016-09-26T09:05:02Z</time>
      </trkpt>
      <trkpt lat="43.72061" lon="7.01133">
        <ele>882.6</ele>
        <time>2016-09-26T09:05:09Z</time>
      </trkpt>
      <trkpt lat="43.72061" lon="7.01133">
        <ele>875.8</ele>
        <time>2016-09-26T09:05:17Z</time>
      </trkpt>
      <trkpt lat="43.72058" lon="7.01115">
        <ele>881.4</ele>
        <time>2016-09-26T09:05:18Z</time>
      </trkpt>
      <trkpt lat="43.72055" lon="7.01106">
        <ele>880.9</ele>
        <time>2016-09-26T09:05:22Z</time>
      </trkpt>
      <trkpt lat="43.72055" lon="7.01106">
        <ele>873.8</ele>
        <time>2016-09-26T09:05:32Z</time>
      </trkpt>
      <trkpt lat="43.7204" lon="7.01092">
        <ele>878.6</ele>
        <time>2016-09-26T09:05:34Z</time>
      </trkpt>
      <trkpt lat="43.72034" lon="7.01091">
        <ele>878.2</ele>
        <time>2016-09-26T09:05:38Z</time>
      </trkpt>
      <trkpt lat="43.7203" lon="7.0109">
        <ele>878.2</ele>
        <time>2016-09-26T09:05:42Z</time>
      </trkpt>
      <trkpt lat="43.72022" lon="7.01088">
        <ele>877.3</ele>
        <time>2016-09-26T09:05:48Z</time>
      </trkpt>
      <trkpt lat="43.72019" lon="7.01093">
        <ele>877.1</ele>
        <time>2016-09-26T09:05:52Z</time>
      </trkpt>
      <trkpt lat="43.72017" lon="7.01108">
        <ele>876.2</ele>
        <time>2016-09-26T09:06:00Z</time>
      </trkpt>
      <trkpt lat="43.72017" lon="7.01108">
        <ele>873.3</ele>
        <time>2016-09-26T09:06:10Z</time>
      </trkpt>
      <trkpt lat="43.7201" lon="7.01127">
        <ele>875.5</ele>
        <time>2016-09-26T09:06:11Z</time>
      </trkpt>
      <trkpt lat="43.7201" lon="7.01127">
        <ele>873.5</ele>
        <time>2016-09-26T09:06:20Z</time>
      </trkpt>
      <trkpt lat="43.72007" lon="7.01151">
        <ele>874.8</ele>
        <time>2016-09-26T09:06:24Z</time>
      </trkpt>
      <trkpt lat="43.72005" lon="7.01157">
        <ele>874.8</ele>
        <time>2016-09-26T09:06:27Z</time>
      </trkpt>
      <trkpt lat="43.72005" lon="7.01157">
        <ele>873</ele>
        <time>2016-09-26T09:06:38Z</time>
      </trkpt>
      <trkpt lat="43.72" lon="7.01184">
        <ele>871.8</ele>
        <time>2016-09-26T09:06:40Z</time>
      </trkpt>
      <trkpt lat="43.71995" lon="7.01196">
        <ele>871</ele>
        <time>2016-09-26T09:06:46Z</time>
      </trkpt>
      <trkpt lat="43.71991" lon="7.01204">
        <ele>870.5</ele>
        <time>2016-09-26T09:06:50Z</time>
      </trkpt>
      <trkpt lat="43.71988" lon="7.01209">
        <ele>870.3</ele>
        <time>2016-09-26T09:06:56Z</time>
      </trkpt>
      <trkpt lat="43.71985" lon="7.01214">
        <ele>870.2</ele>
        <time>2016-09-26T09:06:59Z</time>
      </trkpt>
      <trkpt lat="43.71983" lon="7.01221">
        <ele>870.2</ele>
        <time>2016-09-26T09:07:02Z</time>
      </trkpt>
      <trkpt lat="43.7198" lon="7.01227">
        <ele>869.9</ele>
        <time>2016-09-26T09:07:06Z</time>
      </trkpt>
      <trkpt lat="43.71979" lon="7.01234">
        <ele>869.9</ele>
        <time>2016-09-26T09:07:09Z</time>
      </trkpt>
      <trkpt lat="43.71975" lon="7.01246">
        <ele>869.8</ele>
        <time>2016-09-26T09:07:14Z</time>
      </trkpt>
      <trkpt lat="43.71973" lon="7.01253">
        <ele>869.7</ele>
        <time>2016-09-26T09:07:17Z</time>
      </trkpt>
      <trkpt lat="43.71971" lon="7.0126">
        <ele>869.2</ele>
        <time>2016-09-26T09:07:20Z</time>
      </trkpt>
      <trkpt lat="43.71969" lon="7.01267">
        <ele>869.2</ele>
        <time>2016-09-26T09:07:23Z</time>
      </trkpt>
      <trkpt lat="43.71968" lon="7.01283">
        <ele>868.5</ele>
        <time>2016-09-26T09:07:29Z</time>
      </trkpt>
      <trkpt lat="43.71971" lon="7.01301">
        <ele>867.4</ele>
        <time>2016-09-26T09:07:37Z</time>
      </trkpt>
      <trkpt lat="43.71971" lon="7.01301">
        <ele>867.3</ele>
        <time>2016-09-26T09:07:46Z</time>
      </trkpt>
      <trkpt lat="43.71976" lon="7.01329">
        <ele>866.1</ele>
        <time>2016-09-26T09:07:50Z</time>
      </trkpt>
      <trkpt lat="43.7198" lon="7.01344">
        <ele>865.9</ele>
        <time>2016-09-26T09:07:57Z</time>
      </trkpt>
      <trkpt lat="43.71982" lon="7.01352">
        <ele>865.8</ele>
        <time>2016-09-26T09:08:01Z</time>
      </trkpt>
      <trkpt lat="43.71983" lon="7.01359">
        <ele>865.8</ele>
        <time>2016-09-26T09:08:04Z</time>
      </trkpt>
      <trkpt lat="43.71986" lon="7.01378">
        <ele>865.7</ele>
        <time>2016-09-26T09:08:12Z</time>
      </trkpt>
      <trkpt lat="43.71988" lon="7.01389">
        <ele>865.7</ele>
        <time>2016-09-26T09:08:17Z</time>
      </trkpt>
      <trkpt lat="43.71988" lon="7.01397">
        <ele>865.7</ele>
        <time>2016-09-26T09:08:20Z</time>
      </trkpt>
      <trkpt lat="43.71987" lon="7.01404">
        <ele>865.7</ele>
        <time>2016-09-26T09:08:23Z</time>
      </trkpt>
      <trkpt lat="43.71986" lon="7.01411">
        <ele>865.7</ele>
        <time>2016-09-26T09:08:26Z</time>
      </trkpt>
      <trkpt lat="43.71986" lon="7.01411">
        <ele>863.5</ele>
        <time>2016-09-26T09:08:35Z</time>
      </trkpt>
      <trkpt lat="43.71986" lon="7.01411">
        <ele>863.5</ele>
        <time>2016-09-26T09:08:44Z</time>
      </trkpt>
      <trkpt lat="43.71976" lon="7.01455">
        <ele>865.5</ele>
        <time>2016-09-26T09:08:47Z</time>
      </trkpt>
      <trkpt lat="43.71971" lon="7.01467">
        <ele>865.5</ele>
        <time>2016-09-26T09:08:52Z</time>
      </trkpt>
      <trkpt lat="43.71966" lon="7.01477">
        <ele>865.5</ele>
        <time>2016-09-26T09:08:57Z</time>
      </trkpt>
      <trkpt lat="43.71965" lon="7.01485">
        <ele>865.1</ele>
        <time>2016-09-26T09:09:01Z</time>
      </trkpt>
      <trkpt lat="43.71963" lon="7.01491">
        <ele>865.1</ele>
        <time>2016-09-26T09:09:04Z</time>
      </trkpt>
      <trkpt lat="43.71958" lon="7.01504">
        <ele>864.6</ele>
        <time>2016-09-26T09:09:11Z</time>
      </trkpt>
      <trkpt lat="43.71954" lon="7.01508">
        <ele>864.1</ele>
        <time>2016-09-26T09:09:15Z</time>
      </trkpt>
      <trkpt lat="43.7194" lon="7.01512">
        <ele>863.7</ele>
        <time>2016-09-26T09:09:24Z</time>
      </trkpt>
      <trkpt lat="43.71932" lon="7.01516">
        <ele>863.4</ele>
        <time>2016-09-26T09:09:31Z</time>
      </trkpt>
      <trkpt lat="43.71925" lon="7.0152">
        <ele>862.6</ele>
        <time>2016-09-26T09:09:35Z</time>
      </trkpt>
      <trkpt lat="43.71922" lon="7.01524">
        <ele>862.6</ele>
        <time>2016-09-26T09:09:38Z</time>
      </trkpt>
      <trkpt lat="43.7192" lon="7.01532">
        <ele>862.3</ele>
        <time>2016-09-26T09:09:41Z</time>
      </trkpt>
      <trkpt lat="43.71921" lon="7.0154">
        <ele>862.3</ele>
        <time>2016-09-26T09:09:44Z</time>
      </trkpt>
      <trkpt lat="43.71923" lon="7.01546">
        <ele>861.8</ele>
        <time>2016-09-26T09:09:48Z</time>
      </trkpt>
      <trkpt lat="43.71924" lon="7.01554">
        <ele>861.8</ele>
        <time>2016-09-26T09:09:51Z</time>
      </trkpt>
      <trkpt lat="43.71926" lon="7.01567">
        <ele>861.3</ele>
        <time>2016-09-26T09:09:58Z</time>
      </trkpt>
      <trkpt lat="43.71927" lon="7.01582">
        <ele>861</ele>
        <time>2016-09-26T09:10:04Z</time>
      </trkpt>
      <trkpt lat="43.71927" lon="7.01597">
        <ele>860.8</ele>
        <time>2016-09-26T09:10:10Z</time>
      </trkpt>
      <trkpt lat="43.71929" lon="7.01606">
        <ele>860.4</ele>
        <time>2016-09-26T09:10:14Z</time>
      </trkpt>
      <trkpt lat="43.71929" lon="7.01614">
        <ele>860.4</ele>
        <time>2016-09-26T09:10:17Z</time>
      </trkpt>
      <trkpt lat="43.71929" lon="7.01622">
        <ele>859.9</ele>
        <time>2016-09-26T09:10:20Z</time>
      </trkpt>
      <trkpt lat="43.71929" lon="7.0163">
        <ele>859.9</ele>
        <time>2016-09-26T09:10:23Z</time>
      </trkpt>
      <trkpt lat="43.71929" lon="7.0163">
        <ele>852.5</ele>
        <time>2016-09-26T09:10:31Z</time>
      </trkpt>
      <trkpt lat="43.71928" lon="7.01656">
        <ele>858.8</ele>
        <time>2016-09-26T09:10:34Z</time>
      </trkpt>
      <trkpt lat="43.71923" lon="7.01668">
        <ele>858</ele>
        <time>2016-09-26T09:10:39Z</time>
      </trkpt>
      <trkpt lat="43.71918" lon="7.0167">
        <ele>856.6</ele>
        <time>2016-09-26T09:10:41Z</time>
      </trkpt>
      <trkpt lat="43.71911" lon="7.01668">
        <ele>856.6</ele>
        <time>2016-09-26T09:10:44Z</time>
      </trkpt>
      <trkpt lat="43.71907" lon="7.01672">
        <ele>855.8</ele>
        <time>2016-09-26T09:10:49Z</time>
      </trkpt>
      <trkpt lat="43.71905" lon="7.01679">
        <ele>855.1</ele>
        <time>2016-09-26T09:10:53Z</time>
      </trkpt>
      <trkpt lat="43.71905" lon="7.01693">
        <ele>854</ele>
        <time>2016-09-26T09:11:01Z</time>
      </trkpt>
      <trkpt lat="43.71905" lon="7.01693">
        <ele>844.6</ele>
        <time>2016-09-26T09:11:09Z</time>
      </trkpt>
      <trkpt lat="43.71908" lon="7.01712">
        <ele>853</ele>
        <time>2016-09-26T09:11:10Z</time>
      </trkpt>
      <trkpt lat="43.71908" lon="7.01712">
        <ele>844</ele>
        <time>2016-09-26T09:11:18Z</time>
      </trkpt>
      <trkpt lat="43.71915" lon="7.01736">
        <ele>850.5</ele>
        <time>2016-09-26T09:11:21Z</time>
      </trkpt>
      <trkpt lat="43.71918" lon="7.01741">
        <ele>850.5</ele>
        <time>2016-09-26T09:11:24Z</time>
      </trkpt>
      <trkpt lat="43.71918" lon="7.01741">
        <ele>843.9</ele>
        <time>2016-09-26T09:11:32Z</time>
      </trkpt>
      <trkpt lat="43.71926" lon="7.01749">
        <ele>844</ele>
        <time>2016-09-26T09:11:36Z</time>
      </trkpt>
      <trkpt lat="43.71926" lon="7.01749">
        <ele>844.7</ele>
        <time>2016-09-26T09:11:36Z</time>
      </trkpt>
      <trkpt lat="43.71926" lon="7.01749">
        <ele>844.7</ele>
        <time>2016-09-26T09:11:55Z</time>
      </trkpt>
      <trkpt lat="43.71927" lon="7.01763">
        <ele>846.3</ele>
        <time>2016-09-26T09:11:56Z</time>
      </trkpt>
      <trkpt lat="43.71924" lon="7.0177">
        <ele>846</ele>
        <time>2016-09-26T09:12:00Z</time>
      </trkpt>
      <trkpt lat="43.7192" lon="7.01775">
        <ele>845.5</ele>
        <time>2016-09-26T09:12:04Z</time>
      </trkpt>
      <trkpt lat="43.71917" lon="7.01781">
        <ele>844.7</ele>
        <time>2016-09-26T09:12:09Z</time>
      </trkpt>
      <trkpt lat="43.71915" lon="7.01791">
        <ele>844.5</ele>
        <time>2016-09-26T09:12:14Z</time>
      </trkpt>
      <trkpt lat="43.7191" lon="7.01802">
        <ele>844.1</ele>
        <time>2016-09-26T09:12:20Z</time>
      </trkpt>
      <trkpt lat="43.71908" lon="7.0181">
        <ele>843.9</ele>
        <time>2016-09-26T09:12:24Z</time>
      </trkpt>
      <trkpt lat="43.71905" lon="7.01815">
        <ele>843.6</ele>
        <time>2016-09-26T09:12:29Z</time>
      </trkpt>
      <trkpt lat="43.719" lon="7.01819">
        <ele>842.6</ele>
        <time>2016-09-26T09:12:34Z</time>
      </trkpt>
      <trkpt lat="43.71896" lon="7.01818">
        <ele>841.9</ele>
        <time>2016-09-26T09:12:39Z</time>
      </trkpt>
      <trkpt lat="43.71884" lon="7.01827">
        <ele>839.8</ele>
        <time>2016-09-26T09:12:50Z</time>
      </trkpt>
      <trkpt lat="43.71874" lon="7.01833">
        <ele>839.3</ele>
        <time>2016-09-26T09:12:56Z</time>
      </trkpt>
      <trkpt lat="43.71874" lon="7.01833">
        <ele>837.4</ele>
        <time>2016-09-26T09:13:06Z</time>
      </trkpt>
      <trkpt lat="43.71863" lon="7.01844">
        <ele>839.1</ele>
        <time>2016-09-26T09:13:07Z</time>
      </trkpt>
      <trkpt lat="43.71859" lon="7.01847">
        <ele>839</ele>
        <time>2016-09-26T09:13:11Z</time>
      </trkpt>
      <trkpt lat="43.71858" lon="7.01853">
        <ele>838.7</ele>
        <time>2016-09-26T09:13:17Z</time>
      </trkpt>
      <trkpt lat="43.71856" lon="7.01859">
        <ele>838.7</ele>
        <time>2016-09-26T09:13:20Z</time>
      </trkpt>
      <trkpt lat="43.71853" lon="7.01865">
        <ele>838.6</ele>
        <time>2016-09-26T09:13:22Z</time>
      </trkpt>
      <trkpt lat="43.7185" lon="7.01871">
        <ele>838.6</ele>
        <time>2016-09-26T09:13:25Z</time>
      </trkpt>
      <trkpt lat="43.71848" lon="7.01878">
        <ele>838.4</ele>
        <time>2016-09-26T09:13:28Z</time>
      </trkpt>
      <trkpt lat="43.71845" lon="7.0189">
        <ele>837.8</ele>
        <time>2016-09-26T09:13:38Z</time>
      </trkpt>
      <trkpt lat="43.71844" lon="7.01897">
        <ele>837.6</ele>
        <time>2016-09-26T09:13:43Z</time>
      </trkpt>
      <trkpt lat="43.71842" lon="7.01903">
        <ele>837.6</ele>
        <time>2016-09-26T09:13:46Z</time>
      </trkpt>
      <trkpt lat="43.71838" lon="7.01915">
        <ele>837.4</ele>
        <time>2016-09-26T09:13:52Z</time>
      </trkpt>
      <trkpt lat="43.71838" lon="7.01915">
        <ele>836.6</ele>
        <time>2016-09-26T09:14:00Z</time>
      </trkpt>
      <trkpt lat="43.71836" lon="7.01934">
        <ele>836.9</ele>
        <time>2016-09-26T09:14:01Z</time>
      </trkpt>
      <trkpt lat="43.71836" lon="7.01934">
        <ele>837.1</ele>
        <time>2016-09-26T09:14:09Z</time>
      </trkpt>
      <trkpt lat="43.7183" lon="7.0195">
        <ele>836</ele>
        <time>2016-09-26T09:14:12Z</time>
      </trkpt>
      <trkpt lat="43.71831" lon="7.01956">
        <ele>835.9</ele>
        <time>2016-09-26T09:14:15Z</time>
      </trkpt>
      <trkpt lat="43.71828" lon="7.01963">
        <ele>835.9</ele>
        <time>2016-09-26T09:14:19Z</time>
      </trkpt>
      <trkpt lat="43.71828" lon="7.01963">
        <ele>837.5</ele>
        <time>2016-09-26T09:14:27Z</time>
      </trkpt>
      <trkpt lat="43.71822" lon="7.0198">
        <ele>835.9</ele>
        <time>2016-09-26T09:14:29Z</time>
      </trkpt>
      <trkpt lat="43.71822" lon="7.0198">
        <ele>837.3</ele>
        <time>2016-09-26T09:14:37Z</time>
      </trkpt>
      <trkpt lat="43.71817" lon="7.01993">
        <ele>835.8</ele>
        <time>2016-09-26T09:14:38Z</time>
      </trkpt>
      <trkpt lat="43.71814" lon="7.02007">
        <ele>835.6</ele>
        <time>2016-09-26T09:14:46Z</time>
      </trkpt>
      <trkpt lat="43.71814" lon="7.02007">
        <ele>837.2</ele>
        <time>2016-09-26T09:14:54Z</time>
      </trkpt>
      <trkpt lat="43.71812" lon="7.02022">
        <ele>835.8</ele>
        <time>2016-09-26T09:14:57Z</time>
      </trkpt>
      <trkpt lat="43.71812" lon="7.02029">
        <ele>836.1</ele>
        <time>2016-09-26T09:15:02Z</time>
      </trkpt>
      <trkpt lat="43.71812" lon="7.02029">
        <ele>838.5</ele>
        <time>2016-09-26T09:15:12Z</time>
      </trkpt>
      <trkpt lat="43.71809" lon="7.02048">
        <ele>836.3</ele>
        <time>2016-09-26T09:15:13Z</time>
      </trkpt>
      <trkpt lat="43.71808" lon="7.02055">
        <ele>836.5</ele>
        <time>2016-09-26T09:15:16Z</time>
      </trkpt>
      <trkpt lat="43.71808" lon="7.02055">
        <ele>840.4</ele>
        <time>2016-09-26T09:15:26Z</time>
      </trkpt>
      <trkpt lat="43.71805" lon="7.02072">
        <ele>837.1</ele>
        <time>2016-09-26T09:15:28Z</time>
      </trkpt>
      <trkpt lat="43.718" lon="7.02084">
        <ele>837.9</ele>
        <time>2016-09-26T09:15:35Z</time>
      </trkpt>
      <trkpt lat="43.71799" lon="7.02092">
        <ele>838.1</ele>
        <time>2016-09-26T09:15:38Z</time>
      </trkpt>
      <trkpt lat="43.718" lon="7.02099">
        <ele>838.1</ele>
        <time>2016-09-26T09:15:41Z</time>
      </trkpt>
      <trkpt lat="43.718" lon="7.02099">
        <ele>841.8</ele>
        <time>2016-09-26T09:15:49Z</time>
      </trkpt>
      <trkpt lat="43.71802" lon="7.02124">
        <ele>838.4</ele>
        <time>2016-09-26T09:15:52Z</time>
      </trkpt>
      <trkpt lat="43.71802" lon="7.02131">
        <ele>838.6</ele>
        <time>2016-09-26T09:15:55Z</time>
      </trkpt>
      <trkpt lat="43.71803" lon="7.02139">
        <ele>838.6</ele>
        <time>2016-09-26T09:15:58Z</time>
      </trkpt>
      <trkpt lat="43.71803" lon="7.02147">
        <ele>838.7</ele>
        <time>2016-09-26T09:16:02Z</time>
      </trkpt>
      <trkpt lat="43.71804" lon="7.0216">
        <ele>838.7</ele>
        <time>2016-09-26T09:16:08Z</time>
      </trkpt>
      <trkpt lat="43.71803" lon="7.02174">
        <ele>838.8</ele>
        <time>2016-09-26T09:16:14Z</time>
      </trkpt>
      <trkpt lat="43.71803" lon="7.02189">
        <ele>839.6</ele>
        <time>2016-09-26T09:16:21Z</time>
      </trkpt>
      <trkpt lat="43.71803" lon="7.02189">
        <ele>842.7</ele>
        <time>2016-09-26T09:16:29Z</time>
      </trkpt>
      <trkpt lat="43.71803" lon="7.02208">
        <ele>840.4</ele>
        <time>2016-09-26T09:16:32Z</time>
      </trkpt>
      <trkpt lat="43.71803" lon="7.02216">
        <ele>840.6</ele>
        <time>2016-09-26T09:16:36Z</time>
      </trkpt>
      <trkpt lat="43.71806" lon="7.02227">
        <ele>840.8</ele>
        <time>2016-09-26T09:16:42Z</time>
      </trkpt>
      <trkpt lat="43.71806" lon="7.02235">
        <ele>840.8</ele>
        <time>2016-09-26T09:16:46Z</time>
      </trkpt>
      <trkpt lat="43.71805" lon="7.02242">
        <ele>841</ele>
        <time>2016-09-26T09:16:50Z</time>
      </trkpt>
      <trkpt lat="43.71804" lon="7.02249">
        <ele>841</ele>
        <time>2016-09-26T09:16:53Z</time>
      </trkpt>
      <trkpt lat="43.71804" lon="7.02256">
        <ele>841</ele>
        <time>2016-09-26T09:16:56Z</time>
      </trkpt>
      <trkpt lat="43.71804" lon="7.02262">
        <ele>841</ele>
        <time>2016-09-26T09:16:59Z</time>
      </trkpt>
      <trkpt lat="43.71803" lon="7.02271">
        <ele>840.7</ele>
        <time>2016-09-26T09:17:03Z</time>
      </trkpt>
      <trkpt lat="43.71803" lon="7.02278">
        <ele>840.7</ele>
        <time>2016-09-26T09:17:06Z</time>
      </trkpt>
      <trkpt lat="43.71804" lon="7.02298">
        <ele>840.7</ele>
        <time>2016-09-26T09:17:15Z</time>
      </trkpt>
      <trkpt lat="43.71804" lon="7.02312">
        <ele>840.5</ele>
        <time>2016-09-26T09:17:21Z</time>
      </trkpt>
      <trkpt lat="43.71804" lon="7.02312">
        <ele>842.7</ele>
        <time>2016-09-26T09:17:30Z</time>
      </trkpt>
      <trkpt lat="43.71802" lon="7.02332">
        <ele>840.2</ele>
        <time>2016-09-26T09:17:31Z</time>
      </trkpt>
      <trkpt lat="43.71802" lon="7.02338">
        <ele>839.9</ele>
        <time>2016-09-26T09:17:34Z</time>
      </trkpt>
      <trkpt lat="43.718" lon="7.02352">
        <ele>839.7</ele>
        <time>2016-09-26T09:17:40Z</time>
      </trkpt>
      <trkpt lat="43.71802" lon="7.02364">
        <ele>839.5</ele>
        <time>2016-09-26T09:17:45Z</time>
      </trkpt>
      <trkpt lat="43.71805" lon="7.02377">
        <ele>839.3</ele>
        <time>2016-09-26T09:17:51Z</time>
      </trkpt>
      <trkpt lat="43.71806" lon="7.0239">
        <ele>839.2</ele>
        <time>2016-09-26T09:17:57Z</time>
      </trkpt>
      <trkpt lat="43.71809" lon="7.02403">
        <ele>839.2</ele>
        <time>2016-09-26T09:18:04Z</time>
      </trkpt>
      <trkpt lat="43.71809" lon="7.02409">
        <ele>839.3</ele>
        <time>2016-09-26T09:18:07Z</time>
      </trkpt>
      <trkpt lat="43.71809" lon="7.02416">
        <ele>839.3</ele>
        <time>2016-09-26T09:18:10Z</time>
      </trkpt>
      <trkpt lat="43.71811" lon="7.02435">
        <ele>839.6</ele>
        <time>2016-09-26T09:18:18Z</time>
      </trkpt>
      <trkpt lat="43.71812" lon="7.02448">
        <ele>840</ele>
        <time>2016-09-26T09:18:23Z</time>
      </trkpt>
      <trkpt lat="43.71809" lon="7.02465">
        <ele>840.2</ele>
        <time>2016-09-26T09:18:30Z</time>
      </trkpt>
      <trkpt lat="43.7181" lon="7.02478">
        <ele>840.4</ele>
        <time>2016-09-26T09:18:35Z</time>
      </trkpt>
      <trkpt lat="43.71809" lon="7.02486">
        <ele>840.6</ele>
        <time>2016-09-26T09:18:38Z</time>
      </trkpt>
      <trkpt lat="43.71806" lon="7.02498">
        <ele>840.7</ele>
        <time>2016-09-26T09:18:43Z</time>
      </trkpt>
      <trkpt lat="43.71806" lon="7.02498">
        <ele>842.9</ele>
        <time>2016-09-26T09:18:51Z</time>
      </trkpt>
      <trkpt lat="43.71801" lon="7.02523">
        <ele>840.7</ele>
        <time>2016-09-26T09:18:55Z</time>
      </trkpt>
      <trkpt lat="43.71802" lon="7.02531">
        <ele>840.7</ele>
        <time>2016-09-26T09:18:58Z</time>
      </trkpt>
      <trkpt lat="43.71801" lon="7.02538">
        <ele>840.7</ele>
        <time>2016-09-26T09:19:02Z</time>
      </trkpt>
      <trkpt lat="43.71801" lon="7.02538">
        <ele>842.7</ele>
        <time>2016-09-26T09:19:10Z</time>
      </trkpt>
      <trkpt lat="43.71794" lon="7.02559">
        <ele>840.7</ele>
        <time>2016-09-26T09:19:13Z</time>
      </trkpt>
      <trkpt lat="43.71791" lon="7.02567">
        <ele>840.7</ele>
        <time>2016-09-26T09:19:17Z</time>
      </trkpt>
      <trkpt lat="43.71791" lon="7.02567">
        <ele>842.4</ele>
        <time>2016-09-26T09:19:25Z</time>
      </trkpt>
      <trkpt lat="43.71786" lon="7.02584">
        <ele>840.1</ele>
        <time>2016-09-26T09:19:26Z</time>
      </trkpt>
      <trkpt lat="43.71783" lon="7.0259">
        <ele>839.9</ele>
        <time>2016-09-26T09:19:29Z</time>
      </trkpt>
      <trkpt lat="43.71772" lon="7.02595">
        <ele>839.8</ele>
        <time>2016-09-26T09:19:35Z</time>
      </trkpt>
      <trkpt lat="43.71764" lon="7.02602">
        <ele>839.5</ele>
        <time>2016-09-26T09:19:40Z</time>
      </trkpt>
      <trkpt lat="43.71754" lon="7.02608">
        <ele>839.2</ele>
        <time>2016-09-26T09:19:46Z</time>
      </trkpt>
      <trkpt lat="43.71745" lon="7.02613">
        <ele>839.2</ele>
        <time>2016-09-26T09:19:52Z</time>
      </trkpt>
      <trkpt lat="43.71737" lon="7.0262">
        <ele>839.1</ele>
        <time>2016-09-26T09:19:57Z</time>
      </trkpt>
      <trkpt lat="43.71723" lon="7.02627">
        <ele>839</ele>
        <time>2016-09-26T09:20:05Z</time>
      </trkpt>
      <trkpt lat="43.71717" lon="7.02626">
        <ele>839</ele>
        <time>2016-09-26T09:20:09Z</time>
      </trkpt>
      <trkpt lat="43.71709" lon="7.02632">
        <ele>839</ele>
        <time>2016-09-26T09:20:15Z</time>
      </trkpt>
      <trkpt lat="43.71704" lon="7.02634">
        <ele>839.1</ele>
        <time>2016-09-26T09:20:18Z</time>
      </trkpt>
      <trkpt lat="43.71699" lon="7.02636">
        <ele>839.2</ele>
        <time>2016-09-26T09:20:22Z</time>
      </trkpt>
      <trkpt lat="43.71695" lon="7.02639">
        <ele>839.2</ele>
        <time>2016-09-26T09:20:25Z</time>
      </trkpt>
      <trkpt lat="43.7169" lon="7.02644">
        <ele>839.5</ele>
        <time>2016-09-26T09:20:29Z</time>
      </trkpt>
      <trkpt lat="43.71688" lon="7.02646">
        <ele>840.6</ele>
        <time>2016-09-26T09:20:33Z</time>
      </trkpt>
      <trkpt lat="43.71688" lon="7.02646">
        <ele>847</ele>
        <time>2016-09-26T09:20:33Z</time>
      </trkpt>
      <trkpt lat="43.71688" lon="7.02646">
        <ele>847</ele>
        <time>2016-09-26T09:20:38Z</time>
      </trkpt>
      <trkpt lat="43.71677" lon="7.02652">
        <ele>839.9</ele>
        <time>2016-09-26T09:20:40Z</time>
      </trkpt>
      <trkpt lat="43.71671" lon="7.02665">
        <ele>840</ele>
        <time>2016-09-26T09:20:46Z</time>
      </trkpt>
      <trkpt lat="43.71669" lon="7.02679">
        <ele>840.5</ele>
        <time>2016-09-26T09:20:51Z</time>
      </trkpt>
      <trkpt lat="43.71669" lon="7.02692">
        <ele>840.6</ele>
        <time>2016-09-26T09:20:57Z</time>
      </trkpt>
      <trkpt lat="43.71669" lon="7.027">
        <ele>841.2</ele>
        <time>2016-09-26T09:21:01Z</time>
      </trkpt>
      <trkpt lat="43.71669" lon="7.02707">
        <ele>841.2</ele>
        <time>2016-09-26T09:21:04Z</time>
      </trkpt>
      <trkpt lat="43.71671" lon="7.02721">
        <ele>841.8</ele>
        <time>2016-09-26T09:21:09Z</time>
      </trkpt>
      <trkpt lat="43.71675" lon="7.02732">
        <ele>842</ele>
        <time>2016-09-26T09:21:15Z</time>
      </trkpt>
      <trkpt lat="43.71686" lon="7.02745">
        <ele>842</ele>
        <time>2016-09-26T09:21:23Z</time>
      </trkpt>
      <trkpt lat="43.7169" lon="7.02751">
        <ele>842.1</ele>
        <time>2016-09-26T09:21:27Z</time>
      </trkpt>
      <trkpt lat="43.71693" lon="7.02756">
        <ele>842.2</ele>
        <time>2016-09-26T09:21:30Z</time>
      </trkpt>
      <trkpt lat="43.71697" lon="7.02759">
        <ele>842.2</ele>
        <time>2016-09-26T09:21:33Z</time>
      </trkpt>
      <trkpt lat="43.717" lon="7.02764">
        <ele>842.3</ele>
        <time>2016-09-26T09:21:36Z</time>
      </trkpt>
      <trkpt lat="43.71704" lon="7.02767">
        <ele>842.3</ele>
        <time>2016-09-26T09:21:39Z</time>
      </trkpt>
      <trkpt lat="43.71708" lon="7.02772">
        <ele>842.5</ele>
        <time>2016-09-26T09:21:42Z</time>
      </trkpt>
      <trkpt lat="43.71714" lon="7.02782">
        <ele>842.6</ele>
        <time>2016-09-26T09:21:49Z</time>
      </trkpt>
      <trkpt lat="43.7172" lon="7.02788">
        <ele>842.6</ele>
        <time>2016-09-26T09:21:52Z</time>
      </trkpt>
      <trkpt lat="43.71727" lon="7.02797">
        <ele>842.6</ele>
        <time>2016-09-26T09:21:57Z</time>
      </trkpt>
      <trkpt lat="43.71736" lon="7.02812">
        <ele>842.6</ele>
        <time>2016-09-26T09:22:05Z</time>
      </trkpt>
      <trkpt lat="43.71743" lon="7.02822">
        <ele>842.6</ele>
        <time>2016-09-26T09:22:12Z</time>
      </trkpt>
      <trkpt lat="43.71746" lon="7.02827">
        <ele>842.7</ele>
        <time>2016-09-26T09:22:15Z</time>
      </trkpt>
      <trkpt lat="43.71752" lon="7.02838">
        <ele>842.7</ele>
        <time>2016-09-26T09:22:21Z</time>
      </trkpt>
      <trkpt lat="43.7176" lon="7.02847">
        <ele>842.8</ele>
        <time>2016-09-26T09:22:27Z</time>
      </trkpt>
      <trkpt lat="43.71768" lon="7.02854">
        <ele>843.1</ele>
        <time>2016-09-26T09:22:32Z</time>
      </trkpt>
      <trkpt lat="43.71771" lon="7.0286">
        <ele>843.1</ele>
        <time>2016-09-26T09:22:35Z</time>
      </trkpt>
      <trkpt lat="43.71777" lon="7.02871">
        <ele>843.3</ele>
        <time>2016-09-26T09:22:41Z</time>
      </trkpt>
      <trkpt lat="43.71781" lon="7.02875">
        <ele>843.4</ele>
        <time>2016-09-26T09:22:44Z</time>
      </trkpt>
      <trkpt lat="43.71788" lon="7.02885">
        <ele>843.5</ele>
        <time>2016-09-26T09:22:50Z</time>
      </trkpt>
      <trkpt lat="43.71792" lon="7.02891">
        <ele>843.6</ele>
        <time>2016-09-26T09:22:53Z</time>
      </trkpt>
      <trkpt lat="43.71796" lon="7.02896">
        <ele>843.6</ele>
        <time>2016-09-26T09:22:56Z</time>
      </trkpt>
      <trkpt lat="43.71803" lon="7.02906">
        <ele>843.6</ele>
        <time>2016-09-26T09:23:01Z</time>
      </trkpt>
      <trkpt lat="43.7181" lon="7.02916">
        <ele>843.8</ele>
        <time>2016-09-26T09:23:07Z</time>
      </trkpt>
      <trkpt lat="43.71817" lon="7.0293">
        <ele>844.2</ele>
        <time>2016-09-26T09:23:16Z</time>
      </trkpt>
      <trkpt lat="43.71823" lon="7.02941">
        <ele>844.5</ele>
        <time>2016-09-26T09:23:21Z</time>
      </trkpt>
      <trkpt lat="43.71831" lon="7.02952">
        <ele>844.6</ele>
        <time>2016-09-26T09:23:27Z</time>
      </trkpt>
      <trkpt lat="43.71839" lon="7.02965">
        <ele>844.6</ele>
        <time>2016-09-26T09:23:32Z</time>
      </trkpt>
      <trkpt lat="43.71843" lon="7.02971">
        <ele>844.6</ele>
        <time>2016-09-26T09:23:34Z</time>
      </trkpt>
      <trkpt lat="43.7185" lon="7.02981">
        <ele>844.6</ele>
        <time>2016-09-26T09:23:38Z</time>
      </trkpt>
      <trkpt lat="43.7185" lon="7.02981">
        <ele>843.4</ele>
        <time>2016-09-26T09:23:47Z</time>
      </trkpt>
      <trkpt lat="43.71867" lon="7.03011">
        <ele>844.5</ele>
        <time>2016-09-26T09:23:55Z</time>
      </trkpt>
      <trkpt lat="43.71871" lon="7.03016">
        <ele>844</ele>
        <time>2016-09-26T09:23:58Z</time>
      </trkpt>
      <trkpt lat="43.71875" lon="7.03019">
        <ele>844</ele>
        <time>2016-09-26T09:24:01Z</time>
      </trkpt>
      <trkpt lat="43.71879" lon="7.03024">
        <ele>843.8</ele>
        <time>2016-09-26T09:24:04Z</time>
      </trkpt>
      <trkpt lat="43.71883" lon="7.03036">
        <ele>843.6</ele>
        <time>2016-09-26T09:24:09Z</time>
      </trkpt>
      <trkpt lat="43.71889" lon="7.03048">
        <ele>843.5</ele>
        <time>2016-09-26T09:24:14Z</time>
      </trkpt>
      <trkpt lat="43.71895" lon="7.03062">
        <ele>843.3</ele>
        <time>2016-09-26T09:24:21Z</time>
      </trkpt>
      <trkpt lat="43.71901" lon="7.03073">
        <ele>843.1</ele>
        <time>2016-09-26T09:24:28Z</time>
      </trkpt>
      <trkpt lat="43.71905" lon="7.03086">
        <ele>843</ele>
        <time>2016-09-26T09:24:34Z</time>
      </trkpt>
      <trkpt lat="43.71909" lon="7.03098">
        <ele>842.9</ele>
        <time>2016-09-26T09:24:38Z</time>
      </trkpt>
      <trkpt lat="43.71912" lon="7.03103">
        <ele>842.8</ele>
        <time>2016-09-26T09:24:41Z</time>
      </trkpt>
      <trkpt lat="43.71914" lon="7.0311">
        <ele>842.8</ele>
        <time>2016-09-26T09:24:45Z</time>
      </trkpt>
      <trkpt lat="43.71914" lon="7.0311">
        <ele>837.9</ele>
        <time>2016-09-26T09:24:53Z</time>
      </trkpt>
      <trkpt lat="43.71915" lon="7.03129">
        <ele>841.7</ele>
        <time>2016-09-26T09:24:55Z</time>
      </trkpt>
      <trkpt lat="43.71919" lon="7.03149">
        <ele>841.1</ele>
        <time>2016-09-26T09:25:03Z</time>
      </trkpt>
      <trkpt lat="43.71919" lon="7.03149">
        <ele>840</ele>
        <time>2016-09-26T09:25:11Z</time>
      </trkpt>
      <trkpt lat="43.71918" lon="7.03168">
        <ele>840.5</ele>
        <time>2016-09-26T09:25:13Z</time>
      </trkpt>
      <trkpt lat="43.71916" lon="7.03182">
        <ele>840.2</ele>
        <time>2016-09-26T09:25:19Z</time>
      </trkpt>
      <trkpt lat="43.71915" lon="7.0319">
        <ele>839.9</ele>
        <time>2016-09-26T09:25:22Z</time>
      </trkpt>
      <trkpt lat="43.71918" lon="7.03198">
        <ele>839.9</ele>
        <time>2016-09-26T09:25:25Z</time>
      </trkpt>
      <trkpt lat="43.71922" lon="7.03216">
        <ele>839.7</ele>
        <time>2016-09-26T09:25:32Z</time>
      </trkpt>
      <trkpt lat="43.71924" lon="7.03223">
        <ele>838.5</ele>
        <time>2016-09-26T09:25:36Z</time>
      </trkpt>
      <trkpt lat="43.71927" lon="7.0323">
        <ele>838.5</ele>
        <time>2016-09-26T09:25:39Z</time>
      </trkpt>
      <trkpt lat="43.71933" lon="7.0324">
        <ele>838</ele>
        <time>2016-09-26T09:25:46Z</time>
      </trkpt>
      <trkpt lat="43.71935" lon="7.03248">
        <ele>837.5</ele>
        <time>2016-09-26T09:25:49Z</time>
      </trkpt>
      <trkpt lat="43.71937" lon="7.03254">
        <ele>837.5</ele>
        <time>2016-09-26T09:25:52Z</time>
      </trkpt>
      <trkpt lat="43.71942" lon="7.03258">
        <ele>836.4</ele>
        <time>2016-09-26T09:25:57Z</time>
      </trkpt>
      <trkpt lat="43.71949" lon="7.03266">
        <ele>835.4</ele>
        <time>2016-09-26T09:26:03Z</time>
      </trkpt>
      <trkpt lat="43.71953" lon="7.0327">
        <ele>835.3</ele>
        <time>2016-09-26T09:26:06Z</time>
      </trkpt>
      <trkpt lat="43.71956" lon="7.03276">
        <ele>835.2</ele>
        <time>2016-09-26T09:26:09Z</time>
      </trkpt>
      <trkpt lat="43.71961" lon="7.0328">
        <ele>835.2</ele>
        <time>2016-09-26T09:26:12Z</time>
      </trkpt>
      <trkpt lat="43.7197" lon="7.03295">
        <ele>835</ele>
        <time>2016-09-26T09:26:20Z</time>
      </trkpt>
      <trkpt lat="43.71981" lon="7.03311">
        <ele>834.9</ele>
        <time>2016-09-26T09:26:28Z</time>
      </trkpt>
      <trkpt lat="43.71987" lon="7.03324">
        <ele>834.8</ele>
        <time>2016-09-26T09:26:32Z</time>
      </trkpt>
      <trkpt lat="43.71992" lon="7.03338">
        <ele>834.7</ele>
        <time>2016-09-26T09:26:36Z</time>
      </trkpt>
      <trkpt lat="43.72" lon="7.03353">
        <ele>834.6</ele>
        <time>2016-09-26T09:26:41Z</time>
      </trkpt>
      <trkpt lat="43.72009" lon="7.03372">
        <ele>834.5</ele>
        <time>2016-09-26T09:26:47Z</time>
      </trkpt>
      <trkpt lat="43.72018" lon="7.03387">
        <ele>834.5</ele>
        <time>2016-09-26T09:26:52Z</time>
      </trkpt>
      <trkpt lat="43.72018" lon="7.03387">
        <ele>829.2</ele>
        <time>2016-09-26T09:27:00Z</time>
      </trkpt>
      <trkpt lat="43.72028" lon="7.03403">
        <ele>833.7</ele>
        <time>2016-09-26T09:27:02Z</time>
      </trkpt>
      <trkpt lat="43.72034" lon="7.03415">
        <ele>832.9</ele>
        <time>2016-09-26T09:27:07Z</time>
      </trkpt>
      <trkpt lat="43.72036" lon="7.03429">
        <ele>832.1</ele>
        <time>2016-09-26T09:27:13Z</time>
      </trkpt>
      <trkpt lat="43.72037" lon="7.03444">
        <ele>830.9</ele>
        <time>2016-09-26T09:27:19Z</time>
      </trkpt>
      <trkpt lat="43.72036" lon="7.03458">
        <ele>829.5</ele>
        <time>2016-09-26T09:27:24Z</time>
      </trkpt>
      <trkpt lat="43.7204" lon="7.0347">
        <ele>829.1</ele>
        <time>2016-09-26T09:27:30Z</time>
      </trkpt>
      <trkpt lat="43.72041" lon="7.03476">
        <ele>828.8</ele>
        <time>2016-09-26T09:27:33Z</time>
      </trkpt>
      <trkpt lat="43.72044" lon="7.03484">
        <ele>828.8</ele>
        <time>2016-09-26T09:27:36Z</time>
      </trkpt>
      <trkpt lat="43.72049" lon="7.03497">
        <ele>827.8</ele>
        <time>2016-09-26T09:27:41Z</time>
      </trkpt>
      <trkpt lat="43.72054" lon="7.03509">
        <ele>826.4</ele>
        <time>2016-09-26T09:27:47Z</time>
      </trkpt>
      <trkpt lat="43.72054" lon="7.03509">
        <ele>823.2</ele>
        <time>2016-09-26T09:27:55Z</time>
      </trkpt>
      <trkpt lat="43.72073" lon="7.03535">
        <ele>823.9</ele>
        <time>2016-09-26T09:28:03Z</time>
      </trkpt>
      <trkpt lat="43.72073" lon="7.03535">
        <ele>822.4</ele>
        <time>2016-09-26T09:28:11Z</time>
      </trkpt>
      <trkpt lat="43.72085" lon="7.0355">
        <ele>822.7</ele>
        <time>2016-09-26T09:28:15Z</time>
      </trkpt>
      <trkpt lat="43.72096" lon="7.03565">
        <ele>822.4</ele>
        <time>2016-09-26T09:28:24Z</time>
      </trkpt>
      <trkpt lat="43.72105" lon="7.03572">
        <ele>821.6</ele>
        <time>2016-09-26T09:28:31Z</time>
      </trkpt>
      <trkpt lat="43.72108" lon="7.03577">
        <ele>820.7</ele>
        <time>2016-09-26T09:28:35Z</time>
      </trkpt>
      <trkpt lat="43.72112" lon="7.0358">
        <ele>820.3</ele>
        <time>2016-09-26T09:28:39Z</time>
      </trkpt>
      <trkpt lat="43.72123" lon="7.03593">
        <ele>819.7</ele>
        <time>2016-09-26T09:28:47Z</time>
      </trkpt>
      <trkpt lat="43.72128" lon="7.03601">
        <ele>818.5</ele>
        <time>2016-09-26T09:28:51Z</time>
      </trkpt>
      <trkpt lat="43.72131" lon="7.03606">
        <ele>818.5</ele>
        <time>2016-09-26T09:28:54Z</time>
      </trkpt>
      <trkpt lat="43.72139" lon="7.03615">
        <ele>816.8</ele>
        <time>2016-09-26T09:29:01Z</time>
      </trkpt>
      <trkpt lat="43.72141" lon="7.03621">
        <ele>816.5</ele>
        <time>2016-09-26T09:29:05Z</time>
      </trkpt>
      <trkpt lat="43.72146" lon="7.03632">
        <ele>816.2</ele>
        <time>2016-09-26T09:29:13Z</time>
      </trkpt>
      <trkpt lat="43.7215" lon="7.03636">
        <ele>816</ele>
        <time>2016-09-26T09:29:17Z</time>
      </trkpt>
      <trkpt lat="43.72152" lon="7.03643">
        <ele>816</ele>
        <time>2016-09-26T09:29:20Z</time>
      </trkpt>
      <trkpt lat="43.72152" lon="7.03652">
        <ele>815.9</ele>
        <time>2016-09-26T09:29:23Z</time>
      </trkpt>
      <trkpt lat="43.72149" lon="7.03672">
        <ele>815.6</ele>
        <time>2016-09-26T09:29:31Z</time>
      </trkpt>
      <trkpt lat="43.72149" lon="7.03672">
        <ele>814.2</ele>
        <time>2016-09-26T09:29:39Z</time>
      </trkpt>
      <trkpt lat="43.72144" lon="7.03689">
        <ele>815.5</ele>
        <time>2016-09-26T09:29:40Z</time>
      </trkpt>
      <trkpt lat="43.72136" lon="7.03707">
        <ele>815.4</ele>
        <time>2016-09-26T09:29:50Z</time>
      </trkpt>
      <trkpt lat="43.72134" lon="7.03713">
        <ele>815.3</ele>
        <time>2016-09-26T09:29:54Z</time>
      </trkpt>
      <trkpt lat="43.72132" lon="7.03733">
        <ele>815.1</ele>
        <time>2016-09-26T09:30:03Z</time>
      </trkpt>
      <trkpt lat="43.72129" lon="7.03746">
        <ele>813.2</ele>
        <time>2016-09-26T09:30:09Z</time>
      </trkpt>
      <trkpt lat="43.72129" lon="7.0376">
        <ele>811.4</ele>
        <time>2016-09-26T09:30:14Z</time>
      </trkpt>
      <trkpt lat="43.72126" lon="7.03772">
        <ele>810.1</ele>
        <time>2016-09-26T09:30:20Z</time>
      </trkpt>
      <trkpt lat="43.72127" lon="7.03789">
        <ele>809.6</ele>
        <time>2016-09-26T09:30:28Z</time>
      </trkpt>
      <trkpt lat="43.72126" lon="7.03795">
        <ele>808.3</ele>
        <time>2016-09-26T09:30:31Z</time>
      </trkpt>
      <trkpt lat="43.72129" lon="7.03809">
        <ele>807.9</ele>
        <time>2016-09-26T09:30:40Z</time>
      </trkpt>
      <trkpt lat="43.72136" lon="7.03822">
        <ele>807.9</ele>
        <time>2016-09-26T09:30:45Z</time>
      </trkpt>
      <trkpt lat="43.72137" lon="7.03834">
        <ele>807.7</ele>
        <time>2016-09-26T09:30:50Z</time>
      </trkpt>
      <trkpt lat="43.72139" lon="7.03841">
        <ele>807.7</ele>
        <time>2016-09-26T09:30:56Z</time>
      </trkpt>
      <trkpt lat="43.72139" lon="7.03848">
        <ele>807.7</ele>
        <time>2016-09-26T09:31:01Z</time>
      </trkpt>
      <trkpt lat="43.72142" lon="7.0386">
        <ele>807.8</ele>
        <time>2016-09-26T09:31:07Z</time>
      </trkpt>
      <trkpt lat="43.72143" lon="7.03867">
        <ele>808</ele>
        <time>2016-09-26T09:31:10Z</time>
      </trkpt>
      <trkpt lat="43.72145" lon="7.03873">
        <ele>808</ele>
        <time>2016-09-26T09:31:13Z</time>
      </trkpt>
      <trkpt lat="43.7215" lon="7.03884">
        <ele>808.4</ele>
        <time>2016-09-26T09:31:18Z</time>
      </trkpt>
      <trkpt lat="43.72153" lon="7.03891">
        <ele>808.6</ele>
        <time>2016-09-26T09:31:21Z</time>
      </trkpt>
      <trkpt lat="43.72159" lon="7.03906">
        <ele>808.9</ele>
        <time>2016-09-26T09:31:29Z</time>
      </trkpt>
      <trkpt lat="43.7216" lon="7.03912">
        <ele>809</ele>
        <time>2016-09-26T09:31:32Z</time>
      </trkpt>
      <trkpt lat="43.72163" lon="7.03919">
        <ele>809</ele>
        <time>2016-09-26T09:31:36Z</time>
      </trkpt>
      <trkpt lat="43.72171" lon="7.03928">
        <ele>809.3</ele>
        <time>2016-09-26T09:31:44Z</time>
      </trkpt>
      <trkpt lat="43.72175" lon="7.03933">
        <ele>809.3</ele>
        <time>2016-09-26T09:31:48Z</time>
      </trkpt>
      <trkpt lat="43.72178" lon="7.03937">
        <ele>809.6</ele>
        <time>2016-09-26T09:31:51Z</time>
      </trkpt>
      <trkpt lat="43.72182" lon="7.03941">
        <ele>809.9</ele>
        <time>2016-09-26T09:31:54Z</time>
      </trkpt>
      <trkpt lat="43.72186" lon="7.03946">
        <ele>810.1</ele>
        <time>2016-09-26T09:31:57Z</time>
      </trkpt>
      <trkpt lat="43.7219" lon="7.03951">
        <ele>810.1</ele>
        <time>2016-09-26T09:32:00Z</time>
      </trkpt>
      <trkpt lat="43.7219" lon="7.03951">
        <ele>816.5</ele>
        <time>2016-09-26T09:32:08Z</time>
      </trkpt>
      <trkpt lat="43.72202" lon="7.0396">
        <ele>810.6</ele>
        <time>2016-09-26T09:32:09Z</time>
      </trkpt>
      <trkpt lat="43.72202" lon="7.0396">
        <ele>816.3</ele>
        <time>2016-09-26T09:32:17Z</time>
      </trkpt>
      <trkpt lat="43.72223" lon="7.0397">
        <ele>811.7</ele>
        <time>2016-09-26T09:32:23Z</time>
      </trkpt>
      <trkpt lat="43.72232" lon="7.03972">
        <ele>812.9</ele>
        <time>2016-09-26T09:32:29Z</time>
      </trkpt>
      <trkpt lat="43.72247" lon="7.03977">
        <ele>813.1</ele>
        <time>2016-09-26T09:32:36Z</time>
      </trkpt>
      <trkpt lat="43.72252" lon="7.03978">
        <ele>813.3</ele>
        <time>2016-09-26T09:32:40Z</time>
      </trkpt>
      <trkpt lat="43.72255" lon="7.03982">
        <ele>813.6</ele>
        <time>2016-09-26T09:32:44Z</time>
      </trkpt>
      <trkpt lat="43.7226" lon="7.03985">
        <ele>813.6</ele>
        <time>2016-09-26T09:32:48Z</time>
      </trkpt>
      <trkpt lat="43.72267" lon="7.03986">
        <ele>813.6</ele>
        <time>2016-09-26T09:32:51Z</time>
      </trkpt>
      <trkpt lat="43.72267" lon="7.03986">
        <ele>816.6</ele>
        <time>2016-09-26T09:33:00Z</time>
      </trkpt>
      <trkpt lat="43.72281" lon="7.03989">
        <ele>813.6</ele>
        <time>2016-09-26T09:33:01Z</time>
      </trkpt>
      <trkpt lat="43.72292" lon="7.03991">
        <ele>813.4</ele>
        <time>2016-09-26T09:33:06Z</time>
      </trkpt>
      <trkpt lat="43.72302" lon="7.03991">
        <ele>813.3</ele>
        <time>2016-09-26T09:33:14Z</time>
      </trkpt>
      <trkpt lat="43.72312" lon="7.03992">
        <ele>813.3</ele>
        <time>2016-09-26T09:33:20Z</time>
      </trkpt>
      <trkpt lat="43.72312" lon="7.03992">
        <ele>815.7</ele>
        <time>2016-09-26T09:33:28Z</time>
      </trkpt>
      <trkpt lat="43.72327" lon="7.03991">
        <ele>813</ele>
        <time>2016-09-26T09:33:31Z</time>
      </trkpt>
      <trkpt lat="43.72336" lon="7.03992">
        <ele>812.4</ele>
        <time>2016-09-26T09:33:38Z</time>
      </trkpt>
      <trkpt lat="43.72336" lon="7.03992">
        <ele>813.4</ele>
        <time>2016-09-26T09:33:46Z</time>
      </trkpt>
      <trkpt lat="43.72359" lon="7.03981">
        <ele>809.8</ele>
        <time>2016-09-26T09:33:54Z</time>
      </trkpt>
      <trkpt lat="43.72367" lon="7.03973">
        <ele>809.5</ele>
        <time>2016-09-26T09:33:59Z</time>
      </trkpt>
      <trkpt lat="43.72376" lon="7.03966">
        <ele>809.3</ele>
        <time>2016-09-26T09:34:04Z</time>
      </trkpt>
      <trkpt lat="43.72376" lon="7.03966">
        <ele>815.3</ele>
        <time>2016-09-26T09:34:12Z</time>
      </trkpt>
      <trkpt lat="43.72387" lon="7.03961">
        <ele>809</ele>
        <time>2016-09-26T09:34:14Z</time>
      </trkpt>
      <trkpt lat="43.72392" lon="7.03958">
        <ele>809</ele>
        <time>2016-09-26T09:34:18Z</time>
      </trkpt>
      <trkpt lat="43.72397" lon="7.03955">
        <ele>808.4</ele>
        <time>2016-09-26T09:34:22Z</time>
      </trkpt>
      <trkpt lat="43.72401" lon="7.03951">
        <ele>808.4</ele>
        <time>2016-09-26T09:34:26Z</time>
      </trkpt>
      <trkpt lat="43.72406" lon="7.0395">
        <ele>808.4</ele>
        <time>2016-09-26T09:34:29Z</time>
      </trkpt>
      <trkpt lat="43.72411" lon="7.03954">
        <ele>808.1</ele>
        <time>2016-09-26T09:34:33Z</time>
      </trkpt>
      <trkpt lat="43.72415" lon="7.03959">
        <ele>808</ele>
        <time>2016-09-26T09:34:36Z</time>
      </trkpt>
      <trkpt lat="43.72417" lon="7.03966">
        <ele>808</ele>
        <time>2016-09-26T09:34:40Z</time>
      </trkpt>
      <trkpt lat="43.72421" lon="7.03972">
        <ele>807.7</ele>
        <time>2016-09-26T09:34:45Z</time>
      </trkpt>
      <trkpt lat="43.72431" lon="7.03987">
        <ele>807.3</ele>
        <time>2016-09-26T09:34:56Z</time>
      </trkpt>
      <trkpt lat="43.72435" lon="7.0399">
        <ele>807.3</ele>
        <time>2016-09-26T09:34:59Z</time>
      </trkpt>
      <trkpt lat="43.72435" lon="7.0399">
        <ele>812.1</ele>
        <time>2016-09-26T09:35:09Z</time>
      </trkpt>
      <trkpt lat="43.72444" lon="7.04006">
        <ele>806.9</ele>
        <time>2016-09-26T09:35:11Z</time>
      </trkpt>
      <trkpt lat="43.72454" lon="7.04016">
        <ele>806.9</ele>
        <time>2016-09-26T09:35:19Z</time>
      </trkpt>
      <trkpt lat="43.72466" lon="7.04025">
        <ele>806.6</ele>
        <time>2016-09-26T09:35:26Z</time>
      </trkpt>
      <trkpt lat="43.72471" lon="7.04027">
        <ele>806.1</ele>
        <time>2016-09-26T09:35:30Z</time>
      </trkpt>
      <trkpt lat="43.72484" lon="7.0403">
        <ele>806</ele>
        <time>2016-09-26T09:35:39Z</time>
      </trkpt>
      <trkpt lat="43.72488" lon="7.04032">
        <ele>806.4</ele>
        <time>2016-09-26T09:35:43Z</time>
      </trkpt>
      <trkpt lat="43.72492" lon="7.04035">
        <ele>806.4</ele>
        <time>2016-09-26T09:35:46Z</time>
      </trkpt>
      <trkpt lat="43.72497" lon="7.04038">
        <ele>807</ele>
        <time>2016-09-26T09:35:51Z</time>
      </trkpt>
      <trkpt lat="43.72506" lon="7.0404">
        <ele>807.1</ele>
        <time>2016-09-26T09:35:57Z</time>
      </trkpt>
      <trkpt lat="43.72515" lon="7.04044">
        <ele>807.3</ele>
        <time>2016-09-26T09:36:02Z</time>
      </trkpt>
      <trkpt lat="43.72524" lon="7.04049">
        <ele>807.8</ele>
        <time>2016-09-26T09:36:09Z</time>
      </trkpt>
      <trkpt lat="43.72533" lon="7.04054">
        <ele>807.9</ele>
        <time>2016-09-26T09:36:15Z</time>
      </trkpt>
      <trkpt lat="43.72546" lon="7.0406">
        <ele>808.2</ele>
        <time>2016-09-26T09:36:22Z</time>
      </trkpt>
      <trkpt lat="43.7255" lon="7.04063">
        <ele>808.2</ele>
        <time>2016-09-26T09:36:26Z</time>
      </trkpt>
      <trkpt lat="43.72555" lon="7.04066">
        <ele>808.2</ele>
        <time>2016-09-26T09:36:29Z</time>
      </trkpt>
      <trkpt lat="43.72561" lon="7.04068">
        <ele>808.3</ele>
        <time>2016-09-26T09:36:34Z</time>
      </trkpt>
      <trkpt lat="43.72576" lon="7.04069">
        <ele>808.3</ele>
        <time>2016-09-26T09:36:43Z</time>
      </trkpt>
      <trkpt lat="43.72592" lon="7.04071">
        <ele>808.3</ele>
        <time>2016-09-26T09:36:50Z</time>
      </trkpt>
      <trkpt lat="43.72596" lon="7.04073">
        <ele>808.2</ele>
        <time>2016-09-26T09:36:52Z</time>
      </trkpt>
      <trkpt lat="43.72601" lon="7.04086">
        <ele>808</ele>
        <time>2016-09-26T09:37:02Z</time>
      </trkpt>
      <trkpt lat="43.72611" lon="7.04093">
        <ele>807.9</ele>
        <time>2016-09-26T09:37:10Z</time>
      </trkpt>
      <trkpt lat="43.72616" lon="7.04095">
        <ele>807.8</ele>
        <time>2016-09-26T09:37:14Z</time>
      </trkpt>
      <trkpt lat="43.72616" lon="7.04095">
        <ele>812.9</ele>
        <time>2016-09-26T09:37:24Z</time>
      </trkpt>
      <trkpt lat="43.7263" lon="7.04094">
        <ele>807.6</ele>
        <time>2016-09-26T09:37:27Z</time>
      </trkpt>
      <trkpt lat="43.7263" lon="7.04094">
        <ele>815.1</ele>
        <time>2016-09-26T09:37:35Z</time>
      </trkpt>
      <trkpt lat="43.72653" lon="7.04104">
        <ele>806.9</ele>
        <time>2016-09-26T09:37:43Z</time>
      </trkpt>
      <trkpt lat="43.72658" lon="7.04106">
        <ele>806.5</ele>
        <time>2016-09-26T09:37:46Z</time>
      </trkpt>
      <trkpt lat="43.72663" lon="7.0411">
        <ele>806.5</ele>
        <time>2016-09-26T09:37:50Z</time>
      </trkpt>
      <trkpt lat="43.72667" lon="7.04113">
        <ele>806.4</ele>
        <time>2016-09-26T09:37:53Z</time>
      </trkpt>
      <trkpt lat="43.72672" lon="7.04116">
        <ele>806.4</ele>
        <time>2016-09-26T09:37:56Z</time>
      </trkpt>
      <trkpt lat="43.72678" lon="7.04118">
        <ele>806.4</ele>
        <time>2016-09-26T09:37:59Z</time>
      </trkpt>
      <trkpt lat="43.72682" lon="7.0412">
        <ele>806.4</ele>
        <time>2016-09-26T09:38:02Z</time>
      </trkpt>
      <trkpt lat="43.72682" lon="7.0412">
        <ele>817.1</ele>
        <time>2016-09-26T09:38:11Z</time>
      </trkpt>
      <trkpt lat="43.72689" lon="7.0413">
        <ele>806.6</ele>
        <time>2016-09-26T09:38:12Z</time>
      </trkpt>
      <trkpt lat="43.72695" lon="7.04133">
        <ele>806.7</ele>
        <time>2016-09-26T09:38:16Z</time>
      </trkpt>
      <trkpt lat="43.72695" lon="7.04133">
        <ele>815.7</ele>
        <time>2016-09-26T09:38:26Z</time>
      </trkpt>
      <trkpt lat="43.72709" lon="7.04137">
        <ele>809</ele>
        <time>2016-09-26T09:38:28Z</time>
      </trkpt>
      <trkpt lat="43.72724" lon="7.04135">
        <ele>810</ele>
        <time>2016-09-26T09:38:36Z</time>
      </trkpt>
      <trkpt lat="43.72734" lon="7.04135">
        <ele>810.7</ele>
        <time>2016-09-26T09:38:43Z</time>
      </trkpt>
      <trkpt lat="43.72734" lon="7.04135">
        <ele>819.4</ele>
        <time>2016-09-26T09:38:51Z</time>
      </trkpt>
      <trkpt lat="43.72749" lon="7.04136">
        <ele>811.6</ele>
        <time>2016-09-26T09:38:53Z</time>
      </trkpt>
      <trkpt lat="43.72759" lon="7.04134">
        <ele>811.8</ele>
        <time>2016-09-26T09:38:59Z</time>
      </trkpt>
      <trkpt lat="43.72759" lon="7.04134">
        <ele>820</ele>
        <time>2016-09-26T09:39:07Z</time>
      </trkpt>
      <trkpt lat="43.72771" lon="7.04128">
        <ele>812.4</ele>
        <time>2016-09-26T09:39:08Z</time>
      </trkpt>
      <trkpt lat="43.72771" lon="7.04128">
        <ele>821.4</ele>
        <time>2016-09-26T09:39:17Z</time>
      </trkpt>
      <trkpt lat="43.72783" lon="7.04122">
        <ele>813.4</ele>
        <time>2016-09-26T09:39:18Z</time>
      </trkpt>
      <trkpt lat="43.72783" lon="7.04122">
        <ele>822.8</ele>
        <time>2016-09-26T09:39:26Z</time>
      </trkpt>
      <trkpt lat="43.72796" lon="7.04118">
        <ele>814.1</ele>
        <time>2016-09-26T09:39:29Z</time>
      </trkpt>
      <trkpt lat="43.72796" lon="7.04118">
        <ele>823.6</ele>
        <time>2016-09-26T09:39:37Z</time>
      </trkpt>
      <trkpt lat="43.72811" lon="7.0412">
        <ele>815.1</ele>
        <time>2016-09-26T09:39:40Z</time>
      </trkpt>
      <trkpt lat="43.72811" lon="7.0412">
        <ele>823.8</ele>
        <time>2016-09-26T09:39:48Z</time>
      </trkpt>
      <trkpt lat="43.72822" lon="7.04124">
        <ele>815.8</ele>
        <time>2016-09-26T09:39:54Z</time>
      </trkpt>
      <trkpt lat="43.72827" lon="7.04124">
        <ele>815.8</ele>
        <time>2016-09-26T09:39:57Z</time>
      </trkpt>
      <trkpt lat="43.72836" lon="7.04126">
        <ele>815.9</ele>
        <time>2016-09-26T09:40:04Z</time>
      </trkpt>
      <trkpt lat="43.72836" lon="7.04126">
        <ele>824.6</ele>
        <time>2016-09-26T09:40:12Z</time>
      </trkpt>
      <trkpt lat="43.72846" lon="7.04128">
        <ele>816</ele>
        <time>2016-09-26T09:40:17Z</time>
      </trkpt>
      <trkpt lat="43.72853" lon="7.04128">
        <ele>816.2</ele>
        <time>2016-09-26T09:40:22Z</time>
      </trkpt>
      <trkpt lat="43.72861" lon="7.04132">
        <ele>816.5</ele>
        <time>2016-09-26T09:40:32Z</time>
      </trkpt>
      <trkpt lat="43.72861" lon="7.04132">
        <ele>825.3</ele>
        <time>2016-09-26T09:40:40Z</time>
      </trkpt>
      <trkpt lat="43.72871" lon="7.04136">
        <ele>816.8</ele>
        <time>2016-09-26T09:40:44Z</time>
      </trkpt>
      <trkpt lat="43.72871" lon="7.04136">
        <ele>824.5</ele>
        <time>2016-09-26T09:40:53Z</time>
      </trkpt>
      <trkpt lat="43.72883" lon="7.04132">
        <ele>817</ele>
        <time>2016-09-26T09:40:54Z</time>
      </trkpt>
      <trkpt lat="43.72897" lon="7.04133">
        <ele>817.1</ele>
        <time>2016-09-26T09:41:02Z</time>
      </trkpt>
      <trkpt lat="43.72897" lon="7.04133">
        <ele>827</ele>
        <time>2016-09-26T09:41:10Z</time>
      </trkpt>
      <trkpt lat="43.7292" lon="7.04134">
        <ele>817.8</ele>
        <time>2016-09-26T09:41:18Z</time>
      </trkpt>
      <trkpt lat="43.72925" lon="7.04134">
        <ele>818.4</ele>
        <time>2016-09-26T09:41:21Z</time>
      </trkpt>
      <trkpt lat="43.7293" lon="7.04132">
        <ele>818.4</ele>
        <time>2016-09-26T09:41:24Z</time>
      </trkpt>
      <trkpt lat="43.72939" lon="7.0413">
        <ele>818.5</ele>
        <time>2016-09-26T09:41:29Z</time>
      </trkpt>
      <trkpt lat="43.72944" lon="7.0413">
        <ele>818.7</ele>
        <time>2016-09-26T09:41:32Z</time>
      </trkpt>
      <trkpt lat="43.72949" lon="7.04136">
        <ele>818.8</ele>
        <time>2016-09-26T09:41:36Z</time>
      </trkpt>
      <trkpt lat="43.72952" lon="7.04142">
        <ele>819</ele>
        <time>2016-09-26T09:41:39Z</time>
      </trkpt>
      <trkpt lat="43.72953" lon="7.04148">
        <ele>819.7</ele>
        <time>2016-09-26T09:41:43Z</time>
      </trkpt>
      <trkpt lat="43.72955" lon="7.04156">
        <ele>820.1</ele>
        <time>2016-09-26T09:41:48Z</time>
      </trkpt>
      <trkpt lat="43.72955" lon="7.04156">
        <ele>832</ele>
        <time>2016-09-26T09:41:56Z</time>
      </trkpt>
      <trkpt lat="43.72955" lon="7.0417">
        <ele>821</ele>
        <time>2016-09-26T09:41:57Z</time>
      </trkpt>
      <trkpt lat="43.72955" lon="7.0417">
        <ele>833.7</ele>
        <time>2016-09-26T09:42:05Z</time>
      </trkpt>
      <trkpt lat="43.72951" lon="7.04175">
        <ele>821.6</ele>
        <time>2016-09-26T09:42:07Z</time>
      </trkpt>
      <trkpt lat="43.72952" lon="7.04182">
        <ele>821.6</ele>
        <time>2016-09-26T09:42:13Z</time>
      </trkpt>
      <trkpt lat="43.72951" lon="7.04189">
        <ele>821.6</ele>
        <time>2016-09-26T09:42:19Z</time>
      </trkpt>
      <trkpt lat="43.7295" lon="7.04195">
        <ele>821.4</ele>
        <time>2016-09-26T09:42:24Z</time>
      </trkpt>
      <trkpt lat="43.72949" lon="7.04202">
        <ele>821</ele>
        <time>2016-09-26T09:42:29Z</time>
      </trkpt>
      <trkpt lat="43.72948" lon="7.04209">
        <ele>820.6</ele>
        <time>2016-09-26T09:42:34Z</time>
      </trkpt>
      <trkpt lat="43.72945" lon="7.04215">
        <ele>820.4</ele>
        <time>2016-09-26T09:42:37Z</time>
      </trkpt>
      <trkpt lat="43.7294" lon="7.04218">
        <ele>820.6</ele>
        <time>2016-09-26T09:42:41Z</time>
      </trkpt>
      <trkpt lat="43.72931" lon="7.04217">
        <ele>821</ele>
        <time>2016-09-26T09:42:48Z</time>
      </trkpt>
      <trkpt lat="43.72931" lon="7.04217">
        <ele>833.9</ele>
        <time>2016-09-26T09:42:56Z</time>
      </trkpt>
      <trkpt lat="43.72923" lon="7.04212">
        <ele>826</ele>
        <time>2016-09-26T09:43:00Z</time>
      </trkpt>
      <trkpt lat="43.72923" lon="7.04212">
        <ele>833.2</ele>
        <time>2016-09-26T09:43:00Z</time>
      </trkpt>
      <trkpt lat="43.72923" lon="7.04212">
        <ele>833.2</ele>
        <time>2016-09-26T09:54:09Z</time>
      </trkpt>
      <trkpt lat="43.72937" lon="7.0423">
        <ele>829.7</ele>
        <time>2016-09-26T09:54:10Z</time>
      </trkpt>
      <trkpt lat="43.72937" lon="7.0423">
        <ele>834.3</ele>
        <time>2016-09-26T09:54:18Z</time>
      </trkpt>
      <trkpt lat="43.72944" lon="7.04238">
        <ele>829.6</ele>
        <time>2016-09-26T09:54:19Z</time>
      </trkpt>
      <trkpt lat="43.72944" lon="7.04238">
        <ele>835</ele>
        <time>2016-09-26T09:54:27Z</time>
      </trkpt>
      <trkpt lat="43.72948" lon="7.0425">
        <ele>830.2</ele>
        <time>2016-09-26T09:54:28Z</time>
      </trkpt>
      <trkpt lat="43.72948" lon="7.04257">
        <ele>830.4</ele>
        <time>2016-09-26T09:54:33Z</time>
      </trkpt>
      <trkpt lat="43.72947" lon="7.04264">
        <ele>830.7</ele>
        <time>2016-09-26T09:54:39Z</time>
      </trkpt>
      <trkpt lat="43.72944" lon="7.04269">
        <ele>831.5</ele>
        <time>2016-09-26T09:54:44Z</time>
      </trkpt>
      <trkpt lat="43.72943" lon="7.04277">
        <ele>831.6</ele>
        <time>2016-09-26T09:54:48Z</time>
      </trkpt>
      <trkpt lat="43.7294" lon="7.04284">
        <ele>831.6</ele>
        <time>2016-09-26T09:54:52Z</time>
      </trkpt>
      <trkpt lat="43.7294" lon="7.04284">
        <ele>835.1</ele>
        <time>2016-09-26T09:55:01Z</time>
      </trkpt>
      <trkpt lat="43.72939" lon="7.04305">
        <ele>831.6</ele>
        <time>2016-09-26T09:55:02Z</time>
      </trkpt>
      <trkpt lat="43.7294" lon="7.04312">
        <ele>831.7</ele>
        <time>2016-09-26T09:55:06Z</time>
      </trkpt>
      <trkpt lat="43.7294" lon="7.04312">
        <ele>836.2</ele>
        <time>2016-09-26T09:55:16Z</time>
      </trkpt>
      <trkpt lat="43.72941" lon="7.04327">
        <ele>832.2</ele>
        <time>2016-09-26T09:55:17Z</time>
      </trkpt>
      <trkpt lat="43.7294" lon="7.04333">
        <ele>832.3</ele>
        <time>2016-09-26T09:55:21Z</time>
      </trkpt>
      <trkpt lat="43.7294" lon="7.0434">
        <ele>832.2</ele>
        <time>2016-09-26T09:55:26Z</time>
      </trkpt>
      <trkpt lat="43.7294" lon="7.04348">
        <ele>832.2</ele>
        <time>2016-09-26T09:55:31Z</time>
      </trkpt>
      <trkpt lat="43.7294" lon="7.04355">
        <ele>832.2</ele>
        <time>2016-09-26T09:55:35Z</time>
      </trkpt>
      <trkpt lat="43.7294" lon="7.04364">
        <ele>832.2</ele>
        <time>2016-09-26T09:55:39Z</time>
      </trkpt>
      <trkpt lat="43.7294" lon="7.04364">
        <ele>838.4</ele>
        <time>2016-09-26T09:55:47Z</time>
      </trkpt>
      <trkpt lat="43.72938" lon="7.04383">
        <ele>832.3</ele>
        <time>2016-09-26T09:55:50Z</time>
      </trkpt>
      <trkpt lat="43.72938" lon="7.04383">
        <ele>838.6</ele>
        <time>2016-09-26T09:55:59Z</time>
      </trkpt>
      <trkpt lat="43.72939" lon="7.04402">
        <ele>832.6</ele>
        <time>2016-09-26T09:56:01Z</time>
      </trkpt>
      <trkpt lat="43.7294" lon="7.04409">
        <ele>832.9</ele>
        <time>2016-09-26T09:56:06Z</time>
      </trkpt>
      <trkpt lat="43.72941" lon="7.04416">
        <ele>833</ele>
        <time>2016-09-26T09:56:11Z</time>
      </trkpt>
      <trkpt lat="43.72942" lon="7.04429">
        <ele>833.2</ele>
        <time>2016-09-26T09:56:18Z</time>
      </trkpt>
      <trkpt lat="43.72941" lon="7.04437">
        <ele>833.3</ele>
        <time>2016-09-26T09:56:22Z</time>
      </trkpt>
      <trkpt lat="43.72941" lon="7.04437">
        <ele>842.4</ele>
        <time>2016-09-26T09:56:32Z</time>
      </trkpt>
      <trkpt lat="43.72935" lon="7.04465">
        <ele>835.3</ele>
        <time>2016-09-26T09:56:37Z</time>
      </trkpt>
      <trkpt lat="43.72934" lon="7.04472">
        <ele>835.3</ele>
        <time>2016-09-26T09:56:41Z</time>
      </trkpt>
      <trkpt lat="43.72934" lon="7.04472">
        <ele>842.3</ele>
        <time>2016-09-26T09:56:49Z</time>
      </trkpt>
      <trkpt lat="43.72929" lon="7.04494">
        <ele>838.6</ele>
        <time>2016-09-26T09:56:53Z</time>
      </trkpt>
      <trkpt lat="43.72929" lon="7.045">
        <ele>839</ele>
        <time>2016-09-26T09:56:57Z</time>
      </trkpt>
      <trkpt lat="43.72929" lon="7.04506">
        <ele>839.7</ele>
        <time>2016-09-26T09:57:00Z</time>
      </trkpt>
      <trkpt lat="43.72933" lon="7.04517">
        <ele>840.2</ele>
        <time>2016-09-26T09:57:06Z</time>
      </trkpt>
      <trkpt lat="43.7294" lon="7.04527">
        <ele>841</ele>
        <time>2016-09-26T09:57:13Z</time>
      </trkpt>
      <trkpt lat="43.7294" lon="7.04527">
        <ele>844.4</ele>
        <time>2016-09-26T09:57:21Z</time>
      </trkpt>
      <trkpt lat="43.72953" lon="7.04541">
        <ele>841.5</ele>
        <time>2016-09-26T09:57:26Z</time>
      </trkpt>
      <trkpt lat="43.72964" lon="7.04552">
        <ele>841.8</ele>
        <time>2016-09-26T09:57:35Z</time>
      </trkpt>
      <trkpt lat="43.72964" lon="7.04552">
        <ele>843.3</ele>
        <time>2016-09-26T09:57:44Z</time>
      </trkpt>
      <trkpt lat="43.72983" lon="7.04565">
        <ele>842.3</ele>
        <time>2016-09-26T09:57:48Z</time>
      </trkpt>
      <trkpt lat="43.72983" lon="7.04565">
        <ele>842.6</ele>
        <time>2016-09-26T09:57:56Z</time>
      </trkpt>
      <trkpt lat="43.72994" lon="7.04577">
        <ele>843</ele>
        <time>2016-09-26T09:57:57Z</time>
      </trkpt>
      <trkpt lat="43.73001" lon="7.04587">
        <ele>843.3</ele>
        <time>2016-09-26T09:58:03Z</time>
      </trkpt>
      <trkpt lat="43.73001" lon="7.04587">
        <ele>839.5</ele>
        <time>2016-09-26T09:58:12Z</time>
      </trkpt>
      <trkpt lat="43.73014" lon="7.046">
        <ele>843.9</ele>
        <time>2016-09-26T09:58:13Z</time>
      </trkpt>
      <trkpt lat="43.73018" lon="7.04603">
        <ele>844.3</ele>
        <time>2016-09-26T09:58:16Z</time>
      </trkpt>
      <trkpt lat="43.73021" lon="7.04607">
        <ele>844.3</ele>
        <time>2016-09-26T09:58:20Z</time>
      </trkpt>
      <trkpt lat="43.73024" lon="7.04612">
        <ele>844.3</ele>
        <time>2016-09-26T09:58:23Z</time>
      </trkpt>
      <trkpt lat="43.73029" lon="7.04616">
        <ele>844.3</ele>
        <time>2016-09-26T09:58:27Z</time>
      </trkpt>
      <trkpt lat="43.73034" lon="7.04621">
        <ele>844.3</ele>
        <time>2016-09-26T09:58:30Z</time>
      </trkpt>
      <trkpt lat="43.73039" lon="7.04627">
        <ele>844.3</ele>
        <time>2016-09-26T09:58:34Z</time>
      </trkpt>
      <trkpt lat="43.73042" lon="7.04632">
        <ele>844.3</ele>
        <time>2016-09-26T09:58:38Z</time>
      </trkpt>
      <trkpt lat="43.73045" lon="7.04637">
        <ele>844.3</ele>
        <time>2016-09-26T09:58:41Z</time>
      </trkpt>
      <trkpt lat="43.73045" lon="7.04637">
        <ele>836.7</ele>
        <time>2016-09-26T09:58:52Z</time>
      </trkpt>
      <trkpt lat="43.73045" lon="7.04637">
        <ele>836.7</ele>
        <time>2016-09-26T09:59:01Z</time>
      </trkpt>
      <trkpt lat="43.73066" lon="7.04666">
        <ele>842.8</ele>
        <time>2016-09-26T09:59:03Z</time>
      </trkpt>
      <trkpt lat="43.73074" lon="7.04674">
        <ele>841.1</ele>
        <time>2016-09-26T09:59:09Z</time>
      </trkpt>
      <trkpt lat="43.73078" lon="7.04678">
        <ele>840.1</ele>
        <time>2016-09-26T09:59:12Z</time>
      </trkpt>
      <trkpt lat="43.73085" lon="7.04689">
        <ele>839.4</ele>
        <time>2016-09-26T09:59:19Z</time>
      </trkpt>
      <trkpt lat="43.73089" lon="7.04693">
        <ele>839.2</ele>
        <time>2016-09-26T09:59:22Z</time>
      </trkpt>
      <trkpt lat="43.73094" lon="7.04699">
        <ele>838.6</ele>
        <time>2016-09-26T09:59:27Z</time>
      </trkpt>
      <trkpt lat="43.73097" lon="7.04705">
        <ele>838.2</ele>
        <time>2016-09-26T09:59:31Z</time>
      </trkpt>
      <trkpt lat="43.73108" lon="7.04718">
        <ele>837.9</ele>
        <time>2016-09-26T09:59:42Z</time>
      </trkpt>
      <trkpt lat="43.7311" lon="7.04725">
        <ele>837.5</ele>
        <time>2016-09-26T09:59:47Z</time>
      </trkpt>
      <trkpt lat="43.73106" lon="7.0473">
        <ele>836.9</ele>
        <time>2016-09-26T09:59:50Z</time>
      </trkpt>
      <trkpt lat="43.73102" lon="7.04733">
        <ele>836.9</ele>
        <time>2016-09-26T09:59:52Z</time>
      </trkpt>
      <trkpt lat="43.73102" lon="7.04733">
        <ele>831.5</ele>
        <time>2016-09-26T10:00:01Z</time>
      </trkpt>
      <trkpt lat="43.73089" lon="7.04735">
        <ele>834.4</ele>
        <time>2016-09-26T10:00:02Z</time>
      </trkpt>
      <trkpt lat="43.73089" lon="7.04735">
        <ele>830.5</ele>
        <time>2016-09-26T10:00:11Z</time>
      </trkpt>
      <trkpt lat="43.73074" lon="7.04735">
        <ele>833.5</ele>
        <time>2016-09-26T10:00:14Z</time>
      </trkpt>
      <trkpt lat="43.73061" lon="7.04731">
        <ele>831</ele>
        <time>2016-09-26T10:00:24Z</time>
      </trkpt>
      <trkpt lat="43.73052" lon="7.04732">
        <ele>828.6</ele>
        <time>2016-09-26T10:00:31Z</time>
      </trkpt>
      <trkpt lat="43.73045" lon="7.04734">
        <ele>827.9</ele>
        <time>2016-09-26T10:00:36Z</time>
      </trkpt>
      <trkpt lat="43.73041" lon="7.04736">
        <ele>827.9</ele>
        <time>2016-09-26T10:00:40Z</time>
      </trkpt>
      <trkpt lat="43.7303" lon="7.04735">
        <ele>827.1</ele>
        <time>2016-09-26T10:00:47Z</time>
      </trkpt>
      <trkpt lat="43.73025" lon="7.04732">
        <ele>824.9</ele>
        <time>2016-09-26T10:00:51Z</time>
      </trkpt>
      <trkpt lat="43.73021" lon="7.04729">
        <ele>824.7</ele>
        <time>2016-09-26T10:00:55Z</time>
      </trkpt>
      <trkpt lat="43.73012" lon="7.04728">
        <ele>824.5</ele>
        <time>2016-09-26T10:01:01Z</time>
      </trkpt>
      <trkpt lat="43.73002" lon="7.04727">
        <ele>824.3</ele>
        <time>2016-09-26T10:01:08Z</time>
      </trkpt>
      <trkpt lat="43.72997" lon="7.0473">
        <ele>824.1</ele>
        <time>2016-09-26T10:01:11Z</time>
      </trkpt>
      <trkpt lat="43.72992" lon="7.04732">
        <ele>824.1</ele>
        <time>2016-09-26T10:01:14Z</time>
      </trkpt>
      <trkpt lat="43.72982" lon="7.04734">
        <ele>823.8</ele>
        <time>2016-09-26T10:01:21Z</time>
      </trkpt>
      <trkpt lat="43.72972" lon="7.0474">
        <ele>823</ele>
        <time>2016-09-26T10:01:27Z</time>
      </trkpt>
      <trkpt lat="43.72968" lon="7.04746">
        <ele>822.4</ele>
        <time>2016-09-26T10:01:33Z</time>
      </trkpt>
      <trkpt lat="43.72968" lon="7.04753">
        <ele>820.7</ele>
        <time>2016-09-26T10:01:38Z</time>
      </trkpt>
      <trkpt lat="43.7297" lon="7.0476">
        <ele>820.3</ele>
        <time>2016-09-26T10:01:43Z</time>
      </trkpt>
      <trkpt lat="43.72973" lon="7.04766">
        <ele>819.2</ele>
        <time>2016-09-26T10:01:46Z</time>
      </trkpt>
      <trkpt lat="43.72975" lon="7.04772">
        <ele>818.6</ele>
        <time>2016-09-26T10:01:49Z</time>
      </trkpt>
      <trkpt lat="43.72976" lon="7.04778">
        <ele>818.3</ele>
        <time>2016-09-26T10:01:52Z</time>
      </trkpt>
      <trkpt lat="43.72976" lon="7.04797">
        <ele>816.5</ele>
        <time>2016-09-26T10:02:01Z</time>
      </trkpt>
      <trkpt lat="43.72976" lon="7.04804">
        <ele>816.3</ele>
        <time>2016-09-26T10:02:04Z</time>
      </trkpt>
      <trkpt lat="43.72976" lon="7.04804">
        <ele>812.5</ele>
        <time>2016-09-26T10:02:14Z</time>
      </trkpt>
      <trkpt lat="43.72972" lon="7.04822">
        <ele>815.9</ele>
        <time>2016-09-26T10:02:15Z</time>
      </trkpt>
      <trkpt lat="43.72972" lon="7.04834">
        <ele>815.4</ele>
        <time>2016-09-26T10:02:21Z</time>
      </trkpt>
      <trkpt lat="43.72977" lon="7.04845">
        <ele>815.1</ele>
        <time>2016-09-26T10:02:28Z</time>
      </trkpt>
      <trkpt lat="43.72981" lon="7.04849">
        <ele>814.8</ele>
        <time>2016-09-26T10:02:32Z</time>
      </trkpt>
      <trkpt lat="43.72981" lon="7.04849">
        <ele>809.7</ele>
        <time>2016-09-26T10:02:41Z</time>
      </trkpt>
      <trkpt lat="43.72992" lon="7.04862">
        <ele>813.2</ele>
        <time>2016-09-26T10:02:43Z</time>
      </trkpt>
      <trkpt lat="43.72996" lon="7.04866">
        <ele>813.1</ele>
        <time>2016-09-26T10:02:47Z</time>
      </trkpt>
      <trkpt lat="43.73" lon="7.04871">
        <ele>812.9</ele>
        <time>2016-09-26T10:02:52Z</time>
      </trkpt>
      <trkpt lat="43.73004" lon="7.04875">
        <ele>812.6</ele>
        <time>2016-09-26T10:02:56Z</time>
      </trkpt>
      <trkpt lat="43.73012" lon="7.04883">
        <ele>811.7</ele>
        <time>2016-09-26T10:03:03Z</time>
      </trkpt>
      <trkpt lat="43.73018" lon="7.04895">
        <ele>810.6</ele>
        <time>2016-09-26T10:03:09Z</time>
      </trkpt>
      <trkpt lat="43.73022" lon="7.04898">
        <ele>809.9</ele>
        <time>2016-09-26T10:03:12Z</time>
      </trkpt>
      <trkpt lat="43.73025" lon="7.04903">
        <ele>808.8</ele>
        <time>2016-09-26T10:03:15Z</time>
      </trkpt>
      <trkpt lat="43.73029" lon="7.04907">
        <ele>808.8</ele>
        <time>2016-09-26T10:03:18Z</time>
      </trkpt>
      <trkpt lat="43.73034" lon="7.0491">
        <ele>807.1</ele>
        <time>2016-09-26T10:03:22Z</time>
      </trkpt>
      <trkpt lat="43.73034" lon="7.0491">
        <ele>807</ele>
        <time>2016-09-26T10:03:23Z</time>
      </trkpt>
      <trkpt lat="43.73035" lon="7.0491">
        <ele>805.7</ele>
        <time>2016-09-26T10:03:26Z</time>
      </trkpt>
      <trkpt lat="43.73035" lon="7.0491">
        <ele>806.2</ele>
        <time>2016-09-26T10:03:26Z</time>
      </trkpt>
      <trkpt lat="43.73035" lon="7.0491">
        <ele>806.2</ele>
        <time>2016-09-26T10:03:41Z</time>
      </trkpt>
      <trkpt lat="43.73045" lon="7.04914">
        <ele>806.6</ele>
        <time>2016-09-26T10:03:43Z</time>
      </trkpt>
      <trkpt lat="43.7305" lon="7.04911">
        <ele>806.5</ele>
        <time>2016-09-26T10:03:49Z</time>
      </trkpt>
      <trkpt lat="43.73062" lon="7.04902">
        <ele>806.3</ele>
        <time>2016-09-26T10:03:58Z</time>
      </trkpt>
      <trkpt lat="43.73062" lon="7.04902">
        <ele>806</ele>
        <time>2016-09-26T10:04:06Z</time>
      </trkpt>
      <trkpt lat="43.7308" lon="7.04893">
        <ele>806.1</ele>
        <time>2016-09-26T10:04:09Z</time>
      </trkpt>
      <trkpt lat="43.73084" lon="7.04889">
        <ele>806.1</ele>
        <time>2016-09-26T10:04:12Z</time>
      </trkpt>
      <trkpt lat="43.73088" lon="7.04886">
        <ele>806.2</ele>
        <time>2016-09-26T10:04:15Z</time>
      </trkpt>
      <trkpt lat="43.73098" lon="7.04882">
        <ele>806.3</ele>
        <time>2016-09-26T10:04:21Z</time>
      </trkpt>
      <trkpt lat="43.73102" lon="7.04878">
        <ele>806.4</ele>
        <time>2016-09-26T10:04:24Z</time>
      </trkpt>
      <trkpt lat="43.73105" lon="7.04873">
        <ele>806.4</ele>
        <time>2016-09-26T10:04:27Z</time>
      </trkpt>
      <trkpt lat="43.7311" lon="7.0487">
        <ele>806.5</ele>
        <time>2016-09-26T10:04:30Z</time>
      </trkpt>
      <trkpt lat="43.73119" lon="7.04867">
        <ele>806.5</ele>
        <time>2016-09-26T10:04:35Z</time>
      </trkpt>
      <trkpt lat="43.73119" lon="7.04867">
        <ele>805.9</ele>
        <time>2016-09-26T10:04:44Z</time>
      </trkpt>
      <trkpt lat="43.73133" lon="7.04864">
        <ele>806.3</ele>
        <time>2016-09-26T10:04:46Z</time>
      </trkpt>
      <trkpt lat="43.73148" lon="7.04864">
        <ele>806.4</ele>
        <time>2016-09-26T10:04:54Z</time>
      </trkpt>
      <trkpt lat="43.73158" lon="7.04867">
        <ele>806.4</ele>
        <time>2016-09-26T10:05:00Z</time>
      </trkpt>
      <trkpt lat="43.73158" lon="7.04867">
        <ele>806.4</ele>
        <time>2016-09-26T10:05:08Z</time>
      </trkpt>
      <trkpt lat="43.73184" lon="7.04874">
        <ele>806.1</ele>
        <time>2016-09-26T10:05:15Z</time>
      </trkpt>
      <trkpt lat="43.73191" lon="7.04884">
        <ele>805.8</ele>
        <time>2016-09-26T10:05:21Z</time>
      </trkpt>
      <trkpt lat="43.73195" lon="7.04889">
        <ele>805.7</ele>
        <time>2016-09-26T10:05:26Z</time>
      </trkpt>
      <trkpt lat="43.73202" lon="7.04901">
        <ele>805.7</ele>
        <time>2016-09-26T10:05:34Z</time>
      </trkpt>
      <trkpt lat="43.73203" lon="7.04908">
        <ele>805.7</ele>
        <time>2016-09-26T10:05:38Z</time>
      </trkpt>
      <trkpt lat="43.73203" lon="7.04908">
        <ele>808.5</ele>
        <time>2016-09-26T10:05:47Z</time>
      </trkpt>
      <trkpt lat="43.73207" lon="7.04928">
        <ele>805.7</ele>
        <time>2016-09-26T10:05:48Z</time>
      </trkpt>
      <trkpt lat="43.73206" lon="7.04941">
        <ele>805.9</ele>
        <time>2016-09-26T10:05:54Z</time>
      </trkpt>
      <trkpt lat="43.73208" lon="7.04948">
        <ele>806.1</ele>
        <time>2016-09-26T10:05:57Z</time>
      </trkpt>
      <trkpt lat="43.73211" lon="7.04963">
        <ele>808.6</ele>
        <time>2016-09-26T10:06:04Z</time>
      </trkpt>
      <trkpt lat="43.73213" lon="7.04971">
        <ele>809.6</ele>
        <time>2016-09-26T10:06:08Z</time>
      </trkpt>
      <trkpt lat="43.73215" lon="7.04978">
        <ele>809.6</ele>
        <time>2016-09-26T10:06:11Z</time>
      </trkpt>
      <trkpt lat="43.73215" lon="7.04985">
        <ele>809.6</ele>
        <time>2016-09-26T10:06:15Z</time>
      </trkpt>
      <trkpt lat="43.73219" lon="7.04992">
        <ele>809.6</ele>
        <time>2016-09-26T10:06:18Z</time>
      </trkpt>
      <trkpt lat="43.73223" lon="7.05003">
        <ele>809.6</ele>
        <time>2016-09-26T10:06:23Z</time>
      </trkpt>
      <trkpt lat="43.73223" lon="7.05003">
        <ele>806.9</ele>
        <time>2016-09-26T10:06:32Z</time>
      </trkpt>
      <trkpt lat="43.73232" lon="7.05018">
        <ele>809.6</ele>
        <time>2016-09-26T10:06:33Z</time>
      </trkpt>
      <trkpt lat="43.73237" lon="7.05024">
        <ele>809.5</ele>
        <time>2016-09-26T10:06:37Z</time>
      </trkpt>
      <trkpt lat="43.73248" lon="7.05034">
        <ele>809.1</ele>
        <time>2016-09-26T10:06:45Z</time>
      </trkpt>
      <trkpt lat="43.73253" lon="7.05039">
        <ele>808.7</ele>
        <time>2016-09-26T10:06:48Z</time>
      </trkpt>
      <trkpt lat="43.73257" lon="7.05041">
        <ele>808.7</ele>
        <time>2016-09-26T10:06:51Z</time>
      </trkpt>
      <trkpt lat="43.73267" lon="7.05047">
        <ele>808.1</ele>
        <time>2016-09-26T10:06:58Z</time>
      </trkpt>
      <trkpt lat="43.7328" lon="7.0505">
        <ele>806.9</ele>
        <time>2016-09-26T10:07:06Z</time>
      </trkpt>
      <trkpt lat="43.7328" lon="7.0505">
        <ele>806.2</ele>
        <time>2016-09-26T10:07:15Z</time>
      </trkpt>
      <trkpt lat="43.73295" lon="7.05056">
        <ele>806.2</ele>
        <time>2016-09-26T10:07:16Z</time>
      </trkpt>
      <trkpt lat="43.73302" lon="7.05065">
        <ele>805.9</ele>
        <time>2016-09-26T10:07:22Z</time>
      </trkpt>
      <trkpt lat="43.73312" lon="7.05078">
        <ele>805</ele>
        <time>2016-09-26T10:07:29Z</time>
      </trkpt>
      <trkpt lat="43.73316" lon="7.05082">
        <ele>804.3</ele>
        <time>2016-09-26T10:07:32Z</time>
      </trkpt>
      <trkpt lat="43.73323" lon="7.05092">
        <ele>804.2</ele>
        <time>2016-09-26T10:07:38Z</time>
      </trkpt>
      <trkpt lat="43.73331" lon="7.05099">
        <ele>803.8</ele>
        <time>2016-09-26T10:07:43Z</time>
      </trkpt>
      <trkpt lat="43.73338" lon="7.0511">
        <ele>802.8</ele>
        <time>2016-09-26T10:07:49Z</time>
      </trkpt>
      <trkpt lat="43.73351" lon="7.05117">
        <ele>802.2</ele>
        <time>2016-09-26T10:07:57Z</time>
      </trkpt>
      <trkpt lat="43.73361" lon="7.05119">
        <ele>801.8</ele>
        <time>2016-09-26T10:08:03Z</time>
      </trkpt>
      <trkpt lat="43.73369" lon="7.05128">
        <ele>801.5</ele>
        <time>2016-09-26T10:08:09Z</time>
      </trkpt>
      <trkpt lat="43.73377" lon="7.05136">
        <ele>801.5</ele>
        <time>2016-09-26T10:08:15Z</time>
      </trkpt>
      <trkpt lat="43.73377" lon="7.05143">
        <ele>801.5</ele>
        <time>2016-09-26T10:08:19Z</time>
      </trkpt>
      <trkpt lat="43.73375" lon="7.05149">
        <ele>801.5</ele>
        <time>2016-09-26T10:08:22Z</time>
      </trkpt>
      <trkpt lat="43.7337" lon="7.0516">
        <ele>801.4</ele>
        <time>2016-09-26T10:08:28Z</time>
      </trkpt>
      <trkpt lat="43.73366" lon="7.05178">
        <ele>801.3</ele>
        <time>2016-09-26T10:08:36Z</time>
      </trkpt>
      <trkpt lat="43.73365" lon="7.05191">
        <ele>801</ele>
        <time>2016-09-26T10:08:42Z</time>
      </trkpt>
      <trkpt lat="43.73365" lon="7.05191">
        <ele>803.1</ele>
        <time>2016-09-26T10:08:51Z</time>
      </trkpt>
      <trkpt lat="43.73368" lon="7.05232">
        <ele>800.8</ele>
        <time>2016-09-26T10:08:59Z</time>
      </trkpt>
      <trkpt lat="43.7337" lon="7.05246">
        <ele>800.4</ele>
        <time>2016-09-26T10:09:05Z</time>
      </trkpt>
      <trkpt lat="43.73371" lon="7.05252">
        <ele>799.8</ele>
        <time>2016-09-26T10:09:08Z</time>
      </trkpt>
      <trkpt lat="43.73371" lon="7.05252">
        <ele>801.3</ele>
        <time>2016-09-26T10:09:18Z</time>
      </trkpt>
      <trkpt lat="43.73371" lon="7.05286">
        <ele>798.6</ele>
        <time>2016-09-26T10:09:23Z</time>
      </trkpt>
      <trkpt lat="43.7337" lon="7.05301">
        <ele>798.5</ele>
        <time>2016-09-26T10:09:28Z</time>
      </trkpt>
      <trkpt lat="43.7337" lon="7.05301">
        <ele>798.5</ele>
        <time>2016-09-26T10:09:36Z</time>
      </trkpt>
      <trkpt lat="43.73371" lon="7.05321">
        <ele>798</ele>
        <time>2016-09-26T10:09:37Z</time>
      </trkpt>
      <trkpt lat="43.73368" lon="7.05341">
        <ele>797.8</ele>
        <time>2016-09-26T10:09:44Z</time>
      </trkpt>
      <trkpt lat="43.73369" lon="7.05354">
        <ele>797.7</ele>
        <time>2016-09-26T10:09:49Z</time>
      </trkpt>
      <trkpt lat="43.73368" lon="7.05373">
        <ele>797.6</ele>
        <time>2016-09-26T10:09:56Z</time>
      </trkpt>
      <trkpt lat="43.73368" lon="7.0538">
        <ele>797.4</ele>
        <time>2016-09-26T10:09:59Z</time>
      </trkpt>
      <trkpt lat="43.73367" lon="7.05387">
        <ele>797.3</ele>
        <time>2016-09-26T10:10:02Z</time>
      </trkpt>
      <trkpt lat="43.73369" lon="7.05393">
        <ele>797.3</ele>
        <time>2016-09-26T10:10:05Z</time>
      </trkpt>
      <trkpt lat="43.73373" lon="7.05411">
        <ele>796.5</ele>
        <time>2016-09-26T10:10:13Z</time>
      </trkpt>
      <trkpt lat="43.73375" lon="7.05418">
        <ele>795.7</ele>
        <time>2016-09-26T10:10:16Z</time>
      </trkpt>
      <trkpt lat="43.73378" lon="7.05425">
        <ele>795.7</ele>
        <time>2016-09-26T10:10:19Z</time>
      </trkpt>
      <trkpt lat="43.7338" lon="7.05431">
        <ele>795</ele>
        <time>2016-09-26T10:10:22Z</time>
      </trkpt>
      <trkpt lat="43.73383" lon="7.05441">
        <ele>794.8</ele>
        <time>2016-09-26T10:10:27Z</time>
      </trkpt>
      <trkpt lat="43.73384" lon="7.05448">
        <ele>794.8</ele>
        <time>2016-09-26T10:10:30Z</time>
      </trkpt>
      <trkpt lat="43.73383" lon="7.05455">
        <ele>794.7</ele>
        <time>2016-09-26T10:10:34Z</time>
      </trkpt>
      <trkpt lat="43.73381" lon="7.05461">
        <ele>794.7</ele>
        <time>2016-09-26T10:10:38Z</time>
      </trkpt>
      <trkpt lat="43.73377" lon="7.05466">
        <ele>794.7</ele>
        <time>2016-09-26T10:10:41Z</time>
      </trkpt>
      <trkpt lat="43.73371" lon="7.05478">
        <ele>794.7</ele>
        <time>2016-09-26T10:10:49Z</time>
      </trkpt>
      <trkpt lat="43.73366" lon="7.05486">
        <ele>794.6</ele>
        <time>2016-09-26T10:10:54Z</time>
      </trkpt>
      <trkpt lat="43.73362" lon="7.05491">
        <ele>794.6</ele>
        <time>2016-09-26T10:10:58Z</time>
      </trkpt>
      <trkpt lat="43.7336" lon="7.05494">
        <ele>794.6</ele>
        <time>2016-09-26T10:11:00Z</time>
      </trkpt>
      <trkpt lat="43.73359" lon="7.05496">
        <ele>793</ele>
        <time>2016-09-26T10:11:04Z</time>
      </trkpt>
      <trkpt lat="43.73359" lon="7.05496">
        <ele>795.3</ele>
        <time>2016-09-26T10:11:04Z</time>
      </trkpt>
      <trkpt lat="43.73359" lon="7.05496">
        <ele>795.3</ele>
        <time>2016-09-26T10:11:49Z</time>
      </trkpt>
    </trkseg>
  </trk>
</gpx>